<?xml version="1.0" encoding="UTF-8" standalone="no" ?>
<gpx xmlns="http://www.topografix.com/GPX/1/1" xmlns:xsi="http://www.w3.org/2001/XMLSchema-instance" xsi:schemaLocation="http://www.topografix.com/GPX/1/1 http://www.topografix.com/GPX/1/1/gpx.xsd" version="1.1" creator="VisuGPX - https://www.visugpx.com">
  <metadata>
    <name>Sortie de reprise</name>
    <desc><![CDATA[En fin de matinée s\'était la reprise, petit footing dans les bois du Sauvage.
Le genoux droit est en fin de parcours un peu douloureux, la cheville gauche et le bas du dos on tenus le coup:)]]></desc>
  </metadata>
  <trk>
    <name><![CDATA[2014-02-22-10-1]]></name>
    <trkseg>
      <trkpt lat="44.38279" lon="2.45772">
        <ele>565.8</ele>
        <time>2014-02-22T09:13:18Z</time>
      </trkpt>
      <trkpt lat="44.38281" lon="2.45771">
        <ele>565.2</ele>
        <time>2014-02-22T09:13:20Z</time>
      </trkpt>
      <trkpt lat="44.38287" lon="2.4577">
        <ele>564.2</ele>
        <time>2014-02-22T09:13:24Z</time>
      </trkpt>
      <trkpt lat="44.38299" lon="2.45771">
        <ele>564.2</ele>
        <time>2014-02-22T09:13:30Z</time>
      </trkpt>
      <trkpt lat="44.38304" lon="2.45777">
        <ele>565</ele>
        <time>2014-02-22T09:13:33Z</time>
      </trkpt>
      <trkpt lat="44.38309" lon="2.45784">
        <ele>565.6</ele>
        <time>2014-02-22T09:13:36Z</time>
      </trkpt>
      <trkpt lat="44.38314" lon="2.45793">
        <ele>566.4</ele>
        <time>2014-02-22T09:13:39Z</time>
      </trkpt>
      <trkpt lat="44.38316" lon="2.45795">
        <ele>566.8</ele>
        <time>2014-02-22T09:13:40Z</time>
      </trkpt>
      <trkpt lat="44.38328" lon="2.45808">
        <ele>568</ele>
        <time>2014-02-22T09:13:46Z</time>
      </trkpt>
      <trkpt lat="44.38342" lon="2.45819">
        <ele>568.6</ele>
        <time>2014-02-22T09:13:53Z</time>
      </trkpt>
      <trkpt lat="44.38353" lon="2.45827">
        <ele>569</ele>
        <time>2014-02-22T09:13:58Z</time>
      </trkpt>
      <trkpt lat="44.38366" lon="2.45835">
        <ele>569</ele>
        <time>2014-02-22T09:14:04Z</time>
      </trkpt>
      <trkpt lat="44.38378" lon="2.45847">
        <ele>569.2</ele>
        <time>2014-02-22T09:14:09Z</time>
      </trkpt>
      <trkpt lat="44.38388" lon="2.45863">
        <ele>569.2</ele>
        <time>2014-02-22T09:14:14Z</time>
      </trkpt>
      <trkpt lat="44.38395" lon="2.45876">
        <ele>569.2</ele>
        <time>2014-02-22T09:14:18Z</time>
      </trkpt>
      <trkpt lat="44.38401" lon="2.45887">
        <ele>569.2</ele>
        <time>2014-02-22T09:14:22Z</time>
      </trkpt>
      <trkpt lat="44.3841" lon="2.45896">
        <ele>569.2</ele>
        <time>2014-02-22T09:14:26Z</time>
      </trkpt>
      <trkpt lat="44.38414" lon="2.45909">
        <ele>569.2</ele>
        <time>2014-02-22T09:14:31Z</time>
      </trkpt>
      <trkpt lat="44.38414" lon="2.45911">
        <ele>569.2</ele>
        <time>2014-02-22T09:14:32Z</time>
      </trkpt>
      <trkpt lat="44.38419" lon="2.45921">
        <ele>569.2</ele>
        <time>2014-02-22T09:14:37Z</time>
      </trkpt>
      <trkpt lat="44.38426" lon="2.4593">
        <ele>569.2</ele>
        <time>2014-02-22T09:14:42Z</time>
      </trkpt>
      <trkpt lat="44.38432" lon="2.45939">
        <ele>569.2</ele>
        <time>2014-02-22T09:14:46Z</time>
      </trkpt>
      <trkpt lat="44.38438" lon="2.45955">
        <ele>569.2</ele>
        <time>2014-02-22T09:14:52Z</time>
      </trkpt>
      <trkpt lat="44.3844" lon="2.45959">
        <ele>569.2</ele>
        <time>2014-02-22T09:14:54Z</time>
      </trkpt>
      <trkpt lat="44.38449" lon="2.45966">
        <ele>569.2</ele>
        <time>2014-02-22T09:15:00Z</time>
      </trkpt>
      <trkpt lat="44.38458" lon="2.45973">
        <ele>569.2</ele>
        <time>2014-02-22T09:15:06Z</time>
      </trkpt>
      <trkpt lat="44.38463" lon="2.45979">
        <ele>569.2</ele>
        <time>2014-02-22T09:15:10Z</time>
      </trkpt>
      <trkpt lat="44.38471" lon="2.45991">
        <ele>569.2</ele>
        <time>2014-02-22T09:15:17Z</time>
      </trkpt>
      <trkpt lat="44.38478" lon="2.46003">
        <ele>569.6</ele>
        <time>2014-02-22T09:15:24Z</time>
      </trkpt>
      <trkpt lat="44.3848" lon="2.46004">
        <ele>569.8</ele>
        <time>2014-02-22T09:15:25Z</time>
      </trkpt>
      <trkpt lat="44.38485" lon="2.46012">
        <ele>570.4</ele>
        <time>2014-02-22T09:15:30Z</time>
      </trkpt>
      <trkpt lat="44.38493" lon="2.46012">
        <ele>572.2</ele>
        <time>2014-02-22T09:15:40Z</time>
      </trkpt>
      <trkpt lat="44.38506" lon="2.4601">
        <ele>572.8</ele>
        <time>2014-02-22T09:15:46Z</time>
      </trkpt>
      <trkpt lat="44.38524" lon="2.46006">
        <ele>573.6</ele>
        <time>2014-02-22T09:15:53Z</time>
      </trkpt>
      <trkpt lat="44.3854" lon="2.46001">
        <ele>574.6</ele>
        <time>2014-02-22T09:15:59Z</time>
      </trkpt>
      <trkpt lat="44.38556" lon="2.45996">
        <ele>575</ele>
        <time>2014-02-22T09:16:05Z</time>
      </trkpt>
      <trkpt lat="44.38575" lon="2.4599">
        <ele>575.2</ele>
        <time>2014-02-22T09:16:11Z</time>
      </trkpt>
      <trkpt lat="44.38585" lon="2.45989">
        <ele>575.4</ele>
        <time>2014-02-22T09:16:15Z</time>
      </trkpt>
      <trkpt lat="44.38596" lon="2.45993">
        <ele>576</ele>
        <time>2014-02-22T09:16:20Z</time>
      </trkpt>
      <trkpt lat="44.38601" lon="2.45992">
        <ele>576.4</ele>
        <time>2014-02-22T09:16:22Z</time>
      </trkpt>
      <trkpt lat="44.38621" lon="2.45983">
        <ele>577</ele>
        <time>2014-02-22T09:16:29Z</time>
      </trkpt>
      <trkpt lat="44.38638" lon="2.45978">
        <ele>577.2</ele>
        <time>2014-02-22T09:16:35Z</time>
      </trkpt>
      <trkpt lat="44.38653" lon="2.4597">
        <ele>577.4</ele>
        <time>2014-02-22T09:16:41Z</time>
      </trkpt>
      <trkpt lat="44.38667" lon="2.45957">
        <ele>577.4</ele>
        <time>2014-02-22T09:16:47Z</time>
      </trkpt>
      <trkpt lat="44.38676" lon="2.4595">
        <ele>577.4</ele>
        <time>2014-02-22T09:16:51Z</time>
      </trkpt>
      <trkpt lat="44.38688" lon="2.45939">
        <ele>577.4</ele>
        <time>2014-02-22T09:16:56Z</time>
      </trkpt>
      <trkpt lat="44.38705" lon="2.45924">
        <ele>577.4</ele>
        <time>2014-02-22T09:17:03Z</time>
      </trkpt>
      <trkpt lat="44.38717" lon="2.45913">
        <ele>577.6</ele>
        <time>2014-02-22T09:17:08Z</time>
      </trkpt>
      <trkpt lat="44.38726" lon="2.45903">
        <ele>577.6</ele>
        <time>2014-02-22T09:17:13Z</time>
      </trkpt>
      <trkpt lat="44.38727" lon="2.45901">
        <ele>577.6</ele>
        <time>2014-02-22T09:17:18Z</time>
      </trkpt>
      <trkpt lat="44.38726" lon="2.45901">
        <ele>577.6</ele>
        <time>2014-02-22T09:17:22Z</time>
      </trkpt>
      <trkpt lat="44.38726" lon="2.45901">
        <ele>577.6</ele>
        <time>2014-02-22T09:17:26Z</time>
      </trkpt>
      <trkpt lat="44.38726" lon="2.45901">
        <ele>577.6</ele>
        <time>2014-02-22T09:17:28Z</time>
      </trkpt>
      <trkpt lat="44.38727" lon="2.45901">
        <ele>577.6</ele>
        <time>2014-02-22T09:17:29Z</time>
      </trkpt>
      <trkpt lat="44.38735" lon="2.45892">
        <ele>577.6</ele>
        <time>2014-02-22T09:17:35Z</time>
      </trkpt>
      <trkpt lat="44.38751" lon="2.45873">
        <ele>577.6</ele>
        <time>2014-02-22T09:17:42Z</time>
      </trkpt>
      <trkpt lat="44.38762" lon="2.4586">
        <ele>577.6</ele>
        <time>2014-02-22T09:17:47Z</time>
      </trkpt>
      <trkpt lat="44.38777" lon="2.45844">
        <ele>577.6</ele>
        <time>2014-02-22T09:17:53Z</time>
      </trkpt>
      <trkpt lat="44.38792" lon="2.45829">
        <ele>577.6</ele>
        <time>2014-02-22T09:17:59Z</time>
      </trkpt>
      <trkpt lat="44.38809" lon="2.45813">
        <ele>577.6</ele>
        <time>2014-02-22T09:18:06Z</time>
      </trkpt>
      <trkpt lat="44.38816" lon="2.45805">
        <ele>577.6</ele>
        <time>2014-02-22T09:18:09Z</time>
      </trkpt>
      <trkpt lat="44.38823" lon="2.45791">
        <ele>577.6</ele>
        <time>2014-02-22T09:18:13Z</time>
      </trkpt>
      <trkpt lat="44.38826" lon="2.45775">
        <ele>577.6</ele>
        <time>2014-02-22T09:18:17Z</time>
      </trkpt>
      <trkpt lat="44.38831" lon="2.4575">
        <ele>577.6</ele>
        <time>2014-02-22T09:18:23Z</time>
      </trkpt>
      <trkpt lat="44.38834" lon="2.45729">
        <ele>577.6</ele>
        <time>2014-02-22T09:18:28Z</time>
      </trkpt>
      <trkpt lat="44.38835" lon="2.45708">
        <ele>577.2</ele>
        <time>2014-02-22T09:18:33Z</time>
      </trkpt>
      <trkpt lat="44.38835" lon="2.45687">
        <ele>576.4</ele>
        <time>2014-02-22T09:18:38Z</time>
      </trkpt>
      <trkpt lat="44.38835" lon="2.45662">
        <ele>576</ele>
        <time>2014-02-22T09:18:44Z</time>
      </trkpt>
      <trkpt lat="44.38837" lon="2.45641">
        <ele>575</ele>
        <time>2014-02-22T09:18:49Z</time>
      </trkpt>
      <trkpt lat="44.38841" lon="2.45621">
        <ele>574.4</ele>
        <time>2014-02-22T09:18:54Z</time>
      </trkpt>
      <trkpt lat="44.38846" lon="2.45602">
        <ele>574</ele>
        <time>2014-02-22T09:18:59Z</time>
      </trkpt>
      <trkpt lat="44.38852" lon="2.45577">
        <ele>573.8</ele>
        <time>2014-02-22T09:19:05Z</time>
      </trkpt>
      <trkpt lat="44.3886" lon="2.45549">
        <ele>573.6</ele>
        <time>2014-02-22T09:19:13Z</time>
      </trkpt>
      <trkpt lat="44.38868" lon="2.45534">
        <ele>573.6</ele>
        <time>2014-02-22T09:19:18Z</time>
      </trkpt>
      <trkpt lat="44.38881" lon="2.45512">
        <ele>573.4</ele>
        <time>2014-02-22T09:19:25Z</time>
      </trkpt>
      <trkpt lat="44.38886" lon="2.45502">
        <ele>573.4</ele>
        <time>2014-02-22T09:19:28Z</time>
      </trkpt>
      <trkpt lat="44.38895" lon="2.4549">
        <ele>573.4</ele>
        <time>2014-02-22T09:19:32Z</time>
      </trkpt>
      <trkpt lat="44.38908" lon="2.4547">
        <ele>573.4</ele>
        <time>2014-02-22T09:19:38Z</time>
      </trkpt>
      <trkpt lat="44.38922" lon="2.4545">
        <ele>573.4</ele>
        <time>2014-02-22T09:19:44Z</time>
      </trkpt>
      <trkpt lat="44.38933" lon="2.45443">
        <ele>573.4</ele>
        <time>2014-02-22T09:19:48Z</time>
      </trkpt>
      <trkpt lat="44.38945" lon="2.45446">
        <ele>573.4</ele>
        <time>2014-02-22T09:19:52Z</time>
      </trkpt>
      <trkpt lat="44.38959" lon="2.45454">
        <ele>573.4</ele>
        <time>2014-02-22T09:19:57Z</time>
      </trkpt>
      <trkpt lat="44.3897" lon="2.45456">
        <ele>573.4</ele>
        <time>2014-02-22T09:20:01Z</time>
      </trkpt>
      <trkpt lat="44.38988" lon="2.45449">
        <ele>573.4</ele>
        <time>2014-02-22T09:20:07Z</time>
      </trkpt>
      <trkpt lat="44.39001" lon="2.4544">
        <ele>573.4</ele>
        <time>2014-02-22T09:20:12Z</time>
      </trkpt>
      <trkpt lat="44.39016" lon="2.45426">
        <ele>573.4</ele>
        <time>2014-02-22T09:20:18Z</time>
      </trkpt>
      <trkpt lat="44.39027" lon="2.45411">
        <ele>573.4</ele>
        <time>2014-02-22T09:20:23Z</time>
      </trkpt>
      <trkpt lat="44.39039" lon="2.45399">
        <ele>573.4</ele>
        <time>2014-02-22T09:20:28Z</time>
      </trkpt>
      <trkpt lat="44.39051" lon="2.45394">
        <ele>573.4</ele>
        <time>2014-02-22T09:20:34Z</time>
      </trkpt>
      <trkpt lat="44.39053" lon="2.45395">
        <ele>573.4</ele>
        <time>2014-02-22T09:20:39Z</time>
      </trkpt>
      <trkpt lat="44.39056" lon="2.45399">
        <ele>572.8</ele>
        <time>2014-02-22T09:20:45Z</time>
      </trkpt>
      <trkpt lat="44.39056" lon="2.454">
        <ele>572.4</ele>
        <time>2014-02-22T09:20:48Z</time>
      </trkpt>
      <trkpt lat="44.39057" lon="2.45402">
        <ele>572.2</ele>
        <time>2014-02-22T09:20:51Z</time>
      </trkpt>
      <trkpt lat="44.39058" lon="2.45402">
        <ele>572</ele>
        <time>2014-02-22T09:20:52Z</time>
      </trkpt>
      <trkpt lat="44.39062" lon="2.4541">
        <ele>571.2</ele>
        <time>2014-02-22T09:20:57Z</time>
      </trkpt>
      <trkpt lat="44.39065" lon="2.45419">
        <ele>570.4</ele>
        <time>2014-02-22T09:21:02Z</time>
      </trkpt>
      <trkpt lat="44.39065" lon="2.45421">
        <ele>570.4</ele>
        <time>2014-02-22T09:21:03Z</time>
      </trkpt>
      <trkpt lat="44.39065" lon="2.45424">
        <ele>570.2</ele>
        <time>2014-02-22T09:21:04Z</time>
      </trkpt>
      <trkpt lat="44.39066" lon="2.45427">
        <ele>569.4</ele>
        <time>2014-02-22T09:21:07Z</time>
      </trkpt>
      <trkpt lat="44.39066" lon="2.4543">
        <ele>569</ele>
        <time>2014-02-22T09:21:09Z</time>
      </trkpt>
      <trkpt lat="44.39065" lon="2.45438">
        <ele>568.4</ele>
        <time>2014-02-22T09:21:13Z</time>
      </trkpt>
      <trkpt lat="44.39066" lon="2.4544">
        <ele>568.2</ele>
        <time>2014-02-22T09:21:15Z</time>
      </trkpt>
      <trkpt lat="44.39068" lon="2.45447">
        <ele>567.8</ele>
        <time>2014-02-22T09:21:18Z</time>
      </trkpt>
      <trkpt lat="44.39069" lon="2.45455">
        <ele>566.6</ele>
        <time>2014-02-22T09:21:23Z</time>
      </trkpt>
      <trkpt lat="44.39069" lon="2.45463">
        <ele>566.2</ele>
        <time>2014-02-22T09:21:27Z</time>
      </trkpt>
      <trkpt lat="44.39068" lon="2.45467">
        <ele>566</ele>
        <time>2014-02-22T09:21:29Z</time>
      </trkpt>
      <trkpt lat="44.39068" lon="2.45471">
        <ele>565.8</ele>
        <time>2014-02-22T09:21:31Z</time>
      </trkpt>
      <trkpt lat="44.39068" lon="2.4548">
        <ele>565.6</ele>
        <time>2014-02-22T09:21:35Z</time>
      </trkpt>
      <trkpt lat="44.39068" lon="2.45491">
        <ele>565.4</ele>
        <time>2014-02-22T09:21:40Z</time>
      </trkpt>
      <trkpt lat="44.39069" lon="2.45503">
        <ele>565.2</ele>
        <time>2014-02-22T09:21:45Z</time>
      </trkpt>
      <trkpt lat="44.3907" lon="2.45512">
        <ele>565.2</ele>
        <time>2014-02-22T09:21:49Z</time>
      </trkpt>
      <trkpt lat="44.3907" lon="2.4552">
        <ele>565.2</ele>
        <time>2014-02-22T09:21:54Z</time>
      </trkpt>
      <trkpt lat="44.39069" lon="2.45528">
        <ele>565.2</ele>
        <time>2014-02-22T09:21:58Z</time>
      </trkpt>
      <trkpt lat="44.39066" lon="2.45536">
        <ele>565.2</ele>
        <time>2014-02-22T09:22:02Z</time>
      </trkpt>
      <trkpt lat="44.39065" lon="2.45538">
        <ele>565.2</ele>
        <time>2014-02-22T09:22:03Z</time>
      </trkpt>
      <trkpt lat="44.39068" lon="2.45557">
        <ele>565</ele>
        <time>2014-02-22T09:22:11Z</time>
      </trkpt>
      <trkpt lat="44.39068" lon="2.45559">
        <ele>565</ele>
        <time>2014-02-22T09:22:12Z</time>
      </trkpt>
      <trkpt lat="44.39068" lon="2.45563">
        <ele>565</ele>
        <time>2014-02-22T09:22:14Z</time>
      </trkpt>
      <trkpt lat="44.39067" lon="2.45572">
        <ele>565</ele>
        <time>2014-02-22T09:22:19Z</time>
      </trkpt>
      <trkpt lat="44.39062" lon="2.45575">
        <ele>565</ele>
        <time>2014-02-22T09:22:22Z</time>
      </trkpt>
      <trkpt lat="44.3906" lon="2.45577">
        <ele>565</ele>
        <time>2014-02-22T09:22:24Z</time>
      </trkpt>
      <trkpt lat="44.39058" lon="2.45582">
        <ele>565</ele>
        <time>2014-02-22T09:22:32Z</time>
      </trkpt>
      <trkpt lat="44.3906" lon="2.45583">
        <ele>565.2</ele>
        <time>2014-02-22T09:22:35Z</time>
      </trkpt>
      <trkpt lat="44.39063" lon="2.45584">
        <ele>566</ele>
        <time>2014-02-22T09:22:40Z</time>
      </trkpt>
      <trkpt lat="44.39064" lon="2.45584">
        <ele>566.2</ele>
        <time>2014-02-22T09:22:41Z</time>
      </trkpt>
      <trkpt lat="44.39067" lon="2.45592">
        <ele>566.6</ele>
        <time>2014-02-22T09:22:46Z</time>
      </trkpt>
      <trkpt lat="44.39068" lon="2.45602">
        <ele>566.8</ele>
        <time>2014-02-22T09:22:50Z</time>
      </trkpt>
      <trkpt lat="44.39067" lon="2.45607">
        <ele>566.8</ele>
        <time>2014-02-22T09:22:52Z</time>
      </trkpt>
      <trkpt lat="44.39068" lon="2.45616">
        <ele>567</ele>
        <time>2014-02-22T09:22:57Z</time>
      </trkpt>
      <trkpt lat="44.39068" lon="2.45617">
        <ele>567</ele>
        <time>2014-02-22T09:22:58Z</time>
      </trkpt>
      <trkpt lat="44.39067" lon="2.45619">
        <ele>567</ele>
        <time>2014-02-22T09:23:06Z</time>
      </trkpt>
      <trkpt lat="44.39068" lon="2.45614">
        <ele>567</ele>
        <time>2014-02-22T09:23:13Z</time>
      </trkpt>
      <trkpt lat="44.39064" lon="2.45611">
        <ele>567</ele>
        <time>2014-02-22T09:23:18Z</time>
      </trkpt>
      <trkpt lat="44.39063" lon="2.45611">
        <ele>567</ele>
        <time>2014-02-22T09:23:19Z</time>
      </trkpt>
      <trkpt lat="44.39056" lon="2.45615">
        <ele>567</ele>
        <time>2014-02-22T09:23:26Z</time>
      </trkpt>
      <trkpt lat="44.39054" lon="2.45617">
        <ele>567</ele>
        <time>2014-02-22T09:23:30Z</time>
      </trkpt>
      <trkpt lat="44.39046" lon="2.45625">
        <ele>567</ele>
        <time>2014-02-22T09:23:35Z</time>
      </trkpt>
      <trkpt lat="44.39038" lon="2.45633">
        <ele>567</ele>
        <time>2014-02-22T09:23:39Z</time>
      </trkpt>
      <trkpt lat="44.3903" lon="2.45643">
        <ele>567</ele>
        <time>2014-02-22T09:23:44Z</time>
      </trkpt>
      <trkpt lat="44.39031" lon="2.45657">
        <ele>567</ele>
        <time>2014-02-22T09:23:48Z</time>
      </trkpt>
      <trkpt lat="44.39032" lon="2.4566">
        <ele>567</ele>
        <time>2014-02-22T09:23:49Z</time>
      </trkpt>
      <trkpt lat="44.39034" lon="2.45663">
        <ele>567</ele>
        <time>2014-02-22T09:23:53Z</time>
      </trkpt>
      <trkpt lat="44.39033" lon="2.45663">
        <ele>567</ele>
        <time>2014-02-22T09:23:57Z</time>
      </trkpt>
      <trkpt lat="44.39031" lon="2.45652">
        <ele>567</ele>
        <time>2014-02-22T09:24:01Z</time>
      </trkpt>
      <trkpt lat="44.39023" lon="2.4565">
        <ele>567</ele>
        <time>2014-02-22T09:24:06Z</time>
      </trkpt>
      <trkpt lat="44.39005" lon="2.45654">
        <ele>568</ele>
        <time>2014-02-22T09:24:12Z</time>
      </trkpt>
      <trkpt lat="44.38992" lon="2.45658">
        <ele>568.4</ele>
        <time>2014-02-22T09:24:17Z</time>
      </trkpt>
      <trkpt lat="44.38977" lon="2.45661">
        <ele>568.8</ele>
        <time>2014-02-22T09:24:22Z</time>
      </trkpt>
      <trkpt lat="44.38957" lon="2.45665">
        <ele>569.8</ele>
        <time>2014-02-22T09:24:29Z</time>
      </trkpt>
      <trkpt lat="44.38943" lon="2.45669">
        <ele>570.4</ele>
        <time>2014-02-22T09:24:34Z</time>
      </trkpt>
      <trkpt lat="44.38929" lon="2.45671">
        <ele>570.6</ele>
        <time>2014-02-22T09:24:39Z</time>
      </trkpt>
      <trkpt lat="44.38916" lon="2.45673">
        <ele>571.4</ele>
        <time>2014-02-22T09:24:44Z</time>
      </trkpt>
      <trkpt lat="44.38899" lon="2.45675">
        <ele>572.2</ele>
        <time>2014-02-22T09:24:50Z</time>
      </trkpt>
      <trkpt lat="44.38882" lon="2.45676">
        <ele>572.8</ele>
        <time>2014-02-22T09:24:56Z</time>
      </trkpt>
      <trkpt lat="44.38868" lon="2.45678">
        <ele>573</ele>
        <time>2014-02-22T09:25:01Z</time>
      </trkpt>
      <trkpt lat="44.38859" lon="2.45682">
        <ele>573</ele>
        <time>2014-02-22T09:25:05Z</time>
      </trkpt>
      <trkpt lat="44.38845" lon="2.45698">
        <ele>573.2</ele>
        <time>2014-02-22T09:25:12Z</time>
      </trkpt>
      <trkpt lat="44.38836" lon="2.45715">
        <ele>573.2</ele>
        <time>2014-02-22T09:25:18Z</time>
      </trkpt>
      <trkpt lat="44.38833" lon="2.45737">
        <ele>573.2</ele>
        <time>2014-02-22T09:25:24Z</time>
      </trkpt>
      <trkpt lat="44.3883" lon="2.45765">
        <ele>573.2</ele>
        <time>2014-02-22T09:25:31Z</time>
      </trkpt>
      <trkpt lat="44.38824" lon="2.45789">
        <ele>573.2</ele>
        <time>2014-02-22T09:25:37Z</time>
      </trkpt>
      <trkpt lat="44.38816" lon="2.4581">
        <ele>573.2</ele>
        <time>2014-02-22T09:25:43Z</time>
      </trkpt>
      <trkpt lat="44.38804" lon="2.45824">
        <ele>573.2</ele>
        <time>2014-02-22T09:25:48Z</time>
      </trkpt>
      <trkpt lat="44.38789" lon="2.45837">
        <ele>573.2</ele>
        <time>2014-02-22T09:25:54Z</time>
      </trkpt>
      <trkpt lat="44.38781" lon="2.45844">
        <ele>573.2</ele>
        <time>2014-02-22T09:25:58Z</time>
      </trkpt>
      <trkpt lat="44.38779" lon="2.45846">
        <ele>573.2</ele>
        <time>2014-02-22T09:26:04Z</time>
      </trkpt>
      <trkpt lat="44.3878" lon="2.45845">
        <ele>573.2</ele>
        <time>2014-02-22T09:26:21Z</time>
      </trkpt>
      <trkpt lat="44.3878" lon="2.45845">
        <ele>573.2</ele>
        <time>2014-02-22T09:26:22Z</time>
      </trkpt>
      <trkpt lat="44.3878" lon="2.45845">
        <ele>573.2</ele>
        <time>2014-02-22T09:26:24Z</time>
      </trkpt>
      <trkpt lat="44.3878" lon="2.45845">
        <ele>573.2</ele>
        <time>2014-02-22T09:26:26Z</time>
      </trkpt>
      <trkpt lat="44.3878" lon="2.45845">
        <ele>573.2</ele>
        <time>2014-02-22T09:26:28Z</time>
      </trkpt>
      <trkpt lat="44.3878" lon="2.45845">
        <ele>573.2</ele>
        <time>2014-02-22T09:26:32Z</time>
      </trkpt>
      <trkpt lat="44.3878" lon="2.45845">
        <ele>573.2</ele>
        <time>2014-02-22T09:26:37Z</time>
      </trkpt>
      <trkpt lat="44.38773" lon="2.45851">
        <ele>573.2</ele>
        <time>2014-02-22T09:26:41Z</time>
      </trkpt>
      <trkpt lat="44.38763" lon="2.45862">
        <ele>573.2</ele>
        <time>2014-02-22T09:26:45Z</time>
      </trkpt>
      <trkpt lat="44.38754" lon="2.45873">
        <ele>573.2</ele>
        <time>2014-02-22T09:26:49Z</time>
      </trkpt>
      <trkpt lat="44.38743" lon="2.45888">
        <ele>573.2</ele>
        <time>2014-02-22T09:26:54Z</time>
      </trkpt>
      <trkpt lat="44.3873" lon="2.45903">
        <ele>573.2</ele>
        <time>2014-02-22T09:27:00Z</time>
      </trkpt>
      <trkpt lat="44.38726" lon="2.45907">
        <ele>573.2</ele>
        <time>2014-02-22T09:27:03Z</time>
      </trkpt>
      <trkpt lat="44.38725" lon="2.45904">
        <ele>573.2</ele>
        <time>2014-02-22T09:27:08Z</time>
      </trkpt>
      <trkpt lat="44.38725" lon="2.45904">
        <ele>573.2</ele>
        <time>2014-02-22T09:27:14Z</time>
      </trkpt>
      <trkpt lat="44.38725" lon="2.45903">
        <ele>573.2</ele>
        <time>2014-02-22T09:27:18Z</time>
      </trkpt>
      <trkpt lat="44.38725" lon="2.45903">
        <ele>573.2</ele>
        <time>2014-02-22T09:27:23Z</time>
      </trkpt>
      <trkpt lat="44.38726" lon="2.45903">
        <ele>573.2</ele>
        <time>2014-02-22T09:27:28Z</time>
      </trkpt>
      <trkpt lat="44.38726" lon="2.45903">
        <ele>573.2</ele>
        <time>2014-02-22T09:27:33Z</time>
      </trkpt>
      <trkpt lat="44.38726" lon="2.45903">
        <ele>573.2</ele>
        <time>2014-02-22T09:27:41Z</time>
      </trkpt>
      <trkpt lat="44.38728" lon="2.45907">
        <ele>573.2</ele>
        <time>2014-02-22T09:27:54Z</time>
      </trkpt>
      <trkpt lat="44.38728" lon="2.45909">
        <ele>573.2</ele>
        <time>2014-02-22T09:27:55Z</time>
      </trkpt>
      <trkpt lat="44.38728" lon="2.4591">
        <ele>573.2</ele>
        <time>2014-02-22T09:28:02Z</time>
      </trkpt>
      <trkpt lat="44.38728" lon="2.4591">
        <ele>573.2</ele>
        <time>2014-02-22T09:28:13Z</time>
      </trkpt>
      <trkpt lat="44.38714" lon="2.45921">
        <ele>573.2</ele>
        <time>2014-02-22T09:28:24Z</time>
      </trkpt>
      <trkpt lat="44.38701" lon="2.45932">
        <ele>573.2</ele>
        <time>2014-02-22T09:28:29Z</time>
      </trkpt>
      <trkpt lat="44.38689" lon="2.45943">
        <ele>573.2</ele>
        <time>2014-02-22T09:28:34Z</time>
      </trkpt>
      <trkpt lat="44.38679" lon="2.45952">
        <ele>573.2</ele>
        <time>2014-02-22T09:28:38Z</time>
      </trkpt>
      <trkpt lat="44.38673" lon="2.45957">
        <ele>573.2</ele>
        <time>2014-02-22T09:28:40Z</time>
      </trkpt>
      <trkpt lat="44.38663" lon="2.45966">
        <ele>573.2</ele>
        <time>2014-02-22T09:28:44Z</time>
      </trkpt>
      <trkpt lat="44.38652" lon="2.45973">
        <ele>573.2</ele>
        <time>2014-02-22T09:28:48Z</time>
      </trkpt>
      <trkpt lat="44.38637" lon="2.45979">
        <ele>573.2</ele>
        <time>2014-02-22T09:28:53Z</time>
      </trkpt>
      <trkpt lat="44.38619" lon="2.45987">
        <ele>573.2</ele>
        <time>2014-02-22T09:28:59Z</time>
      </trkpt>
      <trkpt lat="44.38607" lon="2.45992">
        <ele>573.2</ele>
        <time>2014-02-22T09:29:03Z</time>
      </trkpt>
      <trkpt lat="44.38593" lon="2.45993">
        <ele>573.2</ele>
        <time>2014-02-22T09:29:09Z</time>
      </trkpt>
      <trkpt lat="44.38588" lon="2.45991">
        <ele>573.2</ele>
        <time>2014-02-22T09:29:11Z</time>
      </trkpt>
      <trkpt lat="44.38576" lon="2.45991">
        <ele>573.2</ele>
        <time>2014-02-22T09:29:15Z</time>
      </trkpt>
      <trkpt lat="44.3857" lon="2.45993">
        <ele>573.2</ele>
        <time>2014-02-22T09:29:22Z</time>
      </trkpt>
      <trkpt lat="44.3857" lon="2.45992">
        <ele>572.6</ele>
        <time>2014-02-22T09:29:27Z</time>
      </trkpt>
      <trkpt lat="44.3857" lon="2.45992">
        <ele>572.4</ele>
        <time>2014-02-22T09:29:29Z</time>
      </trkpt>
      <trkpt lat="44.38569" lon="2.45992">
        <ele>572</ele>
        <time>2014-02-22T09:29:33Z</time>
      </trkpt>
      <trkpt lat="44.38569" lon="2.45992">
        <ele>571.6</ele>
        <time>2014-02-22T09:29:39Z</time>
      </trkpt>
      <trkpt lat="44.38569" lon="2.45992">
        <ele>571.4</ele>
        <time>2014-02-22T09:29:44Z</time>
      </trkpt>
      <trkpt lat="44.38569" lon="2.45992">
        <ele>571.4</ele>
        <time>2014-02-22T09:29:49Z</time>
      </trkpt>
      <trkpt lat="44.38569" lon="2.45992">
        <ele>571.2</ele>
        <time>2014-02-22T09:29:56Z</time>
      </trkpt>
      <trkpt lat="44.38565" lon="2.45994">
        <ele>571.2</ele>
        <time>2014-02-22T09:30:02Z</time>
      </trkpt>
      <trkpt lat="44.38559" lon="2.45997">
        <ele>571.4</ele>
        <time>2014-02-22T09:30:05Z</time>
      </trkpt>
      <trkpt lat="44.38552" lon="2.46">
        <ele>571.8</ele>
        <time>2014-02-22T09:30:08Z</time>
      </trkpt>
      <trkpt lat="44.38542" lon="2.46003">
        <ele>572.4</ele>
        <time>2014-02-22T09:30:12Z</time>
      </trkpt>
      <trkpt lat="44.38528" lon="2.46008">
        <ele>572.6</ele>
        <time>2014-02-22T09:30:17Z</time>
      </trkpt>
      <trkpt lat="44.38516" lon="2.4601">
        <ele>572.8</ele>
        <time>2014-02-22T09:30:21Z</time>
      </trkpt>
      <trkpt lat="44.38502" lon="2.46001">
        <ele>573</ele>
        <time>2014-02-22T09:30:27Z</time>
      </trkpt>
      <trkpt lat="44.385" lon="2.46">
        <ele>573</ele>
        <time>2014-02-22T09:30:28Z</time>
      </trkpt>
      <trkpt lat="44.38485" lon="2.45991">
        <ele>573.2</ele>
        <time>2014-02-22T09:30:34Z</time>
      </trkpt>
      <trkpt lat="44.38483" lon="2.45989">
        <ele>573.2</ele>
        <time>2014-02-22T09:30:35Z</time>
      </trkpt>
      <trkpt lat="44.38476" lon="2.45986">
        <ele>573.2</ele>
        <time>2014-02-22T09:30:38Z</time>
      </trkpt>
      <trkpt lat="44.38464" lon="2.45978">
        <ele>573.2</ele>
        <time>2014-02-22T09:30:44Z</time>
      </trkpt>
      <trkpt lat="44.38451" lon="2.45969">
        <ele>572.4</ele>
        <time>2014-02-22T09:30:50Z</time>
      </trkpt>
      <trkpt lat="44.3844" lon="2.4596">
        <ele>571.8</ele>
        <time>2014-02-22T09:30:55Z</time>
      </trkpt>
      <trkpt lat="44.38434" lon="2.45947">
        <ele>571</ele>
        <time>2014-02-22T09:30:59Z</time>
      </trkpt>
      <trkpt lat="44.38424" lon="2.45934">
        <ele>570.2</ele>
        <time>2014-02-22T09:31:04Z</time>
      </trkpt>
      <trkpt lat="44.38418" lon="2.45921">
        <ele>569.6</ele>
        <time>2014-02-22T09:31:09Z</time>
      </trkpt>
      <trkpt lat="44.38416" lon="2.4591">
        <ele>568.8</ele>
        <time>2014-02-22T09:31:13Z</time>
      </trkpt>
      <trkpt lat="44.38427" lon="2.45913">
        <ele>568</ele>
        <time>2014-02-22T09:31:18Z</time>
      </trkpt>
      <trkpt lat="44.38438" lon="2.45917">
        <ele>567.6</ele>
        <time>2014-02-22T09:31:22Z</time>
      </trkpt>
      <trkpt lat="44.3844" lon="2.45917">
        <ele>567.6</ele>
        <time>2014-02-22T09:31:23Z</time>
      </trkpt>
      <trkpt lat="44.38452" lon="2.45919">
        <ele>567.2</ele>
        <time>2014-02-22T09:31:27Z</time>
      </trkpt>
      <trkpt lat="44.38467" lon="2.45919">
        <ele>567.2</ele>
        <time>2014-02-22T09:31:32Z</time>
      </trkpt>
      <trkpt lat="44.38478" lon="2.45919">
        <ele>567</ele>
        <time>2014-02-22T09:31:36Z</time>
      </trkpt>
      <trkpt lat="44.38494" lon="2.45921">
        <ele>567</ele>
        <time>2014-02-22T09:31:41Z</time>
      </trkpt>
      <trkpt lat="44.38508" lon="2.45923">
        <ele>567</ele>
        <time>2014-02-22T09:31:46Z</time>
      </trkpt>
      <trkpt lat="44.38521" lon="2.45923">
        <ele>566.8</ele>
        <time>2014-02-22T09:31:50Z</time>
      </trkpt>
      <trkpt lat="44.38534" lon="2.45921">
        <ele>566.8</ele>
        <time>2014-02-22T09:31:54Z</time>
      </trkpt>
      <trkpt lat="44.38548" lon="2.45916">
        <ele>566.8</ele>
        <time>2014-02-22T09:31:59Z</time>
      </trkpt>
      <trkpt lat="44.3856" lon="2.45909">
        <ele>566.4</ele>
        <time>2014-02-22T09:32:03Z</time>
      </trkpt>
      <trkpt lat="44.38578" lon="2.45899">
        <ele>565.8</ele>
        <time>2014-02-22T09:32:09Z</time>
      </trkpt>
      <trkpt lat="44.38591" lon="2.45892">
        <ele>565.4</ele>
        <time>2014-02-22T09:32:14Z</time>
      </trkpt>
      <trkpt lat="44.38603" lon="2.45886">
        <ele>565.2</ele>
        <time>2014-02-22T09:32:18Z</time>
      </trkpt>
      <trkpt lat="44.3862" lon="2.45877">
        <ele>565</ele>
        <time>2014-02-22T09:32:24Z</time>
      </trkpt>
      <trkpt lat="44.38635" lon="2.45872">
        <ele>564.2</ele>
        <time>2014-02-22T09:32:29Z</time>
      </trkpt>
      <trkpt lat="44.38649" lon="2.45862">
        <ele>563.6</ele>
        <time>2014-02-22T09:32:34Z</time>
      </trkpt>
      <trkpt lat="44.38665" lon="2.45846">
        <ele>562.8</ele>
        <time>2014-02-22T09:32:40Z</time>
      </trkpt>
      <trkpt lat="44.38679" lon="2.45829">
        <ele>561.8</ele>
        <time>2014-02-22T09:32:46Z</time>
      </trkpt>
      <trkpt lat="44.38692" lon="2.45807">
        <ele>560.8</ele>
        <time>2014-02-22T09:32:52Z</time>
      </trkpt>
      <trkpt lat="44.38703" lon="2.4579">
        <ele>559.8</ele>
        <time>2014-02-22T09:32:57Z</time>
      </trkpt>
      <trkpt lat="44.38713" lon="2.45772">
        <ele>559.4</ele>
        <time>2014-02-22T09:33:02Z</time>
      </trkpt>
      <trkpt lat="44.38741" lon="2.45742">
        <ele>557.4</ele>
        <time>2014-02-22T09:33:13Z</time>
      </trkpt>
      <trkpt lat="44.38751" lon="2.45724">
        <ele>556.6</ele>
        <time>2014-02-22T09:33:18Z</time>
      </trkpt>
      <trkpt lat="44.38754" lon="2.45708">
        <ele>555.8</ele>
        <time>2014-02-22T09:33:22Z</time>
      </trkpt>
      <trkpt lat="44.38755" lon="2.45681">
        <ele>554.4</ele>
        <time>2014-02-22T09:33:28Z</time>
      </trkpt>
      <trkpt lat="44.38758" lon="2.45655">
        <ele>552.8</ele>
        <time>2014-02-22T09:33:34Z</time>
      </trkpt>
      <trkpt lat="44.38759" lon="2.45637">
        <ele>551.6</ele>
        <time>2014-02-22T09:33:38Z</time>
      </trkpt>
      <trkpt lat="44.38761" lon="2.45616">
        <ele>550</ele>
        <time>2014-02-22T09:33:43Z</time>
      </trkpt>
      <trkpt lat="44.38767" lon="2.45591">
        <ele>548</ele>
        <time>2014-02-22T09:33:49Z</time>
      </trkpt>
      <trkpt lat="44.38778" lon="2.4557">
        <ele>546.4</ele>
        <time>2014-02-22T09:33:55Z</time>
      </trkpt>
      <trkpt lat="44.38786" lon="2.45552">
        <ele>545.2</ele>
        <time>2014-02-22T09:34:00Z</time>
      </trkpt>
      <trkpt lat="44.38791" lon="2.45528">
        <ele>544.4</ele>
        <time>2014-02-22T09:34:06Z</time>
      </trkpt>
      <trkpt lat="44.38792" lon="2.45521">
        <ele>544</ele>
        <time>2014-02-22T09:34:08Z</time>
      </trkpt>
      <trkpt lat="44.38795" lon="2.45509">
        <ele>543.4</ele>
        <time>2014-02-22T09:34:11Z</time>
      </trkpt>
      <trkpt lat="44.38799" lon="2.45486">
        <ele>542.4</ele>
        <time>2014-02-22T09:34:17Z</time>
      </trkpt>
      <trkpt lat="44.38807" lon="2.45469">
        <ele>542</ele>
        <time>2014-02-22T09:34:23Z</time>
      </trkpt>
      <trkpt lat="44.38819" lon="2.45451">
        <ele>541.6</ele>
        <time>2014-02-22T09:34:29Z</time>
      </trkpt>
      <trkpt lat="44.38821" lon="2.45449">
        <ele>541.6</ele>
        <time>2014-02-22T09:34:30Z</time>
      </trkpt>
      <trkpt lat="44.38827" lon="2.4544">
        <ele>541.4</ele>
        <time>2014-02-22T09:34:34Z</time>
      </trkpt>
      <trkpt lat="44.38831" lon="2.45434">
        <ele>540.6</ele>
        <time>2014-02-22T09:34:39Z</time>
      </trkpt>
      <trkpt lat="44.3883" lon="2.45433">
        <ele>540</ele>
        <time>2014-02-22T09:34:46Z</time>
      </trkpt>
      <trkpt lat="44.3883" lon="2.45434">
        <ele>539.8</ele>
        <time>2014-02-22T09:34:49Z</time>
      </trkpt>
      <trkpt lat="44.3883" lon="2.45434">
        <ele>539.6</ele>
        <time>2014-02-22T09:34:53Z</time>
      </trkpt>
      <trkpt lat="44.3883" lon="2.45433">
        <ele>538.8</ele>
        <time>2014-02-22T09:34:57Z</time>
      </trkpt>
      <trkpt lat="44.38831" lon="2.45433">
        <ele>538.2</ele>
        <time>2014-02-22T09:35:02Z</time>
      </trkpt>
      <trkpt lat="44.38832" lon="2.45436">
        <ele>538</ele>
        <time>2014-02-22T09:35:06Z</time>
      </trkpt>
      <trkpt lat="44.38832" lon="2.45436">
        <ele>537.6</ele>
        <time>2014-02-22T09:35:18Z</time>
      </trkpt>
      <trkpt lat="44.38831" lon="2.45436">
        <ele>536</ele>
        <time>2014-02-22T09:35:33Z</time>
      </trkpt>
      <trkpt lat="44.38831" lon="2.45435">
        <ele>535.6</ele>
        <time>2014-02-22T09:35:43Z</time>
      </trkpt>
      <trkpt lat="44.38831" lon="2.45435">
        <ele>534.2</ele>
        <time>2014-02-22T09:35:56Z</time>
      </trkpt>
      <trkpt lat="44.38831" lon="2.45435">
        <ele>534</ele>
        <time>2014-02-22T09:35:58Z</time>
      </trkpt>
      <trkpt lat="44.38854" lon="2.45411">
        <ele>533.6</ele>
        <time>2014-02-22T09:36:11Z</time>
      </trkpt>
      <trkpt lat="44.38861" lon="2.45404">
        <ele>533.4</ele>
        <time>2014-02-22T09:36:14Z</time>
      </trkpt>
      <trkpt lat="44.38862" lon="2.45401">
        <ele>533.4</ele>
        <time>2014-02-22T09:36:22Z</time>
      </trkpt>
      <trkpt lat="44.38862" lon="2.45398">
        <ele>533.4</ele>
        <time>2014-02-22T09:36:36Z</time>
      </trkpt>
      <trkpt lat="44.38862" lon="2.45398">
        <ele>533.4</ele>
        <time>2014-02-22T09:36:39Z</time>
      </trkpt>
      <trkpt lat="44.38863" lon="2.45397">
        <ele>533.4</ele>
        <time>2014-02-22T09:36:44Z</time>
      </trkpt>
      <trkpt lat="44.38869" lon="2.4539">
        <ele>533.4</ele>
        <time>2014-02-22T09:36:48Z</time>
      </trkpt>
      <trkpt lat="44.38875" lon="2.45381">
        <ele>533.4</ele>
        <time>2014-02-22T09:36:52Z</time>
      </trkpt>
      <trkpt lat="44.3888" lon="2.45374">
        <ele>533.4</ele>
        <time>2014-02-22T09:36:55Z</time>
      </trkpt>
      <trkpt lat="44.38885" lon="2.45367">
        <ele>533.4</ele>
        <time>2014-02-22T09:36:58Z</time>
      </trkpt>
      <trkpt lat="44.38886" lon="2.45365">
        <ele>533.4</ele>
        <time>2014-02-22T09:36:59Z</time>
      </trkpt>
      <trkpt lat="44.38893" lon="2.45354">
        <ele>533.4</ele>
        <time>2014-02-22T09:37:04Z</time>
      </trkpt>
      <trkpt lat="44.38904" lon="2.45343">
        <ele>533.4</ele>
        <time>2014-02-22T09:37:09Z</time>
      </trkpt>
      <trkpt lat="44.38913" lon="2.45338">
        <ele>533.4</ele>
        <time>2014-02-22T09:37:13Z</time>
      </trkpt>
      <trkpt lat="44.38917" lon="2.45336">
        <ele>533.4</ele>
        <time>2014-02-22T09:37:18Z</time>
      </trkpt>
      <trkpt lat="44.3893" lon="2.45329">
        <ele>533.4</ele>
        <time>2014-02-22T09:37:24Z</time>
      </trkpt>
      <trkpt lat="44.38942" lon="2.45324">
        <ele>533.4</ele>
        <time>2014-02-22T09:37:29Z</time>
      </trkpt>
      <trkpt lat="44.38949" lon="2.45321">
        <ele>533.4</ele>
        <time>2014-02-22T09:37:32Z</time>
      </trkpt>
      <trkpt lat="44.38959" lon="2.45312">
        <ele>533.4</ele>
        <time>2014-02-22T09:37:38Z</time>
      </trkpt>
      <trkpt lat="44.38961" lon="2.45311">
        <ele>533.2</ele>
        <time>2014-02-22T09:37:39Z</time>
      </trkpt>
      <trkpt lat="44.38969" lon="2.45308">
        <ele>532.6</ele>
        <time>2014-02-22T09:37:42Z</time>
      </trkpt>
      <trkpt lat="44.38985" lon="2.45301">
        <ele>532</ele>
        <time>2014-02-22T09:37:48Z</time>
      </trkpt>
      <trkpt lat="44.39003" lon="2.453">
        <ele>531.6</ele>
        <time>2014-02-22T09:37:54Z</time>
      </trkpt>
      <trkpt lat="44.39018" lon="2.45298">
        <ele>531.6</ele>
        <time>2014-02-22T09:37:59Z</time>
      </trkpt>
      <trkpt lat="44.39033" lon="2.45297">
        <ele>531.4</ele>
        <time>2014-02-22T09:38:04Z</time>
      </trkpt>
      <trkpt lat="44.39052" lon="2.45296">
        <ele>531.4</ele>
        <time>2014-02-22T09:38:10Z</time>
      </trkpt>
      <trkpt lat="44.3907" lon="2.45294">
        <ele>531.4</ele>
        <time>2014-02-22T09:38:16Z</time>
      </trkpt>
      <trkpt lat="44.39089" lon="2.45293">
        <ele>531.4</ele>
        <time>2014-02-22T09:38:22Z</time>
      </trkpt>
      <trkpt lat="44.39109" lon="2.45292">
        <ele>532</ele>
        <time>2014-02-22T09:38:28Z</time>
      </trkpt>
      <trkpt lat="44.39124" lon="2.45302">
        <ele>532.6</ele>
        <time>2014-02-22T09:38:33Z</time>
      </trkpt>
      <trkpt lat="44.39131" lon="2.45317">
        <ele>532.8</ele>
        <time>2014-02-22T09:38:37Z</time>
      </trkpt>
      <trkpt lat="44.39135" lon="2.4534">
        <ele>532.8</ele>
        <time>2014-02-22T09:38:43Z</time>
      </trkpt>
      <trkpt lat="44.3914" lon="2.45368">
        <ele>532</ele>
        <time>2014-02-22T09:38:50Z</time>
      </trkpt>
      <trkpt lat="44.39145" lon="2.45388">
        <ele>531.4</ele>
        <time>2014-02-22T09:38:55Z</time>
      </trkpt>
      <trkpt lat="44.39149" lon="2.45409">
        <ele>530.4</ele>
        <time>2014-02-22T09:39:00Z</time>
      </trkpt>
      <trkpt lat="44.39153" lon="2.45435">
        <ele>529.2</ele>
        <time>2014-02-22T09:39:06Z</time>
      </trkpt>
      <trkpt lat="44.39158" lon="2.45456">
        <ele>528.4</ele>
        <time>2014-02-22T09:39:11Z</time>
      </trkpt>
      <trkpt lat="44.39162" lon="2.4548">
        <ele>527.6</ele>
        <time>2014-02-22T09:39:16Z</time>
      </trkpt>
      <trkpt lat="44.39163" lon="2.45499">
        <ele>526.6</ele>
        <time>2014-02-22T09:39:21Z</time>
      </trkpt>
      <trkpt lat="44.39163" lon="2.4552">
        <ele>525.8</ele>
        <time>2014-02-22T09:39:26Z</time>
      </trkpt>
      <trkpt lat="44.39163" lon="2.45541">
        <ele>525.6</ele>
        <time>2014-02-22T09:39:31Z</time>
      </trkpt>
      <trkpt lat="44.39163" lon="2.45561">
        <ele>525.4</ele>
        <time>2014-02-22T09:39:36Z</time>
      </trkpt>
      <trkpt lat="44.39162" lon="2.45583">
        <ele>525.2</ele>
        <time>2014-02-22T09:39:42Z</time>
      </trkpt>
      <trkpt lat="44.39163" lon="2.45602">
        <ele>525</ele>
        <time>2014-02-22T09:39:47Z</time>
      </trkpt>
      <trkpt lat="44.39163" lon="2.45606">
        <ele>525</ele>
        <time>2014-02-22T09:39:48Z</time>
      </trkpt>
      <trkpt lat="44.39164" lon="2.45617">
        <ele>525</ele>
        <time>2014-02-22T09:39:51Z</time>
      </trkpt>
      <trkpt lat="44.39165" lon="2.45636">
        <ele>525</ele>
        <time>2014-02-22T09:39:56Z</time>
      </trkpt>
      <trkpt lat="44.39165" lon="2.4564">
        <ele>525</ele>
        <time>2014-02-22T09:39:57Z</time>
      </trkpt>
      <trkpt lat="44.39165" lon="2.45659">
        <ele>525</ele>
        <time>2014-02-22T09:40:02Z</time>
      </trkpt>
      <trkpt lat="44.39163" lon="2.45668">
        <ele>525</ele>
        <time>2014-02-22T09:40:04Z</time>
      </trkpt>
      <trkpt lat="44.39164" lon="2.45681">
        <ele>525</ele>
        <time>2014-02-22T09:40:08Z</time>
      </trkpt>
      <trkpt lat="44.39162" lon="2.45706">
        <ele>526</ele>
        <time>2014-02-22T09:40:15Z</time>
      </trkpt>
      <trkpt lat="44.39161" lon="2.45723">
        <ele>526.4</ele>
        <time>2014-02-22T09:40:20Z</time>
      </trkpt>
      <trkpt lat="44.39162" lon="2.45745">
        <ele>526.8</ele>
        <time>2014-02-22T09:40:25Z</time>
      </trkpt>
      <trkpt lat="44.39163" lon="2.45754">
        <ele>526.8</ele>
        <time>2014-02-22T09:40:27Z</time>
      </trkpt>
      <trkpt lat="44.39164" lon="2.45776">
        <ele>527.4</ele>
        <time>2014-02-22T09:40:33Z</time>
      </trkpt>
      <trkpt lat="44.39167" lon="2.45793">
        <ele>528.2</ele>
        <time>2014-02-22T09:40:38Z</time>
      </trkpt>
      <trkpt lat="44.3917" lon="2.45811">
        <ele>528.6</ele>
        <time>2014-02-22T09:40:43Z</time>
      </trkpt>
      <trkpt lat="44.39171" lon="2.45826">
        <ele>529</ele>
        <time>2014-02-22T09:40:47Z</time>
      </trkpt>
      <trkpt lat="44.39168" lon="2.45846">
        <ele>529.8</ele>
        <time>2014-02-22T09:40:52Z</time>
      </trkpt>
      <trkpt lat="44.39167" lon="2.4585">
        <ele>530</ele>
        <time>2014-02-22T09:40:53Z</time>
      </trkpt>
      <trkpt lat="44.39166" lon="2.4587">
        <ele>530.6</ele>
        <time>2014-02-22T09:40:58Z</time>
      </trkpt>
      <trkpt lat="44.39163" lon="2.45884">
        <ele>531.4</ele>
        <time>2014-02-22T09:41:02Z</time>
      </trkpt>
      <trkpt lat="44.39162" lon="2.45904">
        <ele>532.2</ele>
        <time>2014-02-22T09:41:07Z</time>
      </trkpt>
      <trkpt lat="44.39165" lon="2.45914">
        <ele>532.8</ele>
        <time>2014-02-22T09:41:10Z</time>
      </trkpt>
      <trkpt lat="44.39177" lon="2.45931">
        <ele>534.2</ele>
        <time>2014-02-22T09:41:17Z</time>
      </trkpt>
      <trkpt lat="44.39185" lon="2.45936">
        <ele>534.6</ele>
        <time>2014-02-22T09:41:21Z</time>
      </trkpt>
      <trkpt lat="44.39192" lon="2.45951">
        <ele>535.6</ele>
        <time>2014-02-22T09:41:26Z</time>
      </trkpt>
      <trkpt lat="44.39192" lon="2.45969">
        <ele>536.4</ele>
        <time>2014-02-22T09:41:31Z</time>
      </trkpt>
      <trkpt lat="44.3919" lon="2.45989">
        <ele>536.8</ele>
        <time>2014-02-22T09:41:36Z</time>
      </trkpt>
      <trkpt lat="44.39187" lon="2.46006">
        <ele>537.2</ele>
        <time>2014-02-22T09:41:41Z</time>
      </trkpt>
      <trkpt lat="44.39185" lon="2.46023">
        <ele>537.2</ele>
        <time>2014-02-22T09:41:46Z</time>
      </trkpt>
      <trkpt lat="44.39184" lon="2.46036">
        <ele>537.4</ele>
        <time>2014-02-22T09:41:50Z</time>
      </trkpt>
      <trkpt lat="44.39183" lon="2.46043">
        <ele>537.4</ele>
        <time>2014-02-22T09:41:52Z</time>
      </trkpt>
      <trkpt lat="44.3918" lon="2.4606">
        <ele>537.4</ele>
        <time>2014-02-22T09:41:57Z</time>
      </trkpt>
      <trkpt lat="44.39176" lon="2.46075">
        <ele>537.4</ele>
        <time>2014-02-22T09:42:01Z</time>
      </trkpt>
      <trkpt lat="44.39175" lon="2.46078">
        <ele>537.4</ele>
        <time>2014-02-22T09:42:02Z</time>
      </trkpt>
      <trkpt lat="44.39174" lon="2.46091">
        <ele>537.6</ele>
        <time>2014-02-22T09:42:06Z</time>
      </trkpt>
      <trkpt lat="44.39169" lon="2.46111">
        <ele>537.6</ele>
        <time>2014-02-22T09:42:11Z</time>
      </trkpt>
      <trkpt lat="44.3917" lon="2.4613">
        <ele>537.6</ele>
        <time>2014-02-22T09:42:16Z</time>
      </trkpt>
      <trkpt lat="44.39171" lon="2.46133">
        <ele>537.6</ele>
        <time>2014-02-22T09:42:17Z</time>
      </trkpt>
      <trkpt lat="44.39179" lon="2.46139">
        <ele>537.6</ele>
        <time>2014-02-22T09:42:22Z</time>
      </trkpt>
      <trkpt lat="44.39189" lon="2.46143">
        <ele>537.6</ele>
        <time>2014-02-22T09:42:27Z</time>
      </trkpt>
      <trkpt lat="44.392" lon="2.46148">
        <ele>537.6</ele>
        <time>2014-02-22T09:42:33Z</time>
      </trkpt>
      <trkpt lat="44.39212" lon="2.46158">
        <ele>537.6</ele>
        <time>2014-02-22T09:42:39Z</time>
      </trkpt>
      <trkpt lat="44.39222" lon="2.46174">
        <ele>537.6</ele>
        <time>2014-02-22T09:42:46Z</time>
      </trkpt>
      <trkpt lat="44.39229" lon="2.46191">
        <ele>537.6</ele>
        <time>2014-02-22T09:42:52Z</time>
      </trkpt>
      <trkpt lat="44.39235" lon="2.46208">
        <ele>537.6</ele>
        <time>2014-02-22T09:42:58Z</time>
      </trkpt>
      <trkpt lat="44.3924" lon="2.46219">
        <ele>537.6</ele>
        <time>2014-02-22T09:43:02Z</time>
      </trkpt>
      <trkpt lat="44.3926" lon="2.46228">
        <ele>537.8</ele>
        <time>2014-02-22T09:43:10Z</time>
      </trkpt>
      <trkpt lat="44.39284" lon="2.46254">
        <ele>539.4</ele>
        <time>2014-02-22T09:43:21Z</time>
      </trkpt>
      <trkpt lat="44.39294" lon="2.46265">
        <ele>540.4</ele>
        <time>2014-02-22T09:43:26Z</time>
      </trkpt>
      <trkpt lat="44.39302" lon="2.46266">
        <ele>541.2</ele>
        <time>2014-02-22T09:43:29Z</time>
      </trkpt>
      <trkpt lat="44.39311" lon="2.46255">
        <ele>542.2</ele>
        <time>2014-02-22T09:43:34Z</time>
      </trkpt>
      <trkpt lat="44.39309" lon="2.46233">
        <ele>543</ele>
        <time>2014-02-22T09:43:40Z</time>
      </trkpt>
      <trkpt lat="44.39306" lon="2.46213">
        <ele>543.4</ele>
        <time>2014-02-22T09:43:45Z</time>
      </trkpt>
      <trkpt lat="44.39308" lon="2.46188">
        <ele>543.6</ele>
        <time>2014-02-22T09:43:51Z</time>
      </trkpt>
      <trkpt lat="44.39313" lon="2.46169">
        <ele>543.8</ele>
        <time>2014-02-22T09:43:56Z</time>
      </trkpt>
      <trkpt lat="44.39319" lon="2.46153">
        <ele>543.8</ele>
        <time>2014-02-22T09:44:01Z</time>
      </trkpt>
      <trkpt lat="44.39321" lon="2.46149">
        <ele>543.8</ele>
        <time>2014-02-22T09:44:02Z</time>
      </trkpt>
      <trkpt lat="44.39326" lon="2.46133">
        <ele>543.8</ele>
        <time>2014-02-22T09:44:07Z</time>
      </trkpt>
      <trkpt lat="44.39331" lon="2.46117">
        <ele>544</ele>
        <time>2014-02-22T09:44:12Z</time>
      </trkpt>
      <trkpt lat="44.39332" lon="2.46115">
        <ele>544</ele>
        <time>2014-02-22T09:44:13Z</time>
      </trkpt>
      <trkpt lat="44.39336" lon="2.4609">
        <ele>544</ele>
        <time>2014-02-22T09:44:20Z</time>
      </trkpt>
      <trkpt lat="44.39341" lon="2.46071">
        <ele>543.6</ele>
        <time>2014-02-22T09:44:25Z</time>
      </trkpt>
      <trkpt lat="44.39348" lon="2.46048">
        <ele>542.8</ele>
        <time>2014-02-22T09:44:31Z</time>
      </trkpt>
      <trkpt lat="44.39359" lon="2.46029">
        <ele>541.8</ele>
        <time>2014-02-22T09:44:37Z</time>
      </trkpt>
      <trkpt lat="44.39374" lon="2.46015">
        <ele>540.8</ele>
        <time>2014-02-22T09:44:43Z</time>
      </trkpt>
      <trkpt lat="44.39385" lon="2.46002">
        <ele>539.6</ele>
        <time>2014-02-22T09:44:48Z</time>
      </trkpt>
      <trkpt lat="44.39394" lon="2.45985">
        <ele>538.6</ele>
        <time>2014-02-22T09:44:53Z</time>
      </trkpt>
      <trkpt lat="44.39404" lon="2.45964">
        <ele>537.2</ele>
        <time>2014-02-22T09:44:59Z</time>
      </trkpt>
      <trkpt lat="44.3941" lon="2.4595">
        <ele>536</ele>
        <time>2014-02-22T09:45:03Z</time>
      </trkpt>
      <trkpt lat="44.39417" lon="2.45927">
        <ele>534.8</ele>
        <time>2014-02-22T09:45:09Z</time>
      </trkpt>
      <trkpt lat="44.39422" lon="2.4591">
        <ele>533.6</ele>
        <time>2014-02-22T09:45:13Z</time>
      </trkpt>
      <trkpt lat="44.39434" lon="2.45887">
        <ele>532.2</ele>
        <time>2014-02-22T09:45:19Z</time>
      </trkpt>
      <trkpt lat="44.3944" lon="2.45867">
        <ele>531</ele>
        <time>2014-02-22T09:45:24Z</time>
      </trkpt>
      <trkpt lat="44.39447" lon="2.45843">
        <ele>529.4</ele>
        <time>2014-02-22T09:45:30Z</time>
      </trkpt>
      <trkpt lat="44.39452" lon="2.45829">
        <ele>528.6</ele>
        <time>2014-02-22T09:45:34Z</time>
      </trkpt>
      <trkpt lat="44.39456" lon="2.45819">
        <ele>528.2</ele>
        <time>2014-02-22T09:45:37Z</time>
      </trkpt>
      <trkpt lat="44.39463" lon="2.45796">
        <ele>526.8</ele>
        <time>2014-02-22T09:45:43Z</time>
      </trkpt>
      <trkpt lat="44.39465" lon="2.45792">
        <ele>526.6</ele>
        <time>2014-02-22T09:45:44Z</time>
      </trkpt>
      <trkpt lat="44.39481" lon="2.45776">
        <ele>525.6</ele>
        <time>2014-02-22T09:45:50Z</time>
      </trkpt>
      <trkpt lat="44.39498" lon="2.45762">
        <ele>524.4</ele>
        <time>2014-02-22T09:45:56Z</time>
      </trkpt>
      <trkpt lat="44.39511" lon="2.45752">
        <ele>523.4</ele>
        <time>2014-02-22T09:46:01Z</time>
      </trkpt>
      <trkpt lat="44.39526" lon="2.45742">
        <ele>522.4</ele>
        <time>2014-02-22T09:46:06Z</time>
      </trkpt>
      <trkpt lat="44.3954" lon="2.45732">
        <ele>521.2</ele>
        <time>2014-02-22T09:46:11Z</time>
      </trkpt>
      <trkpt lat="44.3955" lon="2.45724">
        <ele>520.4</ele>
        <time>2014-02-22T09:46:15Z</time>
      </trkpt>
      <trkpt lat="44.39553" lon="2.45704">
        <ele>519.2</ele>
        <time>2014-02-22T09:46:20Z</time>
      </trkpt>
      <trkpt lat="44.39551" lon="2.457">
        <ele>518.8</ele>
        <time>2014-02-22T09:46:21Z</time>
      </trkpt>
      <trkpt lat="44.39541" lon="2.45682">
        <ele>517.8</ele>
        <time>2014-02-22T09:46:26Z</time>
      </trkpt>
      <trkpt lat="44.39532" lon="2.45667">
        <ele>516.8</ele>
        <time>2014-02-22T09:46:30Z</time>
      </trkpt>
      <trkpt lat="44.39524" lon="2.45652">
        <ele>516.2</ele>
        <time>2014-02-22T09:46:34Z</time>
      </trkpt>
      <trkpt lat="44.39522" lon="2.45647">
        <ele>515.8</ele>
        <time>2014-02-22T09:46:36Z</time>
      </trkpt>
      <trkpt lat="44.39522" lon="2.45644">
        <ele>514.4</ele>
        <time>2014-02-22T09:46:42Z</time>
      </trkpt>
      <trkpt lat="44.39522" lon="2.45644">
        <ele>513.4</ele>
        <time>2014-02-22T09:46:47Z</time>
      </trkpt>
      <trkpt lat="44.39522" lon="2.45644">
        <ele>513.2</ele>
        <time>2014-02-22T09:46:48Z</time>
      </trkpt>
      <trkpt lat="44.39515" lon="2.4563">
        <ele>512</ele>
        <time>2014-02-22T09:46:53Z</time>
      </trkpt>
      <trkpt lat="44.39513" lon="2.45627">
        <ele>511.8</ele>
        <time>2014-02-22T09:46:54Z</time>
      </trkpt>
      <trkpt lat="44.39503" lon="2.45598">
        <ele>510.2</ele>
        <time>2014-02-22T09:47:01Z</time>
      </trkpt>
      <trkpt lat="44.39498" lon="2.45576">
        <ele>509.4</ele>
        <time>2014-02-22T09:47:06Z</time>
      </trkpt>
      <trkpt lat="44.39497" lon="2.45552">
        <ele>508.2</ele>
        <time>2014-02-22T09:47:11Z</time>
      </trkpt>
      <trkpt lat="44.39501" lon="2.45526">
        <ele>507.4</ele>
        <time>2014-02-22T09:47:17Z</time>
      </trkpt>
      <trkpt lat="44.39503" lon="2.45516">
        <ele>506.6</ele>
        <time>2014-02-22T09:47:19Z</time>
      </trkpt>
      <trkpt lat="44.39507" lon="2.45499">
        <ele>505.8</ele>
        <time>2014-02-22T09:47:23Z</time>
      </trkpt>
      <trkpt lat="44.39515" lon="2.45474">
        <ele>504.4</ele>
        <time>2014-02-22T09:47:29Z</time>
      </trkpt>
      <trkpt lat="44.39526" lon="2.45458">
        <ele>503.4</ele>
        <time>2014-02-22T09:47:34Z</time>
      </trkpt>
      <trkpt lat="44.39543" lon="2.45441">
        <ele>501.8</ele>
        <time>2014-02-22T09:47:40Z</time>
      </trkpt>
      <trkpt lat="44.39556" lon="2.45428">
        <ele>500.6</ele>
        <time>2014-02-22T09:47:45Z</time>
      </trkpt>
      <trkpt lat="44.39574" lon="2.45416">
        <ele>499.2</ele>
        <time>2014-02-22T09:47:51Z</time>
      </trkpt>
      <trkpt lat="44.39587" lon="2.45412">
        <ele>498</ele>
        <time>2014-02-22T09:47:55Z</time>
      </trkpt>
      <trkpt lat="44.39606" lon="2.45404">
        <ele>496.6</ele>
        <time>2014-02-22T09:48:01Z</time>
      </trkpt>
      <trkpt lat="44.39624" lon="2.45396">
        <ele>495</ele>
        <time>2014-02-22T09:48:07Z</time>
      </trkpt>
      <trkpt lat="44.39638" lon="2.45388">
        <ele>493.6</ele>
        <time>2014-02-22T09:48:12Z</time>
      </trkpt>
      <trkpt lat="44.39657" lon="2.45381">
        <ele>491.8</ele>
        <time>2014-02-22T09:48:18Z</time>
      </trkpt>
      <trkpt lat="44.39672" lon="2.45374">
        <ele>491</ele>
        <time>2014-02-22T09:48:23Z</time>
      </trkpt>
      <trkpt lat="44.39691" lon="2.45366">
        <ele>489.2</ele>
        <time>2014-02-22T09:48:29Z</time>
      </trkpt>
      <trkpt lat="44.39706" lon="2.4536">
        <ele>487.8</ele>
        <time>2014-02-22T09:48:34Z</time>
      </trkpt>
      <trkpt lat="44.39717" lon="2.45355">
        <ele>486.8</ele>
        <time>2014-02-22T09:48:38Z</time>
      </trkpt>
      <trkpt lat="44.39717" lon="2.45354">
        <ele>486.4</ele>
        <time>2014-02-22T09:48:40Z</time>
      </trkpt>
      <trkpt lat="44.39714" lon="2.45357">
        <ele>484.6</ele>
        <time>2014-02-22T09:48:46Z</time>
      </trkpt>
      <trkpt lat="44.39715" lon="2.45357">
        <ele>484</ele>
        <time>2014-02-22T09:48:50Z</time>
      </trkpt>
      <trkpt lat="44.39715" lon="2.45358">
        <ele>483.2</ele>
        <time>2014-02-22T09:48:53Z</time>
      </trkpt>
      <trkpt lat="44.39714" lon="2.45359">
        <ele>482.2</ele>
        <time>2014-02-22T09:48:57Z</time>
      </trkpt>
      <trkpt lat="44.39714" lon="2.45359">
        <ele>481.6</ele>
        <time>2014-02-22T09:49:02Z</time>
      </trkpt>
      <trkpt lat="44.39714" lon="2.4536">
        <ele>480.2</ele>
        <time>2014-02-22T09:49:10Z</time>
      </trkpt>
      <trkpt lat="44.39714" lon="2.45358">
        <ele>479.2</ele>
        <time>2014-02-22T09:49:20Z</time>
      </trkpt>
      <trkpt lat="44.39714" lon="2.45358">
        <ele>478.6</ele>
        <time>2014-02-22T09:49:47Z</time>
      </trkpt>
      <trkpt lat="44.39713" lon="2.45359">
        <ele>479.8</ele>
        <time>2014-02-22T09:50:03Z</time>
      </trkpt>
      <trkpt lat="44.39713" lon="2.4536">
        <ele>480.2</ele>
        <time>2014-02-22T09:50:13Z</time>
      </trkpt>
      <trkpt lat="44.39716" lon="2.45363">
        <ele>480.4</ele>
        <time>2014-02-22T09:50:24Z</time>
      </trkpt>
      <trkpt lat="44.39717" lon="2.4536">
        <ele>476.4</ele>
        <time>2014-02-22T09:51:33Z</time>
      </trkpt>
      <trkpt lat="44.39716" lon="2.45357">
        <ele>476.4</ele>
        <time>2014-02-22T09:51:41Z</time>
      </trkpt>
      <trkpt lat="44.39716" lon="2.45357">
        <ele>476.4</ele>
        <time>2014-02-22T09:51:51Z</time>
      </trkpt>
      <trkpt lat="44.39717" lon="2.45357">
        <ele>476.4</ele>
        <time>2014-02-22T09:52:01Z</time>
      </trkpt>
      <trkpt lat="44.39726" lon="2.45355">
        <ele>476.4</ele>
        <time>2014-02-22T09:52:08Z</time>
      </trkpt>
      <trkpt lat="44.39737" lon="2.45354">
        <ele>476.4</ele>
        <time>2014-02-22T09:52:14Z</time>
      </trkpt>
      <trkpt lat="44.39739" lon="2.45353">
        <ele>476.4</ele>
        <time>2014-02-22T09:52:15Z</time>
      </trkpt>
      <trkpt lat="44.39743" lon="2.45346">
        <ele>476.4</ele>
        <time>2014-02-22T09:52:20Z</time>
      </trkpt>
      <trkpt lat="44.39736" lon="2.45344">
        <ele>476.4</ele>
        <time>2014-02-22T09:52:24Z</time>
      </trkpt>
      <trkpt lat="44.39727" lon="2.45344">
        <ele>476.4</ele>
        <time>2014-02-22T09:52:28Z</time>
      </trkpt>
      <trkpt lat="44.39725" lon="2.45344">
        <ele>476.4</ele>
        <time>2014-02-22T09:52:29Z</time>
      </trkpt>
      <trkpt lat="44.39716" lon="2.45343">
        <ele>476.2</ele>
        <time>2014-02-22T09:52:33Z</time>
      </trkpt>
      <trkpt lat="44.39714" lon="2.45342">
        <ele>475.6</ele>
        <time>2014-02-22T09:52:37Z</time>
      </trkpt>
      <trkpt lat="44.39709" lon="2.4534">
        <ele>474.4</ele>
        <time>2014-02-22T09:52:45Z</time>
      </trkpt>
      <trkpt lat="44.39707" lon="2.45334">
        <ele>472.6</ele>
        <time>2014-02-22T09:52:59Z</time>
      </trkpt>
      <trkpt lat="44.39708" lon="2.45333">
        <ele>472.4</ele>
        <time>2014-02-22T09:53:02Z</time>
      </trkpt>
      <trkpt lat="44.39707" lon="2.45333">
        <ele>472.4</ele>
        <time>2014-02-22T09:53:07Z</time>
      </trkpt>
      <trkpt lat="44.39706" lon="2.45333">
        <ele>472.2</ele>
        <time>2014-02-22T09:53:10Z</time>
      </trkpt>
      <trkpt lat="44.39696" lon="2.45334">
        <ele>472.2</ele>
        <time>2014-02-22T09:53:15Z</time>
      </trkpt>
      <trkpt lat="44.39689" lon="2.45333">
        <ele>472.2</ele>
        <time>2014-02-22T09:53:18Z</time>
      </trkpt>
      <trkpt lat="44.39687" lon="2.45333">
        <ele>472.2</ele>
        <time>2014-02-22T09:53:19Z</time>
      </trkpt>
      <trkpt lat="44.39678" lon="2.45333">
        <ele>472.2</ele>
        <time>2014-02-22T09:53:23Z</time>
      </trkpt>
      <trkpt lat="44.39669" lon="2.45337">
        <ele>471.4</ele>
        <time>2014-02-22T09:53:28Z</time>
      </trkpt>
      <trkpt lat="44.39663" lon="2.45336">
        <ele>470.8</ele>
        <time>2014-02-22T09:53:33Z</time>
      </trkpt>
      <trkpt lat="44.3966" lon="2.45324">
        <ele>470.4</ele>
        <time>2014-02-22T09:53:38Z</time>
      </trkpt>
      <trkpt lat="44.39661" lon="2.45317">
        <ele>470.2</ele>
        <time>2014-02-22T09:53:42Z</time>
      </trkpt>
      <trkpt lat="44.39661" lon="2.45314">
        <ele>470.2</ele>
        <time>2014-02-22T09:53:44Z</time>
      </trkpt>
      <trkpt lat="44.39662" lon="2.45311">
        <ele>470.2</ele>
        <time>2014-02-22T09:53:46Z</time>
      </trkpt>
      <trkpt lat="44.39662" lon="2.45307">
        <ele>469</ele>
        <time>2014-02-22T09:53:52Z</time>
      </trkpt>
      <trkpt lat="44.3966" lon="2.45308">
        <ele>467.8</ele>
        <time>2014-02-22T09:53:59Z</time>
      </trkpt>
      <trkpt lat="44.39659" lon="2.45309">
        <ele>467.2</ele>
        <time>2014-02-22T09:54:03Z</time>
      </trkpt>
      <trkpt lat="44.39656" lon="2.45309">
        <ele>466.8</ele>
        <time>2014-02-22T09:54:06Z</time>
      </trkpt>
      <trkpt lat="44.39643" lon="2.45308">
        <ele>466.2</ele>
        <time>2014-02-22T09:54:12Z</time>
      </trkpt>
      <trkpt lat="44.39626" lon="2.45304">
        <ele>465</ele>
        <time>2014-02-22T09:54:19Z</time>
      </trkpt>
      <trkpt lat="44.39614" lon="2.45301">
        <ele>464.4</ele>
        <time>2014-02-22T09:54:25Z</time>
      </trkpt>
      <trkpt lat="44.39611" lon="2.453">
        <ele>464.2</ele>
        <time>2014-02-22T09:54:28Z</time>
      </trkpt>
      <trkpt lat="44.39608" lon="2.45299">
        <ele>463.8</ele>
        <time>2014-02-22T09:54:35Z</time>
      </trkpt>
      <trkpt lat="44.39606" lon="2.45295">
        <ele>463.8</ele>
        <time>2014-02-22T09:54:42Z</time>
      </trkpt>
      <trkpt lat="44.39605" lon="2.45294">
        <ele>463.8</ele>
        <time>2014-02-22T09:54:43Z</time>
      </trkpt>
      <trkpt lat="44.39598" lon="2.45288">
        <ele>463.6</ele>
        <time>2014-02-22T09:54:47Z</time>
      </trkpt>
      <trkpt lat="44.39594" lon="2.45281">
        <ele>463.6</ele>
        <time>2014-02-22T09:54:50Z</time>
      </trkpt>
      <trkpt lat="44.39589" lon="2.45277">
        <ele>463.6</ele>
        <time>2014-02-22T09:54:55Z</time>
      </trkpt>
      <trkpt lat="44.39588" lon="2.45275">
        <ele>463.6</ele>
        <time>2014-02-22T09:54:57Z</time>
      </trkpt>
      <trkpt lat="44.39587" lon="2.45273">
        <ele>463.6</ele>
        <time>2014-02-22T09:54:59Z</time>
      </trkpt>
      <trkpt lat="44.39586" lon="2.45266">
        <ele>463.6</ele>
        <time>2014-02-22T09:55:04Z</time>
      </trkpt>
      <trkpt lat="44.39585" lon="2.45265">
        <ele>463.6</ele>
        <time>2014-02-22T09:55:05Z</time>
      </trkpt>
      <trkpt lat="44.3958" lon="2.45258">
        <ele>463.6</ele>
        <time>2014-02-22T09:55:10Z</time>
      </trkpt>
      <trkpt lat="44.39574" lon="2.45252">
        <ele>463.6</ele>
        <time>2014-02-22T09:55:15Z</time>
      </trkpt>
      <trkpt lat="44.39573" lon="2.45251">
        <ele>463.6</ele>
        <time>2014-02-22T09:55:17Z</time>
      </trkpt>
      <trkpt lat="44.39564" lon="2.45242">
        <ele>463.6</ele>
        <time>2014-02-22T09:55:23Z</time>
      </trkpt>
      <trkpt lat="44.39563" lon="2.45241">
        <ele>463.6</ele>
        <time>2014-02-22T09:55:24Z</time>
      </trkpt>
      <trkpt lat="44.39556" lon="2.45231">
        <ele>463.8</ele>
        <time>2014-02-22T09:55:30Z</time>
      </trkpt>
      <trkpt lat="44.39548" lon="2.45224">
        <ele>464.8</ele>
        <time>2014-02-22T09:55:37Z</time>
      </trkpt>
      <trkpt lat="44.39547" lon="2.45223">
        <ele>465</ele>
        <time>2014-02-22T09:55:38Z</time>
      </trkpt>
      <trkpt lat="44.39541" lon="2.45216">
        <ele>466</ele>
        <time>2014-02-22T09:55:44Z</time>
      </trkpt>
      <trkpt lat="44.39535" lon="2.45208">
        <ele>466.8</ele>
        <time>2014-02-22T09:55:50Z</time>
      </trkpt>
      <trkpt lat="44.39535" lon="2.45206">
        <ele>467</ele>
        <time>2014-02-22T09:55:51Z</time>
      </trkpt>
      <trkpt lat="44.3953" lon="2.45201">
        <ele>467.4</ele>
        <time>2014-02-22T09:55:55Z</time>
      </trkpt>
      <trkpt lat="44.39529" lon="2.452">
        <ele>467.8</ele>
        <time>2014-02-22T09:55:56Z</time>
      </trkpt>
      <trkpt lat="44.39523" lon="2.45193">
        <ele>468.8</ele>
        <time>2014-02-22T09:56:02Z</time>
      </trkpt>
      <trkpt lat="44.39516" lon="2.45186">
        <ele>469.2</ele>
        <time>2014-02-22T09:56:08Z</time>
      </trkpt>
      <trkpt lat="44.3951" lon="2.45177">
        <ele>470.2</ele>
        <time>2014-02-22T09:56:14Z</time>
      </trkpt>
      <trkpt lat="44.39506" lon="2.45165">
        <ele>471</ele>
        <time>2014-02-22T09:56:20Z</time>
      </trkpt>
      <trkpt lat="44.39499" lon="2.45152">
        <ele>471.4</ele>
        <time>2014-02-22T09:56:27Z</time>
      </trkpt>
      <trkpt lat="44.39498" lon="2.4515">
        <ele>471.6</ele>
        <time>2014-02-22T09:56:28Z</time>
      </trkpt>
      <trkpt lat="44.39493" lon="2.45143">
        <ele>472.2</ele>
        <time>2014-02-22T09:56:32Z</time>
      </trkpt>
      <trkpt lat="44.39484" lon="2.45131">
        <ele>473.2</ele>
        <time>2014-02-22T09:56:39Z</time>
      </trkpt>
      <trkpt lat="44.39477" lon="2.45118">
        <ele>474.2</ele>
        <time>2014-02-22T09:56:45Z</time>
      </trkpt>
      <trkpt lat="44.3947" lon="2.45098">
        <ele>475.2</ele>
        <time>2014-02-22T09:56:52Z</time>
      </trkpt>
      <trkpt lat="44.39463" lon="2.45084">
        <ele>476.6</ele>
        <time>2014-02-22T09:56:58Z</time>
      </trkpt>
      <trkpt lat="44.39457" lon="2.45072">
        <ele>477.4</ele>
        <time>2014-02-22T09:57:03Z</time>
      </trkpt>
      <trkpt lat="44.39456" lon="2.45069">
        <ele>477.6</ele>
        <time>2014-02-22T09:57:04Z</time>
      </trkpt>
      <trkpt lat="44.39445" lon="2.45048">
        <ele>479.2</ele>
        <time>2014-02-22T09:57:13Z</time>
      </trkpt>
      <trkpt lat="44.39438" lon="2.45032">
        <ele>480.8</ele>
        <time>2014-02-22T09:57:19Z</time>
      </trkpt>
      <trkpt lat="44.39436" lon="2.45016">
        <ele>481.6</ele>
        <time>2014-02-22T09:57:25Z</time>
      </trkpt>
      <trkpt lat="44.39436" lon="2.44997">
        <ele>483</ele>
        <time>2014-02-22T09:57:31Z</time>
      </trkpt>
      <trkpt lat="44.39436" lon="2.44979">
        <ele>483.6</ele>
        <time>2014-02-22T09:57:37Z</time>
      </trkpt>
      <trkpt lat="44.39438" lon="2.44961">
        <ele>484.6</ele>
        <time>2014-02-22T09:57:43Z</time>
      </trkpt>
      <trkpt lat="44.39444" lon="2.44944">
        <ele>485.6</ele>
        <time>2014-02-22T09:57:49Z</time>
      </trkpt>
      <trkpt lat="44.39448" lon="2.44931">
        <ele>486.6</ele>
        <time>2014-02-22T09:57:54Z</time>
      </trkpt>
      <trkpt lat="44.39452" lon="2.44915">
        <ele>487.8</ele>
        <time>2014-02-22T09:58:00Z</time>
      </trkpt>
      <trkpt lat="44.39454" lon="2.44901">
        <ele>489</ele>
        <time>2014-02-22T09:58:05Z</time>
      </trkpt>
      <trkpt lat="44.3946" lon="2.44864">
        <ele>491.6</ele>
        <time>2014-02-22T09:58:17Z</time>
      </trkpt>
      <trkpt lat="44.39462" lon="2.44847">
        <ele>492.2</ele>
        <time>2014-02-22T09:58:22Z</time>
      </trkpt>
      <trkpt lat="44.39468" lon="2.44832">
        <ele>493.2</ele>
        <time>2014-02-22T09:58:27Z</time>
      </trkpt>
      <trkpt lat="44.39476" lon="2.44813">
        <ele>494.2</ele>
        <time>2014-02-22T09:58:34Z</time>
      </trkpt>
      <trkpt lat="44.39482" lon="2.44801">
        <ele>494.8</ele>
        <time>2014-02-22T09:58:39Z</time>
      </trkpt>
      <trkpt lat="44.39483" lon="2.44798">
        <ele>495</ele>
        <time>2014-02-22T09:58:40Z</time>
      </trkpt>
      <trkpt lat="44.3949" lon="2.44789">
        <ele>496</ele>
        <time>2014-02-22T09:58:45Z</time>
      </trkpt>
      <trkpt lat="44.395" lon="2.44781">
        <ele>496.6</ele>
        <time>2014-02-22T09:58:52Z</time>
      </trkpt>
      <trkpt lat="44.39507" lon="2.44776">
        <ele>497.6</ele>
        <time>2014-02-22T09:58:58Z</time>
      </trkpt>
      <trkpt lat="44.39513" lon="2.44769">
        <ele>498.4</ele>
        <time>2014-02-22T09:59:04Z</time>
      </trkpt>
      <trkpt lat="44.3952" lon="2.44759">
        <ele>499.6</ele>
        <time>2014-02-22T09:59:13Z</time>
      </trkpt>
      <trkpt lat="44.39527" lon="2.44751">
        <ele>500.6</ele>
        <time>2014-02-22T09:59:20Z</time>
      </trkpt>
      <trkpt lat="44.39533" lon="2.44741">
        <ele>502</ele>
        <time>2014-02-22T09:59:28Z</time>
      </trkpt>
      <trkpt lat="44.39539" lon="2.44734">
        <ele>503.4</ele>
        <time>2014-02-22T09:59:34Z</time>
      </trkpt>
      <trkpt lat="44.3954" lon="2.44731">
        <ele>503.8</ele>
        <time>2014-02-22T09:59:36Z</time>
      </trkpt>
      <trkpt lat="44.39544" lon="2.44723">
        <ele>505.6</ele>
        <time>2014-02-22T09:59:42Z</time>
      </trkpt>
      <trkpt lat="44.39546" lon="2.44718">
        <ele>507.2</ele>
        <time>2014-02-22T09:59:47Z</time>
      </trkpt>
      <trkpt lat="44.39548" lon="2.44712">
        <ele>508.6</ele>
        <time>2014-02-22T09:59:53Z</time>
      </trkpt>
      <trkpt lat="44.39553" lon="2.44705">
        <ele>510.4</ele>
        <time>2014-02-22T10:00:00Z</time>
      </trkpt>
      <trkpt lat="44.39557" lon="2.44698">
        <ele>512.4</ele>
        <time>2014-02-22T10:00:08Z</time>
      </trkpt>
      <trkpt lat="44.3956" lon="2.44693">
        <ele>513.6</ele>
        <time>2014-02-22T10:00:13Z</time>
      </trkpt>
      <trkpt lat="44.39561" lon="2.44689">
        <ele>514.6</ele>
        <time>2014-02-22T10:00:16Z</time>
      </trkpt>
      <trkpt lat="44.39563" lon="2.44681">
        <ele>516.8</ele>
        <time>2014-02-22T10:00:24Z</time>
      </trkpt>
      <trkpt lat="44.39567" lon="2.44673">
        <ele>518.6</ele>
        <time>2014-02-22T10:00:31Z</time>
      </trkpt>
      <trkpt lat="44.39571" lon="2.44664">
        <ele>519.8</ele>
        <time>2014-02-22T10:00:38Z</time>
      </trkpt>
      <trkpt lat="44.39574" lon="2.4466">
        <ele>520.6</ele>
        <time>2014-02-22T10:00:41Z</time>
      </trkpt>
      <trkpt lat="44.39577" lon="2.44656">
        <ele>521</ele>
        <time>2014-02-22T10:00:44Z</time>
      </trkpt>
      <trkpt lat="44.3958" lon="2.44646">
        <ele>522</ele>
        <time>2014-02-22T10:00:50Z</time>
      </trkpt>
      <trkpt lat="44.39581" lon="2.44644">
        <ele>522.4</ele>
        <time>2014-02-22T10:00:52Z</time>
      </trkpt>
      <trkpt lat="44.39585" lon="2.44631">
        <ele>524.2</ele>
        <time>2014-02-22T10:01:00Z</time>
      </trkpt>
      <trkpt lat="44.39585" lon="2.4463">
        <ele>524.4</ele>
        <time>2014-02-22T10:01:01Z</time>
      </trkpt>
      <trkpt lat="44.39588" lon="2.4462">
        <ele>525.8</ele>
        <time>2014-02-22T10:01:07Z</time>
      </trkpt>
      <trkpt lat="44.3959" lon="2.44615">
        <ele>526.6</ele>
        <time>2014-02-22T10:01:10Z</time>
      </trkpt>
      <trkpt lat="44.39594" lon="2.44606">
        <ele>528</ele>
        <time>2014-02-22T10:01:16Z</time>
      </trkpt>
      <trkpt lat="44.39597" lon="2.44595">
        <ele>529.6</ele>
        <time>2014-02-22T10:01:23Z</time>
      </trkpt>
      <trkpt lat="44.39601" lon="2.44586">
        <ele>530.6</ele>
        <time>2014-02-22T10:01:28Z</time>
      </trkpt>
      <trkpt lat="44.39604" lon="2.44575">
        <ele>532</ele>
        <time>2014-02-22T10:01:34Z</time>
      </trkpt>
      <trkpt lat="44.39608" lon="2.44566">
        <ele>533.6</ele>
        <time>2014-02-22T10:01:40Z</time>
      </trkpt>
      <trkpt lat="44.39611" lon="2.44556">
        <ele>536</ele>
        <time>2014-02-22T10:01:49Z</time>
      </trkpt>
      <trkpt lat="44.39612" lon="2.44553">
        <ele>536.6</ele>
        <time>2014-02-22T10:01:51Z</time>
      </trkpt>
      <trkpt lat="44.39615" lon="2.44542">
        <ele>538.6</ele>
        <time>2014-02-22T10:02:00Z</time>
      </trkpt>
      <trkpt lat="44.39618" lon="2.44532">
        <ele>539.6</ele>
        <time>2014-02-22T10:02:08Z</time>
      </trkpt>
      <trkpt lat="44.39618" lon="2.44531">
        <ele>540</ele>
        <time>2014-02-22T10:02:09Z</time>
      </trkpt>
      <trkpt lat="44.39619" lon="2.44526">
        <ele>541.4</ele>
        <time>2014-02-22T10:02:18Z</time>
      </trkpt>
      <trkpt lat="44.39622" lon="2.44518">
        <ele>543</ele>
        <time>2014-02-22T10:02:25Z</time>
      </trkpt>
      <trkpt lat="44.39622" lon="2.44517">
        <ele>543.2</ele>
        <time>2014-02-22T10:02:26Z</time>
      </trkpt>
      <trkpt lat="44.39622" lon="2.44509">
        <ele>544.6</ele>
        <time>2014-02-22T10:02:32Z</time>
      </trkpt>
      <trkpt lat="44.39622" lon="2.44505">
        <ele>545.6</ele>
        <time>2014-02-22T10:02:35Z</time>
      </trkpt>
      <trkpt lat="44.39621" lon="2.44502">
        <ele>549.2</ele>
        <time>2014-02-22T10:02:48Z</time>
      </trkpt>
      <trkpt lat="44.39615" lon="2.44504">
        <ele>550.8</ele>
        <time>2014-02-22T10:02:54Z</time>
      </trkpt>
      <trkpt lat="44.39613" lon="2.44506">
        <ele>551</ele>
        <time>2014-02-22T10:02:56Z</time>
      </trkpt>
      <trkpt lat="44.39605" lon="2.4451">
        <ele>551.8</ele>
        <time>2014-02-22T10:03:02Z</time>
      </trkpt>
      <trkpt lat="44.39594" lon="2.44514">
        <ele>552</ele>
        <time>2014-02-22T10:03:07Z</time>
      </trkpt>
      <trkpt lat="44.39583" lon="2.44517">
        <ele>551.6</ele>
        <time>2014-02-22T10:03:13Z</time>
      </trkpt>
      <trkpt lat="44.39574" lon="2.44519">
        <ele>551</ele>
        <time>2014-02-22T10:03:19Z</time>
      </trkpt>
      <trkpt lat="44.39569" lon="2.4452">
        <ele>550.8</ele>
        <time>2014-02-22T10:03:24Z</time>
      </trkpt>
      <trkpt lat="44.39569" lon="2.44521">
        <ele>550.6</ele>
        <time>2014-02-22T10:03:28Z</time>
      </trkpt>
      <trkpt lat="44.39569" lon="2.44521">
        <ele>550.6</ele>
        <time>2014-02-22T10:03:33Z</time>
      </trkpt>
      <trkpt lat="44.3957" lon="2.44522">
        <ele>550.4</ele>
        <time>2014-02-22T10:03:39Z</time>
      </trkpt>
      <trkpt lat="44.39569" lon="2.44522">
        <ele>550.4</ele>
        <time>2014-02-22T10:03:46Z</time>
      </trkpt>
      <trkpt lat="44.39568" lon="2.44521">
        <ele>550.4</ele>
        <time>2014-02-22T10:03:56Z</time>
      </trkpt>
      <trkpt lat="44.39568" lon="2.44522">
        <ele>550.4</ele>
        <time>2014-02-22T10:04:05Z</time>
      </trkpt>
      <trkpt lat="44.39559" lon="2.44525">
        <ele>550.4</ele>
        <time>2014-02-22T10:04:12Z</time>
      </trkpt>
      <trkpt lat="44.39549" lon="2.44527">
        <ele>550.4</ele>
        <time>2014-02-22T10:04:16Z</time>
      </trkpt>
      <trkpt lat="44.39543" lon="2.44534">
        <ele>550.4</ele>
        <time>2014-02-22T10:04:20Z</time>
      </trkpt>
      <trkpt lat="44.39541" lon="2.44535">
        <ele>550.4</ele>
        <time>2014-02-22T10:04:21Z</time>
      </trkpt>
      <trkpt lat="44.39539" lon="2.44537">
        <ele>550.4</ele>
        <time>2014-02-22T10:04:23Z</time>
      </trkpt>
      <trkpt lat="44.3953" lon="2.4454">
        <ele>550.4</ele>
        <time>2014-02-22T10:04:29Z</time>
      </trkpt>
      <trkpt lat="44.39529" lon="2.44541">
        <ele>550.4</ele>
        <time>2014-02-22T10:04:30Z</time>
      </trkpt>
      <trkpt lat="44.39526" lon="2.44544">
        <ele>550.4</ele>
        <time>2014-02-22T10:04:32Z</time>
      </trkpt>
      <trkpt lat="44.39517" lon="2.4455">
        <ele>549.8</ele>
        <time>2014-02-22T10:04:39Z</time>
      </trkpt>
      <trkpt lat="44.39513" lon="2.44553">
        <ele>549.2</ele>
        <time>2014-02-22T10:04:43Z</time>
      </trkpt>
      <trkpt lat="44.39508" lon="2.4456">
        <ele>548</ele>
        <time>2014-02-22T10:04:49Z</time>
      </trkpt>
      <trkpt lat="44.39507" lon="2.44561">
        <ele>547.8</ele>
        <time>2014-02-22T10:04:50Z</time>
      </trkpt>
      <trkpt lat="44.39501" lon="2.44566">
        <ele>546.6</ele>
        <time>2014-02-22T10:04:54Z</time>
      </trkpt>
      <trkpt lat="44.39494" lon="2.44573">
        <ele>544.8</ele>
        <time>2014-02-22T10:04:59Z</time>
      </trkpt>
      <trkpt lat="44.39488" lon="2.44579">
        <ele>543.2</ele>
        <time>2014-02-22T10:05:03Z</time>
      </trkpt>
      <trkpt lat="44.39485" lon="2.44582">
        <ele>542.4</ele>
        <time>2014-02-22T10:05:05Z</time>
      </trkpt>
      <trkpt lat="44.39478" lon="2.44589">
        <ele>540.4</ele>
        <time>2014-02-22T10:05:10Z</time>
      </trkpt>
      <trkpt lat="44.39477" lon="2.4459">
        <ele>540</ele>
        <time>2014-02-22T10:05:11Z</time>
      </trkpt>
      <trkpt lat="44.39466" lon="2.44599">
        <ele>537.8</ele>
        <time>2014-02-22T10:05:17Z</time>
      </trkpt>
      <trkpt lat="44.39461" lon="2.44603">
        <ele>537</ele>
        <time>2014-02-22T10:05:20Z</time>
      </trkpt>
      <trkpt lat="44.39457" lon="2.44608">
        <ele>535.6</ele>
        <time>2014-02-22T10:05:24Z</time>
      </trkpt>
      <trkpt lat="44.39457" lon="2.4461">
        <ele>534</ele>
        <time>2014-02-22T10:05:32Z</time>
      </trkpt>
      <trkpt lat="44.39457" lon="2.4461">
        <ele>533.8</ele>
        <time>2014-02-22T10:05:33Z</time>
      </trkpt>
      <trkpt lat="44.39451" lon="2.44614">
        <ele>533.4</ele>
        <time>2014-02-22T10:05:38Z</time>
      </trkpt>
      <trkpt lat="44.39448" lon="2.44616">
        <ele>533</ele>
        <time>2014-02-22T10:05:40Z</time>
      </trkpt>
      <trkpt lat="44.39437" lon="2.44622">
        <ele>531.8</ele>
        <time>2014-02-22T10:05:47Z</time>
      </trkpt>
      <trkpt lat="44.39434" lon="2.44623">
        <ele>531.6</ele>
        <time>2014-02-22T10:05:50Z</time>
      </trkpt>
      <trkpt lat="44.39429" lon="2.44626">
        <ele>530.4</ele>
        <time>2014-02-22T10:05:54Z</time>
      </trkpt>
      <trkpt lat="44.39429" lon="2.44628">
        <ele>529.6</ele>
        <time>2014-02-22T10:06:00Z</time>
      </trkpt>
      <trkpt lat="44.3943" lon="2.44628">
        <ele>528.4</ele>
        <time>2014-02-22T10:06:05Z</time>
      </trkpt>
      <trkpt lat="44.39429" lon="2.44628">
        <ele>527.4</ele>
        <time>2014-02-22T10:06:12Z</time>
      </trkpt>
      <trkpt lat="44.39426" lon="2.44629">
        <ele>527.2</ele>
        <time>2014-02-22T10:06:15Z</time>
      </trkpt>
      <trkpt lat="44.3942" lon="2.44628">
        <ele>526.6</ele>
        <time>2014-02-22T10:06:18Z</time>
      </trkpt>
      <trkpt lat="44.3941" lon="2.44618">
        <ele>525.2</ele>
        <time>2014-02-22T10:06:24Z</time>
      </trkpt>
      <trkpt lat="44.39409" lon="2.44618">
        <ele>524.8</ele>
        <time>2014-02-22T10:06:25Z</time>
      </trkpt>
      <trkpt lat="44.39411" lon="2.4462">
        <ele>523.6</ele>
        <time>2014-02-22T10:06:30Z</time>
      </trkpt>
      <trkpt lat="44.39411" lon="2.4462">
        <ele>522</ele>
        <time>2014-02-22T10:06:37Z</time>
      </trkpt>
      <trkpt lat="44.39409" lon="2.44618">
        <ele>521</ele>
        <time>2014-02-22T10:06:43Z</time>
      </trkpt>
      <trkpt lat="44.39405" lon="2.44615">
        <ele>519.8</ele>
        <time>2014-02-22T10:06:49Z</time>
      </trkpt>
      <trkpt lat="44.39396" lon="2.44613">
        <ele>519</ele>
        <time>2014-02-22T10:06:54Z</time>
      </trkpt>
      <trkpt lat="44.39388" lon="2.44613">
        <ele>518</ele>
        <time>2014-02-22T10:06:59Z</time>
      </trkpt>
      <trkpt lat="44.39384" lon="2.44613">
        <ele>517.4</ele>
        <time>2014-02-22T10:07:02Z</time>
      </trkpt>
      <trkpt lat="44.39384" lon="2.44614">
        <ele>515.8</ele>
        <time>2014-02-22T10:07:11Z</time>
      </trkpt>
      <trkpt lat="44.39383" lon="2.44613">
        <ele>514.8</ele>
        <time>2014-02-22T10:07:16Z</time>
      </trkpt>
      <trkpt lat="44.39372" lon="2.44613">
        <ele>514.2</ele>
        <time>2014-02-22T10:07:22Z</time>
      </trkpt>
      <trkpt lat="44.39368" lon="2.44612">
        <ele>514</ele>
        <time>2014-02-22T10:07:24Z</time>
      </trkpt>
      <trkpt lat="44.39367" lon="2.44611">
        <ele>513.2</ele>
        <time>2014-02-22T10:07:28Z</time>
      </trkpt>
      <trkpt lat="44.39359" lon="2.44612">
        <ele>512.4</ele>
        <time>2014-02-22T10:07:34Z</time>
      </trkpt>
      <trkpt lat="44.39359" lon="2.44613">
        <ele>512.4</ele>
        <time>2014-02-22T10:07:35Z</time>
      </trkpt>
      <trkpt lat="44.39358" lon="2.44614">
        <ele>511</ele>
        <time>2014-02-22T10:07:42Z</time>
      </trkpt>
      <trkpt lat="44.39357" lon="2.44614">
        <ele>509.8</ele>
        <time>2014-02-22T10:07:53Z</time>
      </trkpt>
      <trkpt lat="44.39353" lon="2.44611">
        <ele>509.8</ele>
        <time>2014-02-22T10:07:57Z</time>
      </trkpt>
      <trkpt lat="44.39347" lon="2.4461">
        <ele>509.6</ele>
        <time>2014-02-22T10:08:02Z</time>
      </trkpt>
      <trkpt lat="44.39345" lon="2.4461">
        <ele>509.6</ele>
        <time>2014-02-22T10:08:03Z</time>
      </trkpt>
      <trkpt lat="44.39333" lon="2.44609">
        <ele>509.2</ele>
        <time>2014-02-22T10:08:09Z</time>
      </trkpt>
      <trkpt lat="44.39328" lon="2.44607">
        <ele>508.8</ele>
        <time>2014-02-22T10:08:12Z</time>
      </trkpt>
      <trkpt lat="44.39325" lon="2.44609">
        <ele>508.4</ele>
        <time>2014-02-22T10:08:14Z</time>
      </trkpt>
      <trkpt lat="44.39321" lon="2.44614">
        <ele>507.8</ele>
        <time>2014-02-22T10:08:19Z</time>
      </trkpt>
      <trkpt lat="44.39322" lon="2.44613">
        <ele>506.6</ele>
        <time>2014-02-22T10:08:25Z</time>
      </trkpt>
      <trkpt lat="44.39322" lon="2.44613">
        <ele>506.2</ele>
        <time>2014-02-22T10:08:28Z</time>
      </trkpt>
      <trkpt lat="44.39322" lon="2.44612">
        <ele>505.2</ele>
        <time>2014-02-22T10:08:33Z</time>
      </trkpt>
      <trkpt lat="44.39321" lon="2.44614">
        <ele>503.8</ele>
        <time>2014-02-22T10:08:43Z</time>
      </trkpt>
      <trkpt lat="44.39316" lon="2.44622">
        <ele>503</ele>
        <time>2014-02-22T10:08:47Z</time>
      </trkpt>
      <trkpt lat="44.39315" lon="2.44632">
        <ele>502.4</ele>
        <time>2014-02-22T10:08:50Z</time>
      </trkpt>
      <trkpt lat="44.39314" lon="2.4464">
        <ele>502</ele>
        <time>2014-02-22T10:08:53Z</time>
      </trkpt>
      <trkpt lat="44.39313" lon="2.44642">
        <ele>502</ele>
        <time>2014-02-22T10:08:54Z</time>
      </trkpt>
      <trkpt lat="44.3931" lon="2.44646">
        <ele>501.2</ele>
        <time>2014-02-22T10:08:57Z</time>
      </trkpt>
      <trkpt lat="44.39308" lon="2.44649">
        <ele>500.8</ele>
        <time>2014-02-22T10:08:59Z</time>
      </trkpt>
      <trkpt lat="44.39305" lon="2.44662">
        <ele>499.8</ele>
        <time>2014-02-22T10:09:04Z</time>
      </trkpt>
      <trkpt lat="44.39305" lon="2.44664">
        <ele>499.4</ele>
        <time>2014-02-22T10:09:05Z</time>
      </trkpt>
      <trkpt lat="44.39304" lon="2.44665">
        <ele>498.2</ele>
        <time>2014-02-22T10:09:11Z</time>
      </trkpt>
      <trkpt lat="44.39304" lon="2.44665">
        <ele>497</ele>
        <time>2014-02-22T10:09:15Z</time>
      </trkpt>
      <trkpt lat="44.39303" lon="2.44665">
        <ele>496</ele>
        <time>2014-02-22T10:09:20Z</time>
      </trkpt>
      <trkpt lat="44.39303" lon="2.44666">
        <ele>494.4</ele>
        <time>2014-02-22T10:09:32Z</time>
      </trkpt>
      <trkpt lat="44.393" lon="2.44671">
        <ele>493.8</ele>
        <time>2014-02-22T10:09:36Z</time>
      </trkpt>
      <trkpt lat="44.39299" lon="2.44671">
        <ele>493.6</ele>
        <time>2014-02-22T10:09:37Z</time>
      </trkpt>
      <trkpt lat="44.39295" lon="2.44668">
        <ele>493.2</ele>
        <time>2014-02-22T10:09:41Z</time>
      </trkpt>
      <trkpt lat="44.39291" lon="2.44669">
        <ele>492.4</ele>
        <time>2014-02-22T10:09:45Z</time>
      </trkpt>
      <trkpt lat="44.39291" lon="2.44671">
        <ele>492.2</ele>
        <time>2014-02-22T10:09:46Z</time>
      </trkpt>
      <trkpt lat="44.3929" lon="2.4468">
        <ele>491.4</ele>
        <time>2014-02-22T10:09:50Z</time>
      </trkpt>
      <trkpt lat="44.39287" lon="2.44689">
        <ele>490.2</ele>
        <time>2014-02-22T10:09:55Z</time>
      </trkpt>
      <trkpt lat="44.39285" lon="2.4469">
        <ele>489.8</ele>
        <time>2014-02-22T10:09:56Z</time>
      </trkpt>
      <trkpt lat="44.39283" lon="2.44692">
        <ele>489</ele>
        <time>2014-02-22T10:09:58Z</time>
      </trkpt>
      <trkpt lat="44.39281" lon="2.44691">
        <ele>487.8</ele>
        <time>2014-02-22T10:10:02Z</time>
      </trkpt>
      <trkpt lat="44.39281" lon="2.44691">
        <ele>486</ele>
        <time>2014-02-22T10:10:08Z</time>
      </trkpt>
      <trkpt lat="44.39281" lon="2.4469">
        <ele>485.4</ele>
        <time>2014-02-22T10:10:10Z</time>
      </trkpt>
      <trkpt lat="44.39279" lon="2.44687">
        <ele>484.8</ele>
        <time>2014-02-22T10:10:12Z</time>
      </trkpt>
      <trkpt lat="44.39274" lon="2.44674">
        <ele>483.6</ele>
        <time>2014-02-22T10:10:17Z</time>
      </trkpt>
      <trkpt lat="44.39273" lon="2.44671">
        <ele>483</ele>
        <time>2014-02-22T10:10:19Z</time>
      </trkpt>
      <trkpt lat="44.39272" lon="2.44669">
        <ele>481.2</ele>
        <time>2014-02-22T10:10:27Z</time>
      </trkpt>
      <trkpt lat="44.39272" lon="2.44669">
        <ele>479.8</ele>
        <time>2014-02-22T10:10:32Z</time>
      </trkpt>
      <trkpt lat="44.39272" lon="2.44668">
        <ele>478.6</ele>
        <time>2014-02-22T10:10:40Z</time>
      </trkpt>
      <trkpt lat="44.39267" lon="2.44662">
        <ele>478.2</ele>
        <time>2014-02-22T10:10:44Z</time>
      </trkpt>
      <trkpt lat="44.39263" lon="2.44656">
        <ele>478</ele>
        <time>2014-02-22T10:10:47Z</time>
      </trkpt>
      <trkpt lat="44.39254" lon="2.44656">
        <ele>477</ele>
        <time>2014-02-22T10:10:52Z</time>
      </trkpt>
      <trkpt lat="44.39238" lon="2.44659">
        <ele>475.4</ele>
        <time>2014-02-22T10:10:59Z</time>
      </trkpt>
      <trkpt lat="44.39228" lon="2.44664">
        <ele>474.2</ele>
        <time>2014-02-22T10:11:04Z</time>
      </trkpt>
      <trkpt lat="44.39219" lon="2.44666">
        <ele>473.2</ele>
        <time>2014-02-22T10:11:08Z</time>
      </trkpt>
      <trkpt lat="44.39216" lon="2.44666">
        <ele>472.8</ele>
        <time>2014-02-22T10:11:09Z</time>
      </trkpt>
      <trkpt lat="44.39212" lon="2.4466">
        <ele>471.6</ele>
        <time>2014-02-22T10:11:13Z</time>
      </trkpt>
      <trkpt lat="44.39212" lon="2.44659">
        <ele>469.6</ele>
        <time>2014-02-22T10:11:19Z</time>
      </trkpt>
      <trkpt lat="44.39212" lon="2.44658">
        <ele>469.2</ele>
        <time>2014-02-22T10:11:21Z</time>
      </trkpt>
      <trkpt lat="44.39211" lon="2.44657">
        <ele>468.2</ele>
        <time>2014-02-22T10:11:27Z</time>
      </trkpt>
      <trkpt lat="44.3921" lon="2.44654">
        <ele>467.4</ele>
        <time>2014-02-22T10:11:40Z</time>
      </trkpt>
      <trkpt lat="44.39209" lon="2.44645">
        <ele>467.2</ele>
        <time>2014-02-22T10:11:46Z</time>
      </trkpt>
      <trkpt lat="44.39211" lon="2.44631">
        <ele>467.2</ele>
        <time>2014-02-22T10:11:50Z</time>
      </trkpt>
      <trkpt lat="44.39212" lon="2.44622">
        <ele>467</ele>
        <time>2014-02-22T10:11:53Z</time>
      </trkpt>
      <trkpt lat="44.39213" lon="2.44615">
        <ele>466.6</ele>
        <time>2014-02-22T10:11:55Z</time>
      </trkpt>
      <trkpt lat="44.3921" lon="2.44602">
        <ele>466</ele>
        <time>2014-02-22T10:11:59Z</time>
      </trkpt>
      <trkpt lat="44.39203" lon="2.44581">
        <ele>465.4</ele>
        <time>2014-02-22T10:12:06Z</time>
      </trkpt>
      <trkpt lat="44.39201" lon="2.4458">
        <ele>465.4</ele>
        <time>2014-02-22T10:12:07Z</time>
      </trkpt>
      <trkpt lat="44.39193" lon="2.44564">
        <ele>464.6</ele>
        <time>2014-02-22T10:12:13Z</time>
      </trkpt>
      <trkpt lat="44.39185" lon="2.4455">
        <ele>464</ele>
        <time>2014-02-22T10:12:18Z</time>
      </trkpt>
      <trkpt lat="44.39181" lon="2.44537">
        <ele>463.6</ele>
        <time>2014-02-22T10:12:23Z</time>
      </trkpt>
      <trkpt lat="44.3918" lon="2.44518">
        <ele>463.2</ele>
        <time>2014-02-22T10:12:28Z</time>
      </trkpt>
      <trkpt lat="44.39181" lon="2.44503">
        <ele>463.2</ele>
        <time>2014-02-22T10:12:32Z</time>
      </trkpt>
      <trkpt lat="44.39182" lon="2.445">
        <ele>463.2</ele>
        <time>2014-02-22T10:12:33Z</time>
      </trkpt>
      <trkpt lat="44.39182" lon="2.44477">
        <ele>463</ele>
        <time>2014-02-22T10:12:39Z</time>
      </trkpt>
      <trkpt lat="44.39177" lon="2.44455">
        <ele>463</ele>
        <time>2014-02-22T10:12:45Z</time>
      </trkpt>
      <trkpt lat="44.39171" lon="2.44438">
        <ele>463</ele>
        <time>2014-02-22T10:12:50Z</time>
      </trkpt>
      <trkpt lat="44.39168" lon="2.44418">
        <ele>463</ele>
        <time>2014-02-22T10:12:56Z</time>
      </trkpt>
      <trkpt lat="44.39166" lon="2.44399">
        <ele>463</ele>
        <time>2014-02-22T10:13:01Z</time>
      </trkpt>
      <trkpt lat="44.39165" lon="2.44377">
        <ele>463</ele>
        <time>2014-02-22T10:13:07Z</time>
      </trkpt>
      <trkpt lat="44.39163" lon="2.44356">
        <ele>463</ele>
        <time>2014-02-22T10:13:13Z</time>
      </trkpt>
      <trkpt lat="44.39162" lon="2.44332">
        <ele>463</ele>
        <time>2014-02-22T10:13:19Z</time>
      </trkpt>
      <trkpt lat="44.39162" lon="2.44316">
        <ele>463.4</ele>
        <time>2014-02-22T10:13:25Z</time>
      </trkpt>
      <trkpt lat="44.39161" lon="2.44315">
        <ele>463.4</ele>
        <time>2014-02-22T10:13:26Z</time>
      </trkpt>
      <trkpt lat="44.39161" lon="2.44314">
        <ele>463.6</ele>
        <time>2014-02-22T10:13:27Z</time>
      </trkpt>
      <trkpt lat="44.3916" lon="2.44313">
        <ele>464.4</ele>
        <time>2014-02-22T10:13:36Z</time>
      </trkpt>
      <trkpt lat="44.3916" lon="2.44313">
        <ele>464.6</ele>
        <time>2014-02-22T10:13:41Z</time>
      </trkpt>
      <trkpt lat="44.3916" lon="2.44313">
        <ele>464.8</ele>
        <time>2014-02-22T10:13:46Z</time>
      </trkpt>
      <trkpt lat="44.3916" lon="2.44314">
        <ele>465.8</ele>
        <time>2014-02-22T10:13:52Z</time>
      </trkpt>
      <trkpt lat="44.3916" lon="2.44313">
        <ele>466.2</ele>
        <time>2014-02-22T10:13:56Z</time>
      </trkpt>
      <trkpt lat="44.39164" lon="2.44303">
        <ele>466.4</ele>
        <time>2014-02-22T10:14:00Z</time>
      </trkpt>
      <trkpt lat="44.39169" lon="2.44283">
        <ele>466.8</ele>
        <time>2014-02-22T10:14:07Z</time>
      </trkpt>
      <trkpt lat="44.39169" lon="2.44284">
        <ele>466.8</ele>
        <time>2014-02-22T10:14:12Z</time>
      </trkpt>
      <trkpt lat="44.39169" lon="2.44283">
        <ele>466.8</ele>
        <time>2014-02-22T10:14:13Z</time>
      </trkpt>
      <trkpt lat="44.3917" lon="2.44273">
        <ele>467</ele>
        <time>2014-02-22T10:14:17Z</time>
      </trkpt>
      <trkpt lat="44.39171" lon="2.44245">
        <ele>467</ele>
        <time>2014-02-22T10:14:24Z</time>
      </trkpt>
      <trkpt lat="44.39167" lon="2.44224">
        <ele>467</ele>
        <time>2014-02-22T10:14:29Z</time>
      </trkpt>
      <trkpt lat="44.39165" lon="2.44205">
        <ele>467</ele>
        <time>2014-02-22T10:14:34Z</time>
      </trkpt>
      <trkpt lat="44.39161" lon="2.44187">
        <ele>467</ele>
        <time>2014-02-22T10:14:39Z</time>
      </trkpt>
      <trkpt lat="44.39152" lon="2.44168">
        <ele>467.4</ele>
        <time>2014-02-22T10:14:45Z</time>
      </trkpt>
      <trkpt lat="44.39144" lon="2.4415">
        <ele>468.2</ele>
        <time>2014-02-22T10:14:51Z</time>
      </trkpt>
      <trkpt lat="44.39142" lon="2.44133">
        <ele>468.6</ele>
        <time>2014-02-22T10:14:56Z</time>
      </trkpt>
      <trkpt lat="44.39141" lon="2.44122">
        <ele>468.8</ele>
        <time>2014-02-22T10:14:59Z</time>
      </trkpt>
      <trkpt lat="44.39136" lon="2.44102">
        <ele>469</ele>
        <time>2014-02-22T10:15:05Z</time>
      </trkpt>
      <trkpt lat="44.39133" lon="2.44085">
        <ele>469.2</ele>
        <time>2014-02-22T10:15:10Z</time>
      </trkpt>
      <trkpt lat="44.39132" lon="2.44065">
        <ele>470.2</ele>
        <time>2014-02-22T10:15:16Z</time>
      </trkpt>
      <trkpt lat="44.39136" lon="2.44046">
        <ele>470.6</ele>
        <time>2014-02-22T10:15:22Z</time>
      </trkpt>
      <trkpt lat="44.3914" lon="2.44029">
        <ele>471.6</ele>
        <time>2014-02-22T10:15:28Z</time>
      </trkpt>
      <trkpt lat="44.39141" lon="2.44012">
        <ele>472.4</ele>
        <time>2014-02-22T10:15:33Z</time>
      </trkpt>
      <trkpt lat="44.39142" lon="2.43996">
        <ele>472.8</ele>
        <time>2014-02-22T10:15:38Z</time>
      </trkpt>
      <trkpt lat="44.39141" lon="2.43979">
        <ele>473.8</ele>
        <time>2014-02-22T10:15:43Z</time>
      </trkpt>
      <trkpt lat="44.3914" lon="2.43964">
        <ele>474.4</ele>
        <time>2014-02-22T10:15:48Z</time>
      </trkpt>
      <trkpt lat="44.3914" lon="2.43942">
        <ele>475</ele>
        <time>2014-02-22T10:15:55Z</time>
      </trkpt>
      <trkpt lat="44.39139" lon="2.43922">
        <ele>475.2</ele>
        <time>2014-02-22T10:16:01Z</time>
      </trkpt>
      <trkpt lat="44.39139" lon="2.4391">
        <ele>475.8</ele>
        <time>2014-02-22T10:16:05Z</time>
      </trkpt>
      <trkpt lat="44.39139" lon="2.43888">
        <ele>476.8</ele>
        <time>2014-02-22T10:16:12Z</time>
      </trkpt>
      <trkpt lat="44.39134" lon="2.43871">
        <ele>478</ele>
        <time>2014-02-22T10:16:18Z</time>
      </trkpt>
      <trkpt lat="44.3913" lon="2.43859">
        <ele>478.6</ele>
        <time>2014-02-22T10:16:22Z</time>
      </trkpt>
      <trkpt lat="44.39127" lon="2.4385">
        <ele>479.4</ele>
        <time>2014-02-22T10:16:25Z</time>
      </trkpt>
      <trkpt lat="44.39119" lon="2.43841">
        <ele>480.4</ele>
        <time>2014-02-22T10:16:30Z</time>
      </trkpt>
      <trkpt lat="44.39114" lon="2.43838">
        <ele>481.4</ele>
        <time>2014-02-22T10:16:33Z</time>
      </trkpt>
      <trkpt lat="44.39102" lon="2.43827">
        <ele>483</ele>
        <time>2014-02-22T10:16:40Z</time>
      </trkpt>
      <trkpt lat="44.39093" lon="2.43817">
        <ele>484.8</ele>
        <time>2014-02-22T10:16:48Z</time>
      </trkpt>
      <trkpt lat="44.39087" lon="2.43808">
        <ele>486.4</ele>
        <time>2014-02-22T10:16:55Z</time>
      </trkpt>
      <trkpt lat="44.39086" lon="2.43807">
        <ele>486.6</ele>
        <time>2014-02-22T10:16:56Z</time>
      </trkpt>
      <trkpt lat="44.39082" lon="2.43803">
        <ele>487</ele>
        <time>2014-02-22T10:16:59Z</time>
      </trkpt>
      <trkpt lat="44.39079" lon="2.438">
        <ele>487.2</ele>
        <time>2014-02-22T10:17:01Z</time>
      </trkpt>
      <trkpt lat="44.39071" lon="2.43792">
        <ele>487.6</ele>
        <time>2014-02-22T10:17:07Z</time>
      </trkpt>
      <trkpt lat="44.39067" lon="2.4378">
        <ele>487.8</ele>
        <time>2014-02-22T10:17:12Z</time>
      </trkpt>
      <trkpt lat="44.39066" lon="2.43775">
        <ele>487.8</ele>
        <time>2014-02-22T10:17:14Z</time>
      </trkpt>
      <trkpt lat="44.3907" lon="2.43762">
        <ele>487.6</ele>
        <time>2014-02-22T10:17:19Z</time>
      </trkpt>
      <trkpt lat="44.39076" lon="2.43751">
        <ele>487</ele>
        <time>2014-02-22T10:17:23Z</time>
      </trkpt>
      <trkpt lat="44.39073" lon="2.43745">
        <ele>486.4</ele>
        <time>2014-02-22T10:17:26Z</time>
      </trkpt>
      <trkpt lat="44.39067" lon="2.43743">
        <ele>485.6</ele>
        <time>2014-02-22T10:17:29Z</time>
      </trkpt>
      <trkpt lat="44.39055" lon="2.43742">
        <ele>484.4</ele>
        <time>2014-02-22T10:17:35Z</time>
      </trkpt>
      <trkpt lat="44.39044" lon="2.43738">
        <ele>483.4</ele>
        <time>2014-02-22T10:17:40Z</time>
      </trkpt>
      <trkpt lat="44.39044" lon="2.43738">
        <ele>483.2</ele>
        <time>2014-02-22T10:17:40Z</time>
      </trkpt>
      <trkpt lat="44.39033" lon="2.43733">
        <ele>482</ele>
        <time>2014-02-22T10:17:46Z</time>
      </trkpt>
      <trkpt lat="44.39028" lon="2.43722">
        <ele>481</ele>
        <time>2014-02-22T10:17:50Z</time>
      </trkpt>
      <trkpt lat="44.39024" lon="2.43717">
        <ele>480.8</ele>
        <time>2014-02-22T10:17:52Z</time>
      </trkpt>
      <trkpt lat="44.39018" lon="2.43702">
        <ele>479.4</ele>
        <time>2014-02-22T10:17:58Z</time>
      </trkpt>
      <trkpt lat="44.39017" lon="2.43699">
        <ele>479.2</ele>
        <time>2014-02-22T10:17:59Z</time>
      </trkpt>
      <trkpt lat="44.39008" lon="2.43684">
        <ele>478</ele>
        <time>2014-02-22T10:18:05Z</time>
      </trkpt>
      <trkpt lat="44.39005" lon="2.43678">
        <ele>477.6</ele>
        <time>2014-02-22T10:18:07Z</time>
      </trkpt>
      <trkpt lat="44.38992" lon="2.43672">
        <ele>476.4</ele>
        <time>2014-02-22T10:18:13Z</time>
      </trkpt>
      <trkpt lat="44.38985" lon="2.43674">
        <ele>475.8</ele>
        <time>2014-02-22T10:18:16Z</time>
      </trkpt>
      <trkpt lat="44.38977" lon="2.43687">
        <ele>474.6</ele>
        <time>2014-02-22T10:18:21Z</time>
      </trkpt>
      <trkpt lat="44.3897" lon="2.43693">
        <ele>474.2</ele>
        <time>2014-02-22T10:18:24Z</time>
      </trkpt>
      <trkpt lat="44.38966" lon="2.43682">
        <ele>473.4</ele>
        <time>2014-02-22T10:18:27Z</time>
      </trkpt>
      <trkpt lat="44.38966" lon="2.43679">
        <ele>473.2</ele>
        <time>2014-02-22T10:18:28Z</time>
      </trkpt>
      <trkpt lat="44.38965" lon="2.43664">
        <ele>472.4</ele>
        <time>2014-02-22T10:18:32Z</time>
      </trkpt>
      <trkpt lat="44.38971" lon="2.43644">
        <ele>470.8</ele>
        <time>2014-02-22T10:18:38Z</time>
      </trkpt>
      <trkpt lat="44.38978" lon="2.43633">
        <ele>470</ele>
        <time>2014-02-22T10:18:42Z</time>
      </trkpt>
      <trkpt lat="44.3898" lon="2.43626">
        <ele>469.2</ele>
        <time>2014-02-22T10:18:44Z</time>
      </trkpt>
      <trkpt lat="44.38991" lon="2.43615">
        <ele>467.8</ele>
        <time>2014-02-22T10:18:50Z</time>
      </trkpt>
      <trkpt lat="44.38992" lon="2.43614">
        <ele>467.6</ele>
        <time>2014-02-22T10:18:51Z</time>
      </trkpt>
      <trkpt lat="44.38994" lon="2.43607">
        <ele>466.4</ele>
        <time>2014-02-22T10:18:55Z</time>
      </trkpt>
      <trkpt lat="44.38996" lon="2.43603">
        <ele>465.2</ele>
        <time>2014-02-22T10:19:00Z</time>
      </trkpt>
      <trkpt lat="44.38996" lon="2.43604">
        <ele>464.8</ele>
        <time>2014-02-22T10:19:01Z</time>
      </trkpt>
      <trkpt lat="44.38995" lon="2.43608">
        <ele>464.4</ele>
        <time>2014-02-22T10:19:03Z</time>
      </trkpt>
      <trkpt lat="44.38994" lon="2.43612">
        <ele>463.6</ele>
        <time>2014-02-22T10:19:08Z</time>
      </trkpt>
      <trkpt lat="44.38998" lon="2.43612">
        <ele>463.2</ele>
        <time>2014-02-22T10:19:11Z</time>
      </trkpt>
      <trkpt lat="44.39" lon="2.4361">
        <ele>462.8</ele>
        <time>2014-02-22T10:19:18Z</time>
      </trkpt>
      <trkpt lat="44.38999" lon="2.43608">
        <ele>462.8</ele>
        <time>2014-02-22T10:19:19Z</time>
      </trkpt>
      <trkpt lat="44.38999" lon="2.436">
        <ele>462.4</ele>
        <time>2014-02-22T10:19:23Z</time>
      </trkpt>
      <trkpt lat="44.38995" lon="2.43593">
        <ele>461.6</ele>
        <time>2014-02-22T10:19:28Z</time>
      </trkpt>
      <trkpt lat="44.3899" lon="2.43582">
        <ele>461.2</ele>
        <time>2014-02-22T10:19:33Z</time>
      </trkpt>
      <trkpt lat="44.38989" lon="2.43578">
        <ele>461</ele>
        <time>2014-02-22T10:19:35Z</time>
      </trkpt>
      <trkpt lat="44.38988" lon="2.43574">
        <ele>460.8</ele>
        <time>2014-02-22T10:19:37Z</time>
      </trkpt>
      <trkpt lat="44.3899" lon="2.43563">
        <ele>460.6</ele>
        <time>2014-02-22T10:19:43Z</time>
      </trkpt>
      <trkpt lat="44.38994" lon="2.43558">
        <ele>459.8</ele>
        <time>2014-02-22T10:19:48Z</time>
      </trkpt>
      <trkpt lat="44.38994" lon="2.43558">
        <ele>459.6</ele>
        <time>2014-02-22T10:19:49Z</time>
      </trkpt>
      <trkpt lat="44.38996" lon="2.43556">
        <ele>459.2</ele>
        <time>2014-02-22T10:19:53Z</time>
      </trkpt>
      <trkpt lat="44.38996" lon="2.4355">
        <ele>458.2</ele>
        <time>2014-02-22T10:19:58Z</time>
      </trkpt>
      <trkpt lat="44.38996" lon="2.43547">
        <ele>457.8</ele>
        <time>2014-02-22T10:20:00Z</time>
      </trkpt>
      <trkpt lat="44.38999" lon="2.43539">
        <ele>456.8</ele>
        <time>2014-02-22T10:20:05Z</time>
      </trkpt>
      <trkpt lat="44.39001" lon="2.43535">
        <ele>456.4</ele>
        <time>2014-02-22T10:20:08Z</time>
      </trkpt>
      <trkpt lat="44.39001" lon="2.43535">
        <ele>456.2</ele>
        <time>2014-02-22T10:20:08Z</time>
      </trkpt>
      <trkpt lat="44.39" lon="2.43533">
        <ele>456</ele>
        <time>2014-02-22T10:20:09Z</time>
      </trkpt>
      <trkpt lat="44.38996" lon="2.43526">
        <ele>454.8</ele>
        <time>2014-02-22T10:20:13Z</time>
      </trkpt>
      <trkpt lat="44.38994" lon="2.43524">
        <ele>454.6</ele>
        <time>2014-02-22T10:20:14Z</time>
      </trkpt>
      <trkpt lat="44.38987" lon="2.43513">
        <ele>453.4</ele>
        <time>2014-02-22T10:20:19Z</time>
      </trkpt>
      <trkpt lat="44.38985" lon="2.43508">
        <ele>452.6</ele>
        <time>2014-02-22T10:20:21Z</time>
      </trkpt>
      <trkpt lat="44.38986" lon="2.435">
        <ele>451.6</ele>
        <time>2014-02-22T10:20:25Z</time>
      </trkpt>
      <trkpt lat="44.38987" lon="2.43494">
        <ele>450.4</ele>
        <time>2014-02-22T10:20:29Z</time>
      </trkpt>
      <trkpt lat="44.38986" lon="2.43491">
        <ele>449.8</ele>
        <time>2014-02-22T10:20:31Z</time>
      </trkpt>
      <trkpt lat="44.38987" lon="2.43475">
        <ele>448.6</ele>
        <time>2014-02-22T10:20:36Z</time>
      </trkpt>
      <trkpt lat="44.38984" lon="2.43464">
        <ele>447.4</ele>
        <time>2014-02-22T10:20:40Z</time>
      </trkpt>
      <trkpt lat="44.38988" lon="2.43458">
        <ele>446</ele>
        <time>2014-02-22T10:20:44Z</time>
      </trkpt>
      <trkpt lat="44.38989" lon="2.43447">
        <ele>445.2</ele>
        <time>2014-02-22T10:20:47Z</time>
      </trkpt>
      <trkpt lat="44.38989" lon="2.43445">
        <ele>444.8</ele>
        <time>2014-02-22T10:20:48Z</time>
      </trkpt>
      <trkpt lat="44.3899" lon="2.4344">
        <ele>444.4</ele>
        <time>2014-02-22T10:20:50Z</time>
      </trkpt>
      <trkpt lat="44.38992" lon="2.43429">
        <ele>443.2</ele>
        <time>2014-02-22T10:20:53Z</time>
      </trkpt>
      <trkpt lat="44.38997" lon="2.4341">
        <ele>441.4</ele>
        <time>2014-02-22T10:20:58Z</time>
      </trkpt>
      <trkpt lat="44.38999" lon="2.43403">
        <ele>440.8</ele>
        <time>2014-02-22T10:21:00Z</time>
      </trkpt>
      <trkpt lat="44.38994" lon="2.43399">
        <ele>439.8</ele>
        <time>2014-02-22T10:21:04Z</time>
      </trkpt>
      <trkpt lat="44.38988" lon="2.43392">
        <ele>438.8</ele>
        <time>2014-02-22T10:21:07Z</time>
      </trkpt>
      <trkpt lat="44.38982" lon="2.43392">
        <ele>438.2</ele>
        <time>2014-02-22T10:21:10Z</time>
      </trkpt>
      <trkpt lat="44.38972" lon="2.43404">
        <ele>436.6</ele>
        <time>2014-02-22T10:21:16Z</time>
      </trkpt>
      <trkpt lat="44.38971" lon="2.43406">
        <ele>436.4</ele>
        <time>2014-02-22T10:21:17Z</time>
      </trkpt>
      <trkpt lat="44.38966" lon="2.43411">
        <ele>435.4</ele>
        <time>2014-02-22T10:21:20Z</time>
      </trkpt>
      <trkpt lat="44.38956" lon="2.43418">
        <ele>433.6</ele>
        <time>2014-02-22T10:21:26Z</time>
      </trkpt>
      <trkpt lat="44.38953" lon="2.43422">
        <ele>433.2</ele>
        <time>2014-02-22T10:21:28Z</time>
      </trkpt>
      <trkpt lat="44.38946" lon="2.43428">
        <ele>431.6</ele>
        <time>2014-02-22T10:21:32Z</time>
      </trkpt>
      <trkpt lat="44.38938" lon="2.43436">
        <ele>430.4</ele>
        <time>2014-02-22T10:21:36Z</time>
      </trkpt>
      <trkpt lat="44.38935" lon="2.4344">
        <ele>430</ele>
        <time>2014-02-22T10:21:38Z</time>
      </trkpt>
      <trkpt lat="44.38932" lon="2.43445">
        <ele>429.2</ele>
        <time>2014-02-22T10:21:40Z</time>
      </trkpt>
      <trkpt lat="44.38927" lon="2.43456">
        <ele>427.8</ele>
        <time>2014-02-22T10:21:45Z</time>
      </trkpt>
      <trkpt lat="44.38919" lon="2.43466">
        <ele>426.6</ele>
        <time>2014-02-22T10:21:49Z</time>
      </trkpt>
      <trkpt lat="44.38915" lon="2.43478">
        <ele>425.6</ele>
        <time>2014-02-22T10:21:53Z</time>
      </trkpt>
      <trkpt lat="44.38907" lon="2.4349">
        <ele>424.4</ele>
        <time>2014-02-22T10:21:57Z</time>
      </trkpt>
      <trkpt lat="44.389" lon="2.43504">
        <ele>423.6</ele>
        <time>2014-02-22T10:22:01Z</time>
      </trkpt>
      <trkpt lat="44.38889" lon="2.43524">
        <ele>421.8</ele>
        <time>2014-02-22T10:22:07Z</time>
      </trkpt>
      <trkpt lat="44.38882" lon="2.43536">
        <ele>420.6</ele>
        <time>2014-02-22T10:22:10Z</time>
      </trkpt>
      <trkpt lat="44.3888" lon="2.43539">
        <ele>420.4</ele>
        <time>2014-02-22T10:22:11Z</time>
      </trkpt>
      <trkpt lat="44.38869" lon="2.43571">
        <ele>418.4</ele>
        <time>2014-02-22T10:22:19Z</time>
      </trkpt>
      <trkpt lat="44.38868" lon="2.4359">
        <ele>417</ele>
        <time>2014-02-22T10:22:24Z</time>
      </trkpt>
      <trkpt lat="44.38866" lon="2.43604">
        <ele>416.4</ele>
        <time>2014-02-22T10:22:28Z</time>
      </trkpt>
      <trkpt lat="44.38865" lon="2.43622">
        <ele>416</ele>
        <time>2014-02-22T10:22:33Z</time>
      </trkpt>
      <trkpt lat="44.38863" lon="2.4364">
        <ele>415.6</ele>
        <time>2014-02-22T10:22:38Z</time>
      </trkpt>
      <trkpt lat="44.38861" lon="2.43655">
        <ele>415.4</ele>
        <time>2014-02-22T10:22:42Z</time>
      </trkpt>
      <trkpt lat="44.3886" lon="2.43662">
        <ele>415.4</ele>
        <time>2014-02-22T10:22:44Z</time>
      </trkpt>
      <trkpt lat="44.38854" lon="2.43679">
        <ele>415.4</ele>
        <time>2014-02-22T10:22:50Z</time>
      </trkpt>
      <trkpt lat="44.38851" lon="2.43692">
        <ele>415.2</ele>
        <time>2014-02-22T10:22:54Z</time>
      </trkpt>
      <trkpt lat="44.3885" lon="2.43709">
        <ele>415.2</ele>
        <time>2014-02-22T10:22:59Z</time>
      </trkpt>
      <trkpt lat="44.38851" lon="2.4373">
        <ele>415.2</ele>
        <time>2014-02-22T10:23:05Z</time>
      </trkpt>
      <trkpt lat="44.38852" lon="2.43741">
        <ele>415.2</ele>
        <time>2014-02-22T10:23:08Z</time>
      </trkpt>
      <trkpt lat="44.38851" lon="2.43765">
        <ele>415.2</ele>
        <time>2014-02-22T10:23:14Z</time>
      </trkpt>
      <trkpt lat="44.38852" lon="2.43785">
        <ele>415.2</ele>
        <time>2014-02-22T10:23:19Z</time>
      </trkpt>
      <trkpt lat="44.38855" lon="2.43791">
        <ele>415.2</ele>
        <time>2014-02-22T10:23:21Z</time>
      </trkpt>
      <trkpt lat="44.38858" lon="2.43799">
        <ele>415.2</ele>
        <time>2014-02-22T10:23:23Z</time>
      </trkpt>
      <trkpt lat="44.38862" lon="2.43815">
        <ele>415.2</ele>
        <time>2014-02-22T10:23:28Z</time>
      </trkpt>
      <trkpt lat="44.38867" lon="2.43823">
        <ele>415.2</ele>
        <time>2014-02-22T10:23:31Z</time>
      </trkpt>
      <trkpt lat="44.38871" lon="2.43837">
        <ele>415.2</ele>
        <time>2014-02-22T10:23:36Z</time>
      </trkpt>
      <trkpt lat="44.38873" lon="2.43839">
        <ele>415.2</ele>
        <time>2014-02-22T10:23:37Z</time>
      </trkpt>
      <trkpt lat="44.38876" lon="2.43845">
        <ele>415.2</ele>
        <time>2014-02-22T10:23:39Z</time>
      </trkpt>
      <trkpt lat="44.38883" lon="2.43857">
        <ele>415.8</ele>
        <time>2014-02-22T10:23:44Z</time>
      </trkpt>
      <trkpt lat="44.38886" lon="2.43861">
        <ele>416.2</ele>
        <time>2014-02-22T10:23:46Z</time>
      </trkpt>
      <trkpt lat="44.38895" lon="2.43879">
        <ele>416.6</ele>
        <time>2014-02-22T10:23:52Z</time>
      </trkpt>
      <trkpt lat="44.38903" lon="2.43893">
        <ele>416.8</ele>
        <time>2014-02-22T10:23:57Z</time>
      </trkpt>
      <trkpt lat="44.38911" lon="2.43909">
        <ele>417</ele>
        <time>2014-02-22T10:24:03Z</time>
      </trkpt>
      <trkpt lat="44.38918" lon="2.43923">
        <ele>417.2</ele>
        <time>2014-02-22T10:24:08Z</time>
      </trkpt>
      <trkpt lat="44.38919" lon="2.43932">
        <ele>417.2</ele>
        <time>2014-02-22T10:24:11Z</time>
      </trkpt>
      <trkpt lat="44.38927" lon="2.43954">
        <ele>417.2</ele>
        <time>2014-02-22T10:24:18Z</time>
      </trkpt>
      <trkpt lat="44.38929" lon="2.43966">
        <ele>418</ele>
        <time>2014-02-22T10:24:22Z</time>
      </trkpt>
      <trkpt lat="44.38929" lon="2.43974">
        <ele>418.2</ele>
        <time>2014-02-22T10:24:24Z</time>
      </trkpt>
      <trkpt lat="44.38932" lon="2.43993">
        <ele>418.6</ele>
        <time>2014-02-22T10:24:29Z</time>
      </trkpt>
      <trkpt lat="44.38938" lon="2.44012">
        <ele>418.8</ele>
        <time>2014-02-22T10:24:34Z</time>
      </trkpt>
      <trkpt lat="44.3894" lon="2.44018">
        <ele>419</ele>
        <time>2014-02-22T10:24:36Z</time>
      </trkpt>
      <trkpt lat="44.38943" lon="2.44037">
        <ele>419</ele>
        <time>2014-02-22T10:24:41Z</time>
      </trkpt>
      <trkpt lat="44.38948" lon="2.44057">
        <ele>419.2</ele>
        <time>2014-02-22T10:24:46Z</time>
      </trkpt>
      <trkpt lat="44.3895" lon="2.44077">
        <ele>419.2</ele>
        <time>2014-02-22T10:24:51Z</time>
      </trkpt>
      <trkpt lat="44.38949" lon="2.44085">
        <ele>419.2</ele>
        <time>2014-02-22T10:24:53Z</time>
      </trkpt>
      <trkpt lat="44.3895" lon="2.44096">
        <ele>419.2</ele>
        <time>2014-02-22T10:24:56Z</time>
      </trkpt>
      <trkpt lat="44.38951" lon="2.44114">
        <ele>418.8</ele>
        <time>2014-02-22T10:25:01Z</time>
      </trkpt>
      <trkpt lat="44.38951" lon="2.44116">
        <ele>418.6</ele>
        <time>2014-02-22T10:25:02Z</time>
      </trkpt>
      <trkpt lat="44.38959" lon="2.44136">
        <ele>418</ele>
        <time>2014-02-22T10:25:09Z</time>
      </trkpt>
      <trkpt lat="44.3896" lon="2.44138">
        <ele>417.8</ele>
        <time>2014-02-22T10:25:10Z</time>
      </trkpt>
      <trkpt lat="44.38969" lon="2.44154">
        <ele>417.6</ele>
        <time>2014-02-22T10:25:15Z</time>
      </trkpt>
      <trkpt lat="44.3898" lon="2.44167">
        <ele>417.4</ele>
        <time>2014-02-22T10:25:20Z</time>
      </trkpt>
      <trkpt lat="44.38986" lon="2.44175">
        <ele>417.4</ele>
        <time>2014-02-22T10:25:23Z</time>
      </trkpt>
      <trkpt lat="44.38998" lon="2.44193">
        <ele>417.2</ele>
        <time>2014-02-22T10:25:30Z</time>
      </trkpt>
      <trkpt lat="44.39008" lon="2.44209">
        <ele>417.2</ele>
        <time>2014-02-22T10:25:35Z</time>
      </trkpt>
      <trkpt lat="44.39013" lon="2.44222">
        <ele>417.2</ele>
        <time>2014-02-22T10:25:39Z</time>
      </trkpt>
      <trkpt lat="44.39014" lon="2.4423">
        <ele>417.2</ele>
        <time>2014-02-22T10:25:41Z</time>
      </trkpt>
      <trkpt lat="44.39017" lon="2.44246">
        <ele>417.2</ele>
        <time>2014-02-22T10:25:45Z</time>
      </trkpt>
      <trkpt lat="44.39008" lon="2.44251">
        <ele>417.2</ele>
        <time>2014-02-22T10:25:49Z</time>
      </trkpt>
      <trkpt lat="44.39002" lon="2.44243">
        <ele>417.2</ele>
        <time>2014-02-22T10:25:52Z</time>
      </trkpt>
      <trkpt lat="44.38983" lon="2.44225">
        <ele>417.2</ele>
        <time>2014-02-22T10:26:00Z</time>
      </trkpt>
      <trkpt lat="44.38973" lon="2.44222">
        <ele>417.2</ele>
        <time>2014-02-22T10:26:04Z</time>
      </trkpt>
      <trkpt lat="44.38968" lon="2.44223">
        <ele>417.2</ele>
        <time>2014-02-22T10:26:06Z</time>
      </trkpt>
      <trkpt lat="44.38965" lon="2.44226">
        <ele>417.2</ele>
        <time>2014-02-22T10:26:08Z</time>
      </trkpt>
      <trkpt lat="44.38961" lon="2.44232">
        <ele>417.2</ele>
        <time>2014-02-22T10:26:10Z</time>
      </trkpt>
      <trkpt lat="44.38957" lon="2.44236">
        <ele>417.2</ele>
        <time>2014-02-22T10:26:12Z</time>
      </trkpt>
      <trkpt lat="44.38951" lon="2.44237">
        <ele>417.2</ele>
        <time>2014-02-22T10:26:15Z</time>
      </trkpt>
      <trkpt lat="44.38943" lon="2.44234">
        <ele>417.2</ele>
        <time>2014-02-22T10:26:18Z</time>
      </trkpt>
      <trkpt lat="44.3893" lon="2.44227">
        <ele>417.2</ele>
        <time>2014-02-22T10:26:23Z</time>
      </trkpt>
      <trkpt lat="44.38924" lon="2.44225">
        <ele>417.2</ele>
        <time>2014-02-22T10:26:25Z</time>
      </trkpt>
      <trkpt lat="44.38913" lon="2.44217">
        <ele>416.4</ele>
        <time>2014-02-22T10:26:30Z</time>
      </trkpt>
      <trkpt lat="44.38912" lon="2.44215">
        <ele>416.2</ele>
        <time>2014-02-22T10:26:31Z</time>
      </trkpt>
      <trkpt lat="44.38904" lon="2.44206">
        <ele>416</ele>
        <time>2014-02-22T10:26:35Z</time>
      </trkpt>
      <trkpt lat="44.38898" lon="2.44199">
        <ele>415.8</ele>
        <time>2014-02-22T10:26:38Z</time>
      </trkpt>
      <trkpt lat="44.38885" lon="2.44182">
        <ele>415.4</ele>
        <time>2014-02-22T10:26:45Z</time>
      </trkpt>
      <trkpt lat="44.38874" lon="2.4417">
        <ele>415.4</ele>
        <time>2014-02-22T10:26:51Z</time>
      </trkpt>
      <trkpt lat="44.38871" lon="2.44166">
        <ele>415.4</ele>
        <time>2014-02-22T10:26:53Z</time>
      </trkpt>
      <trkpt lat="44.38858" lon="2.44154">
        <ele>415.8</ele>
        <time>2014-02-22T10:27:00Z</time>
      </trkpt>
      <trkpt lat="44.38856" lon="2.44152">
        <ele>416</ele>
        <time>2014-02-22T10:27:01Z</time>
      </trkpt>
      <trkpt lat="44.3885" lon="2.44142">
        <ele>416.4</ele>
        <time>2014-02-22T10:27:05Z</time>
      </trkpt>
      <trkpt lat="44.38841" lon="2.44133">
        <ele>416.8</ele>
        <time>2014-02-22T10:27:10Z</time>
      </trkpt>
      <trkpt lat="44.38838" lon="2.44131">
        <ele>416.8</ele>
        <time>2014-02-22T10:27:12Z</time>
      </trkpt>
      <trkpt lat="44.38833" lon="2.44127">
        <ele>417</ele>
        <time>2014-02-22T10:27:15Z</time>
      </trkpt>
      <trkpt lat="44.38825" lon="2.44124">
        <ele>417</ele>
        <time>2014-02-22T10:27:20Z</time>
      </trkpt>
      <trkpt lat="44.38817" lon="2.44119">
        <ele>417.2</ele>
        <time>2014-02-22T10:27:25Z</time>
      </trkpt>
      <trkpt lat="44.38811" lon="2.44113">
        <ele>417.8</ele>
        <time>2014-02-22T10:27:28Z</time>
      </trkpt>
      <trkpt lat="44.38803" lon="2.44102">
        <ele>418.4</ele>
        <time>2014-02-22T10:27:34Z</time>
      </trkpt>
      <trkpt lat="44.38798" lon="2.44093">
        <ele>418.8</ele>
        <time>2014-02-22T10:27:38Z</time>
      </trkpt>
      <trkpt lat="44.38793" lon="2.44084">
        <ele>419.6</ele>
        <time>2014-02-22T10:27:43Z</time>
      </trkpt>
      <trkpt lat="44.38791" lon="2.44083">
        <ele>419.8</ele>
        <time>2014-02-22T10:27:44Z</time>
      </trkpt>
      <trkpt lat="44.38787" lon="2.44088">
        <ele>420.8</ele>
        <time>2014-02-22T10:27:50Z</time>
      </trkpt>
      <trkpt lat="44.38787" lon="2.4409">
        <ele>421</ele>
        <time>2014-02-22T10:27:51Z</time>
      </trkpt>
      <trkpt lat="44.38789" lon="2.44097">
        <ele>421.6</ele>
        <time>2014-02-22T10:27:54Z</time>
      </trkpt>
      <trkpt lat="44.38795" lon="2.44108">
        <ele>422.6</ele>
        <time>2014-02-22T10:27:59Z</time>
      </trkpt>
      <trkpt lat="44.38796" lon="2.4411">
        <ele>423</ele>
        <time>2014-02-22T10:28:00Z</time>
      </trkpt>
      <trkpt lat="44.38798" lon="2.44115">
        <ele>423.4</ele>
        <time>2014-02-22T10:28:02Z</time>
      </trkpt>
      <trkpt lat="44.38802" lon="2.44123">
        <ele>424.2</ele>
        <time>2014-02-22T10:28:06Z</time>
      </trkpt>
      <trkpt lat="44.38803" lon="2.44125">
        <ele>424.4</ele>
        <time>2014-02-22T10:28:07Z</time>
      </trkpt>
      <trkpt lat="44.38803" lon="2.44128">
        <ele>424.6</ele>
        <time>2014-02-22T10:28:09Z</time>
      </trkpt>
      <trkpt lat="44.38807" lon="2.4414">
        <ele>425.8</ele>
        <time>2014-02-22T10:28:14Z</time>
      </trkpt>
      <trkpt lat="44.38808" lon="2.44144">
        <ele>426.2</ele>
        <time>2014-02-22T10:28:16Z</time>
      </trkpt>
      <trkpt lat="44.38815" lon="2.44156">
        <ele>427.6</ele>
        <time>2014-02-22T10:28:21Z</time>
      </trkpt>
      <trkpt lat="44.38815" lon="2.44161">
        <ele>428</ele>
        <time>2014-02-22T10:28:23Z</time>
      </trkpt>
      <trkpt lat="44.38817" lon="2.4418">
        <ele>429.6</ele>
        <time>2014-02-22T10:28:30Z</time>
      </trkpt>
      <trkpt lat="44.3882" lon="2.44196">
        <ele>430.6</ele>
        <time>2014-02-22T10:28:36Z</time>
      </trkpt>
      <trkpt lat="44.38823" lon="2.44209">
        <ele>431.6</ele>
        <time>2014-02-22T10:28:40Z</time>
      </trkpt>
      <trkpt lat="44.38823" lon="2.44226">
        <ele>432.8</ele>
        <time>2014-02-22T10:28:46Z</time>
      </trkpt>
      <trkpt lat="44.38823" lon="2.44235">
        <ele>433.2</ele>
        <time>2014-02-22T10:28:49Z</time>
      </trkpt>
      <trkpt lat="44.38823" lon="2.44241">
        <ele>433.8</ele>
        <time>2014-02-22T10:28:51Z</time>
      </trkpt>
      <trkpt lat="44.38821" lon="2.44256">
        <ele>434.6</ele>
        <time>2014-02-22T10:28:56Z</time>
      </trkpt>
      <trkpt lat="44.38821" lon="2.44259">
        <ele>434.8</ele>
        <time>2014-02-22T10:28:57Z</time>
      </trkpt>
      <trkpt lat="44.38825" lon="2.44283">
        <ele>436</ele>
        <time>2014-02-22T10:29:05Z</time>
      </trkpt>
      <trkpt lat="44.38829" lon="2.44299">
        <ele>437.4</ele>
        <time>2014-02-22T10:29:11Z</time>
      </trkpt>
      <trkpt lat="44.3883" lon="2.44308">
        <ele>438.4</ele>
        <time>2014-02-22T10:29:14Z</time>
      </trkpt>
      <trkpt lat="44.38834" lon="2.44317">
        <ele>439.2</ele>
        <time>2014-02-22T10:29:18Z</time>
      </trkpt>
      <trkpt lat="44.38834" lon="2.44323">
        <ele>439.8</ele>
        <time>2014-02-22T10:29:20Z</time>
      </trkpt>
      <trkpt lat="44.38835" lon="2.4433">
        <ele>440.4</ele>
        <time>2014-02-22T10:29:22Z</time>
      </trkpt>
      <trkpt lat="44.38838" lon="2.44344">
        <ele>441.8</ele>
        <time>2014-02-22T10:29:27Z</time>
      </trkpt>
      <trkpt lat="44.38839" lon="2.44354">
        <ele>442.8</ele>
        <time>2014-02-22T10:29:31Z</time>
      </trkpt>
      <trkpt lat="44.38843" lon="2.44366">
        <ele>443.6</ele>
        <time>2014-02-22T10:29:36Z</time>
      </trkpt>
      <trkpt lat="44.38846" lon="2.44378">
        <ele>444.8</ele>
        <time>2014-02-22T10:29:41Z</time>
      </trkpt>
      <trkpt lat="44.38849" lon="2.44389">
        <ele>446</ele>
        <time>2014-02-22T10:29:46Z</time>
      </trkpt>
      <trkpt lat="44.3885" lon="2.44392">
        <ele>446.2</ele>
        <time>2014-02-22T10:29:47Z</time>
      </trkpt>
      <trkpt lat="44.3885" lon="2.44397">
        <ele>446.6</ele>
        <time>2014-02-22T10:29:49Z</time>
      </trkpt>
      <trkpt lat="44.38852" lon="2.44406">
        <ele>447.8</ele>
        <time>2014-02-22T10:29:53Z</time>
      </trkpt>
      <trkpt lat="44.38854" lon="2.44419">
        <ele>449</ele>
        <time>2014-02-22T10:29:58Z</time>
      </trkpt>
      <trkpt lat="44.38855" lon="2.44424">
        <ele>449.4</ele>
        <time>2014-02-22T10:30:00Z</time>
      </trkpt>
      <trkpt lat="44.38857" lon="2.44429">
        <ele>450</ele>
        <time>2014-02-22T10:30:02Z</time>
      </trkpt>
      <trkpt lat="44.38858" lon="2.44434">
        <ele>450.6</ele>
        <time>2014-02-22T10:30:04Z</time>
      </trkpt>
      <trkpt lat="44.38862" lon="2.44447">
        <ele>451.8</ele>
        <time>2014-02-22T10:30:09Z</time>
      </trkpt>
      <trkpt lat="44.38863" lon="2.44457">
        <ele>453</ele>
        <time>2014-02-22T10:30:13Z</time>
      </trkpt>
      <trkpt lat="44.38864" lon="2.44464">
        <ele>453.2</ele>
        <time>2014-02-22T10:30:15Z</time>
      </trkpt>
      <trkpt lat="44.38864" lon="2.44469">
        <ele>453.6</ele>
        <time>2014-02-22T10:30:17Z</time>
      </trkpt>
      <trkpt lat="44.38864" lon="2.44482">
        <ele>454.8</ele>
        <time>2014-02-22T10:30:22Z</time>
      </trkpt>
      <trkpt lat="44.38864" lon="2.44485">
        <ele>455</ele>
        <time>2014-02-22T10:30:23Z</time>
      </trkpt>
      <trkpt lat="44.38864" lon="2.44491">
        <ele>455.4</ele>
        <time>2014-02-22T10:30:25Z</time>
      </trkpt>
      <trkpt lat="44.38861" lon="2.44507">
        <ele>456.4</ele>
        <time>2014-02-22T10:30:30Z</time>
      </trkpt>
      <trkpt lat="44.38861" lon="2.4452">
        <ele>457.4</ele>
        <time>2014-02-22T10:30:34Z</time>
      </trkpt>
      <trkpt lat="44.38862" lon="2.44523">
        <ele>457.4</ele>
        <time>2014-02-22T10:30:35Z</time>
      </trkpt>
      <trkpt lat="44.38862" lon="2.4454">
        <ele>458.6</ele>
        <time>2014-02-22T10:30:40Z</time>
      </trkpt>
      <trkpt lat="44.38862" lon="2.44543">
        <ele>458.8</ele>
        <time>2014-02-22T10:30:41Z</time>
      </trkpt>
      <trkpt lat="44.38864" lon="2.44562">
        <ele>460</ele>
        <time>2014-02-22T10:30:47Z</time>
      </trkpt>
      <trkpt lat="44.38864" lon="2.44567">
        <ele>460.2</ele>
        <time>2014-02-22T10:30:49Z</time>
      </trkpt>
      <trkpt lat="44.38869" lon="2.44581">
        <ele>461.2</ele>
        <time>2014-02-22T10:30:54Z</time>
      </trkpt>
      <trkpt lat="44.3887" lon="2.44584">
        <ele>461.4</ele>
        <time>2014-02-22T10:30:55Z</time>
      </trkpt>
      <trkpt lat="44.38871" lon="2.44586">
        <ele>461.6</ele>
        <time>2014-02-22T10:30:56Z</time>
      </trkpt>
      <trkpt lat="44.38871" lon="2.44596">
        <ele>462.2</ele>
        <time>2014-02-22T10:31:00Z</time>
      </trkpt>
      <trkpt lat="44.38869" lon="2.44606">
        <ele>462.6</ele>
        <time>2014-02-22T10:31:04Z</time>
      </trkpt>
      <trkpt lat="44.3887" lon="2.44619">
        <ele>462.8</ele>
        <time>2014-02-22T10:31:09Z</time>
      </trkpt>
      <trkpt lat="44.38873" lon="2.44632">
        <ele>463</ele>
        <time>2014-02-22T10:31:14Z</time>
      </trkpt>
      <trkpt lat="44.38876" lon="2.44642">
        <ele>463</ele>
        <time>2014-02-22T10:31:18Z</time>
      </trkpt>
      <trkpt lat="44.38878" lon="2.44647">
        <ele>463</ele>
        <time>2014-02-22T10:31:20Z</time>
      </trkpt>
      <trkpt lat="44.38881" lon="2.44651">
        <ele>463.4</ele>
        <time>2014-02-22T10:31:22Z</time>
      </trkpt>
      <trkpt lat="44.38885" lon="2.44665">
        <ele>464.2</ele>
        <time>2014-02-22T10:31:27Z</time>
      </trkpt>
      <trkpt lat="44.38887" lon="2.4468">
        <ele>464.6</ele>
        <time>2014-02-22T10:31:32Z</time>
      </trkpt>
      <trkpt lat="44.38887" lon="2.44682">
        <ele>464.8</ele>
        <time>2014-02-22T10:31:33Z</time>
      </trkpt>
      <trkpt lat="44.38885" lon="2.44704">
        <ele>465.4</ele>
        <time>2014-02-22T10:31:40Z</time>
      </trkpt>
      <trkpt lat="44.38883" lon="2.44706">
        <ele>465.6</ele>
        <time>2014-02-22T10:31:41Z</time>
      </trkpt>
      <trkpt lat="44.38877" lon="2.44716">
        <ele>466.2</ele>
        <time>2014-02-22T10:31:45Z</time>
      </trkpt>
      <trkpt lat="44.38868" lon="2.44729">
        <ele>466.8</ele>
        <time>2014-02-22T10:31:51Z</time>
      </trkpt>
      <trkpt lat="44.38866" lon="2.4473">
        <ele>466.8</ele>
        <time>2014-02-22T10:31:52Z</time>
      </trkpt>
      <trkpt lat="44.38853" lon="2.44736">
        <ele>467</ele>
        <time>2014-02-22T10:31:58Z</time>
      </trkpt>
      <trkpt lat="44.38851" lon="2.44737">
        <ele>467.2</ele>
        <time>2014-02-22T10:31:59Z</time>
      </trkpt>
      <trkpt lat="44.38843" lon="2.44741">
        <ele>467.2</ele>
        <time>2014-02-22T10:32:04Z</time>
      </trkpt>
      <trkpt lat="44.38842" lon="2.44742">
        <ele>467.2</ele>
        <time>2014-02-22T10:32:05Z</time>
      </trkpt>
      <trkpt lat="44.38841" lon="2.44743">
        <ele>467.2</ele>
        <time>2014-02-22T10:32:06Z</time>
      </trkpt>
      <trkpt lat="44.38833" lon="2.44746">
        <ele>467.8</ele>
        <time>2014-02-22T10:32:11Z</time>
      </trkpt>
      <trkpt lat="44.38821" lon="2.44755">
        <ele>468.8</ele>
        <time>2014-02-22T10:32:17Z</time>
      </trkpt>
      <trkpt lat="44.38815" lon="2.4476">
        <ele>469.8</ele>
        <time>2014-02-22T10:32:21Z</time>
      </trkpt>
      <trkpt lat="44.38814" lon="2.44761">
        <ele>470</ele>
        <time>2014-02-22T10:32:22Z</time>
      </trkpt>
      <trkpt lat="44.38811" lon="2.44766">
        <ele>471</ele>
        <time>2014-02-22T10:32:25Z</time>
      </trkpt>
      <trkpt lat="44.38808" lon="2.4477">
        <ele>471.6</ele>
        <time>2014-02-22T10:32:27Z</time>
      </trkpt>
      <trkpt lat="44.38803" lon="2.44779">
        <ele>473.6</ele>
        <time>2014-02-22T10:32:33Z</time>
      </trkpt>
      <trkpt lat="44.38793" lon="2.44788">
        <ele>475.4</ele>
        <time>2014-02-22T10:32:38Z</time>
      </trkpt>
      <trkpt lat="44.38785" lon="2.44794">
        <ele>476.8</ele>
        <time>2014-02-22T10:32:42Z</time>
      </trkpt>
      <trkpt lat="44.38783" lon="2.44796">
        <ele>477</ele>
        <time>2014-02-22T10:32:43Z</time>
      </trkpt>
      <trkpt lat="44.38781" lon="2.44799">
        <ele>477.4</ele>
        <time>2014-02-22T10:32:44Z</time>
      </trkpt>
      <trkpt lat="44.3877" lon="2.44809">
        <ele>479.4</ele>
        <time>2014-02-22T10:32:49Z</time>
      </trkpt>
      <trkpt lat="44.38761" lon="2.44818">
        <ele>481.4</ele>
        <time>2014-02-22T10:32:54Z</time>
      </trkpt>
      <trkpt lat="44.3876" lon="2.44821">
        <ele>481.8</ele>
        <time>2014-02-22T10:32:55Z</time>
      </trkpt>
      <trkpt lat="44.38755" lon="2.44835">
        <ele>484</ele>
        <time>2014-02-22T10:33:01Z</time>
      </trkpt>
      <trkpt lat="44.38751" lon="2.44843">
        <ele>485.4</ele>
        <time>2014-02-22T10:33:04Z</time>
      </trkpt>
      <trkpt lat="44.38743" lon="2.44857">
        <ele>487.4</ele>
        <time>2014-02-22T10:33:11Z</time>
      </trkpt>
      <trkpt lat="44.3874" lon="2.4486">
        <ele>487.8</ele>
        <time>2014-02-22T10:33:12Z</time>
      </trkpt>
      <trkpt lat="44.38721" lon="2.44869">
        <ele>489.6</ele>
        <time>2014-02-22T10:33:20Z</time>
      </trkpt>
      <trkpt lat="44.38717" lon="2.44871">
        <ele>490.2</ele>
        <time>2014-02-22T10:33:22Z</time>
      </trkpt>
      <trkpt lat="44.38707" lon="2.44874">
        <ele>491.2</ele>
        <time>2014-02-22T10:33:26Z</time>
      </trkpt>
      <trkpt lat="44.38705" lon="2.44876">
        <ele>491.4</ele>
        <time>2014-02-22T10:33:27Z</time>
      </trkpt>
      <trkpt lat="44.38698" lon="2.44879">
        <ele>491.8</ele>
        <time>2014-02-22T10:33:30Z</time>
      </trkpt>
      <trkpt lat="44.38687" lon="2.44888">
        <ele>493.4</ele>
        <time>2014-02-22T10:33:36Z</time>
      </trkpt>
      <trkpt lat="44.38685" lon="2.4489">
        <ele>493.6</ele>
        <time>2014-02-22T10:33:37Z</time>
      </trkpt>
      <trkpt lat="44.38675" lon="2.44897">
        <ele>494.6</ele>
        <time>2014-02-22T10:33:42Z</time>
      </trkpt>
      <trkpt lat="44.38668" lon="2.44908">
        <ele>495.8</ele>
        <time>2014-02-22T10:33:47Z</time>
      </trkpt>
      <trkpt lat="44.38667" lon="2.4491">
        <ele>496</ele>
        <time>2014-02-22T10:33:48Z</time>
      </trkpt>
      <trkpt lat="44.3866" lon="2.44922">
        <ele>497.6</ele>
        <time>2014-02-22T10:33:53Z</time>
      </trkpt>
      <trkpt lat="44.38652" lon="2.44931">
        <ele>498.6</ele>
        <time>2014-02-22T10:33:58Z</time>
      </trkpt>
      <trkpt lat="44.3865" lon="2.44935">
        <ele>498.8</ele>
        <time>2014-02-22T10:34:01Z</time>
      </trkpt>
      <trkpt lat="44.38649" lon="2.44936">
        <ele>499</ele>
        <time>2014-02-22T10:34:02Z</time>
      </trkpt>
      <trkpt lat="44.38646" lon="2.44939">
        <ele>499.2</ele>
        <time>2014-02-22T10:34:04Z</time>
      </trkpt>
      <trkpt lat="44.38643" lon="2.44946">
        <ele>500.2</ele>
        <time>2014-02-22T10:34:09Z</time>
      </trkpt>
      <trkpt lat="44.3864" lon="2.44957">
        <ele>501</ele>
        <time>2014-02-22T10:34:16Z</time>
      </trkpt>
      <trkpt lat="44.3864" lon="2.44958">
        <ele>501.2</ele>
        <time>2014-02-22T10:34:17Z</time>
      </trkpt>
      <trkpt lat="44.38637" lon="2.44965">
        <ele>501.4</ele>
        <time>2014-02-22T10:34:22Z</time>
      </trkpt>
      <trkpt lat="44.38633" lon="2.44973">
        <ele>501.6</ele>
        <time>2014-02-22T10:34:27Z</time>
      </trkpt>
      <trkpt lat="44.38633" lon="2.44976">
        <ele>501.8</ele>
        <time>2014-02-22T10:34:30Z</time>
      </trkpt>
      <trkpt lat="44.38627" lon="2.4499">
        <ele>501.8</ele>
        <time>2014-02-22T10:34:37Z</time>
      </trkpt>
      <trkpt lat="44.38624" lon="2.44995">
        <ele>501.8</ele>
        <time>2014-02-22T10:34:40Z</time>
      </trkpt>
      <trkpt lat="44.38619" lon="2.45002">
        <ele>501.8</ele>
        <time>2014-02-22T10:34:45Z</time>
      </trkpt>
      <trkpt lat="44.38615" lon="2.45012">
        <ele>502</ele>
        <time>2014-02-22T10:34:51Z</time>
      </trkpt>
      <trkpt lat="44.3861" lon="2.4502">
        <ele>502.4</ele>
        <time>2014-02-22T10:34:55Z</time>
      </trkpt>
      <trkpt lat="44.38607" lon="2.45031">
        <ele>503</ele>
        <time>2014-02-22T10:35:00Z</time>
      </trkpt>
      <trkpt lat="44.38606" lon="2.4504">
        <ele>503.4</ele>
        <time>2014-02-22T10:35:04Z</time>
      </trkpt>
      <trkpt lat="44.38599" lon="2.45056">
        <ele>503.6</ele>
        <time>2014-02-22T10:35:10Z</time>
      </trkpt>
      <trkpt lat="44.38591" lon="2.45066">
        <ele>503.8</ele>
        <time>2014-02-22T10:35:15Z</time>
      </trkpt>
      <trkpt lat="44.38581" lon="2.45076">
        <ele>503.8</ele>
        <time>2014-02-22T10:35:21Z</time>
      </trkpt>
      <trkpt lat="44.3857" lon="2.45084">
        <ele>504.2</ele>
        <time>2014-02-22T10:35:27Z</time>
      </trkpt>
      <trkpt lat="44.38559" lon="2.4509">
        <ele>505</ele>
        <time>2014-02-22T10:35:33Z</time>
      </trkpt>
      <trkpt lat="44.38551" lon="2.45101">
        <ele>505.6</ele>
        <time>2014-02-22T10:35:39Z</time>
      </trkpt>
      <trkpt lat="44.3855" lon="2.45103">
        <ele>505.6</ele>
        <time>2014-02-22T10:35:40Z</time>
      </trkpt>
      <trkpt lat="44.38546" lon="2.45112">
        <ele>505.8</ele>
        <time>2014-02-22T10:35:44Z</time>
      </trkpt>
      <trkpt lat="44.38547" lon="2.45118">
        <ele>505.8</ele>
        <time>2014-02-22T10:35:46Z</time>
      </trkpt>
      <trkpt lat="44.38549" lon="2.45127">
        <ele>506.2</ele>
        <time>2014-02-22T10:35:50Z</time>
      </trkpt>
      <trkpt lat="44.3855" lon="2.45131">
        <ele>506.4</ele>
        <time>2014-02-22T10:35:52Z</time>
      </trkpt>
      <trkpt lat="44.38552" lon="2.45139">
        <ele>507</ele>
        <time>2014-02-22T10:35:55Z</time>
      </trkpt>
      <trkpt lat="44.38552" lon="2.45145">
        <ele>507.2</ele>
        <time>2014-02-22T10:35:57Z</time>
      </trkpt>
      <trkpt lat="44.38551" lon="2.45158">
        <ele>507.6</ele>
        <time>2014-02-22T10:36:02Z</time>
      </trkpt>
      <trkpt lat="44.3855" lon="2.45169">
        <ele>507.8</ele>
        <time>2014-02-22T10:36:06Z</time>
      </trkpt>
      <trkpt lat="44.3855" lon="2.45171">
        <ele>507.8</ele>
        <time>2014-02-22T10:36:07Z</time>
      </trkpt>
      <trkpt lat="44.38551" lon="2.45184">
        <ele>508.8</ele>
        <time>2014-02-22T10:36:12Z</time>
      </trkpt>
      <trkpt lat="44.38552" lon="2.45185">
        <ele>509</ele>
        <time>2014-02-22T10:36:13Z</time>
      </trkpt>
      <trkpt lat="44.38551" lon="2.45192">
        <ele>509.2</ele>
        <time>2014-02-22T10:36:16Z</time>
      </trkpt>
      <trkpt lat="44.38551" lon="2.45195">
        <ele>509.6</ele>
        <time>2014-02-22T10:36:22Z</time>
      </trkpt>
      <trkpt lat="44.38552" lon="2.45201">
        <ele>509.8</ele>
        <time>2014-02-22T10:36:27Z</time>
      </trkpt>
      <trkpt lat="44.3855" lon="2.45209">
        <ele>510</ele>
        <time>2014-02-22T10:36:31Z</time>
      </trkpt>
      <trkpt lat="44.38545" lon="2.45218">
        <ele>510</ele>
        <time>2014-02-22T10:36:37Z</time>
      </trkpt>
      <trkpt lat="44.38541" lon="2.45226">
        <ele>510.2</ele>
        <time>2014-02-22T10:36:41Z</time>
      </trkpt>
      <trkpt lat="44.38535" lon="2.45237">
        <ele>510.2</ele>
        <time>2014-02-22T10:36:45Z</time>
      </trkpt>
      <trkpt lat="44.38529" lon="2.45252">
        <ele>511</ele>
        <time>2014-02-22T10:36:51Z</time>
      </trkpt>
      <trkpt lat="44.38528" lon="2.45257">
        <ele>511.2</ele>
        <time>2014-02-22T10:36:53Z</time>
      </trkpt>
      <trkpt lat="44.38526" lon="2.45265">
        <ele>511.6</ele>
        <time>2014-02-22T10:36:56Z</time>
      </trkpt>
      <trkpt lat="44.38518" lon="2.45281">
        <ele>512</ele>
        <time>2014-02-22T10:37:03Z</time>
      </trkpt>
      <trkpt lat="44.38518" lon="2.45283">
        <ele>512</ele>
        <time>2014-02-22T10:37:04Z</time>
      </trkpt>
      <trkpt lat="44.38514" lon="2.45299">
        <ele>513.2</ele>
        <time>2014-02-22T10:37:10Z</time>
      </trkpt>
      <trkpt lat="44.38513" lon="2.45309">
        <ele>513.8</ele>
        <time>2014-02-22T10:37:15Z</time>
      </trkpt>
      <trkpt lat="44.38508" lon="2.45323">
        <ele>514.6</ele>
        <time>2014-02-22T10:37:20Z</time>
      </trkpt>
      <trkpt lat="44.38506" lon="2.45329">
        <ele>515.2</ele>
        <time>2014-02-22T10:37:23Z</time>
      </trkpt>
      <trkpt lat="44.38504" lon="2.45334">
        <ele>515.4</ele>
        <time>2014-02-22T10:37:25Z</time>
      </trkpt>
      <trkpt lat="44.38501" lon="2.45341">
        <ele>516.2</ele>
        <time>2014-02-22T10:37:28Z</time>
      </trkpt>
      <trkpt lat="44.38499" lon="2.45352">
        <ele>517</ele>
        <time>2014-02-22T10:37:32Z</time>
      </trkpt>
      <trkpt lat="44.38499" lon="2.45355">
        <ele>517.2</ele>
        <time>2014-02-22T10:37:33Z</time>
      </trkpt>
      <trkpt lat="44.38497" lon="2.45363">
        <ele>517.6</ele>
        <time>2014-02-22T10:37:36Z</time>
      </trkpt>
      <trkpt lat="44.38492" lon="2.45374">
        <ele>518.4</ele>
        <time>2014-02-22T10:37:40Z</time>
      </trkpt>
      <trkpt lat="44.3849" lon="2.45379">
        <ele>518.8</ele>
        <time>2014-02-22T10:37:42Z</time>
      </trkpt>
      <trkpt lat="44.38488" lon="2.45385">
        <ele>519.2</ele>
        <time>2014-02-22T10:37:44Z</time>
      </trkpt>
      <trkpt lat="44.38484" lon="2.45398">
        <ele>520</ele>
        <time>2014-02-22T10:37:49Z</time>
      </trkpt>
      <trkpt lat="44.38482" lon="2.4541">
        <ele>521.2</ele>
        <time>2014-02-22T10:37:54Z</time>
      </trkpt>
      <trkpt lat="44.38479" lon="2.4542">
        <ele>521.6</ele>
        <time>2014-02-22T10:37:58Z</time>
      </trkpt>
      <trkpt lat="44.38475" lon="2.45434">
        <ele>523</ele>
        <time>2014-02-22T10:38:03Z</time>
      </trkpt>
      <trkpt lat="44.38473" lon="2.45446">
        <ele>523.8</ele>
        <time>2014-02-22T10:38:08Z</time>
      </trkpt>
      <trkpt lat="44.38471" lon="2.45459">
        <ele>524.8</ele>
        <time>2014-02-22T10:38:13Z</time>
      </trkpt>
      <trkpt lat="44.3847" lon="2.45465">
        <ele>525.2</ele>
        <time>2014-02-22T10:38:15Z</time>
      </trkpt>
      <trkpt lat="44.38468" lon="2.4547">
        <ele>525.6</ele>
        <time>2014-02-22T10:38:17Z</time>
      </trkpt>
      <trkpt lat="44.38467" lon="2.4548">
        <ele>526.4</ele>
        <time>2014-02-22T10:38:21Z</time>
      </trkpt>
      <trkpt lat="44.38467" lon="2.45488">
        <ele>527.2</ele>
        <time>2014-02-22T10:38:24Z</time>
      </trkpt>
      <trkpt lat="44.38465" lon="2.45499">
        <ele>527.8</ele>
        <time>2014-02-22T10:38:28Z</time>
      </trkpt>
      <trkpt lat="44.38463" lon="2.45504">
        <ele>528</ele>
        <time>2014-02-22T10:38:30Z</time>
      </trkpt>
      <trkpt lat="44.38465" lon="2.45512">
        <ele>529</ele>
        <time>2014-02-22T10:38:33Z</time>
      </trkpt>
      <trkpt lat="44.38471" lon="2.45523">
        <ele>529.6</ele>
        <time>2014-02-22T10:38:37Z</time>
      </trkpt>
      <trkpt lat="44.38474" lon="2.45534">
        <ele>530.8</ele>
        <time>2014-02-22T10:38:41Z</time>
      </trkpt>
      <trkpt lat="44.38481" lon="2.45549">
        <ele>531.8</ele>
        <time>2014-02-22T10:38:46Z</time>
      </trkpt>
      <trkpt lat="44.38482" lon="2.45552">
        <ele>532</ele>
        <time>2014-02-22T10:38:47Z</time>
      </trkpt>
      <trkpt lat="44.38484" lon="2.45565">
        <ele>533.2</ele>
        <time>2014-02-22T10:38:52Z</time>
      </trkpt>
      <trkpt lat="44.38485" lon="2.45579">
        <ele>534.4</ele>
        <time>2014-02-22T10:39:00Z</time>
      </trkpt>
      <trkpt lat="44.38482" lon="2.45585">
        <ele>534.8</ele>
        <time>2014-02-22T10:39:03Z</time>
      </trkpt>
      <trkpt lat="44.3848" lon="2.45591">
        <ele>535</ele>
        <time>2014-02-22T10:39:08Z</time>
      </trkpt>
      <trkpt lat="44.38479" lon="2.45592">
        <ele>535</ele>
        <time>2014-02-22T10:39:09Z</time>
      </trkpt>
      <trkpt lat="44.38478" lon="2.45593">
        <ele>535</ele>
        <time>2014-02-22T10:39:10Z</time>
      </trkpt>
      <trkpt lat="44.38473" lon="2.45597">
        <ele>535.2</ele>
        <time>2014-02-22T10:39:14Z</time>
      </trkpt>
      <trkpt lat="44.38472" lon="2.45599">
        <ele>535.2</ele>
        <time>2014-02-22T10:39:16Z</time>
      </trkpt>
      <trkpt lat="44.38467" lon="2.45607">
        <ele>535.4</ele>
        <time>2014-02-22T10:39:23Z</time>
      </trkpt>
      <trkpt lat="44.38464" lon="2.4561">
        <ele>535.4</ele>
        <time>2014-02-22T10:39:25Z</time>
      </trkpt>
      <trkpt lat="44.38457" lon="2.45615">
        <ele>535.4</ele>
        <time>2014-02-22T10:39:31Z</time>
      </trkpt>
      <trkpt lat="44.38456" lon="2.45615">
        <ele>535.4</ele>
        <time>2014-02-22T10:39:32Z</time>
      </trkpt>
      <trkpt lat="44.38449" lon="2.45617">
        <ele>535.4</ele>
        <time>2014-02-22T10:39:38Z</time>
      </trkpt>
      <trkpt lat="44.38443" lon="2.45618">
        <ele>535.4</ele>
        <time>2014-02-22T10:39:42Z</time>
      </trkpt>
      <trkpt lat="44.38431" lon="2.45621">
        <ele>535.4</ele>
        <time>2014-02-22T10:39:49Z</time>
      </trkpt>
      <trkpt lat="44.38422" lon="2.45623">
        <ele>535.4</ele>
        <time>2014-02-22T10:39:54Z</time>
      </trkpt>
      <trkpt lat="44.3842" lon="2.45624">
        <ele>535.4</ele>
        <time>2014-02-22T10:39:55Z</time>
      </trkpt>
      <trkpt lat="44.3841" lon="2.45628">
        <ele>535.4</ele>
        <time>2014-02-22T10:40:00Z</time>
      </trkpt>
      <trkpt lat="44.38401" lon="2.45634">
        <ele>536.2</ele>
        <time>2014-02-22T10:40:05Z</time>
      </trkpt>
      <trkpt lat="44.38396" lon="2.45638">
        <ele>536.6</ele>
        <time>2014-02-22T10:40:09Z</time>
      </trkpt>
      <trkpt lat="44.38394" lon="2.45641">
        <ele>537</ele>
        <time>2014-02-22T10:40:10Z</time>
      </trkpt>
      <trkpt lat="44.38392" lon="2.45644">
        <ele>537.4</ele>
        <time>2014-02-22T10:40:12Z</time>
      </trkpt>
      <trkpt lat="44.38386" lon="2.45656">
        <ele>538.4</ele>
        <time>2014-02-22T10:40:17Z</time>
      </trkpt>
      <trkpt lat="44.38381" lon="2.45667">
        <ele>539.8</ele>
        <time>2014-02-22T10:40:22Z</time>
      </trkpt>
      <trkpt lat="44.38375" lon="2.45677">
        <ele>541</ele>
        <time>2014-02-22T10:40:26Z</time>
      </trkpt>
      <trkpt lat="44.38374" lon="2.4568">
        <ele>541.2</ele>
        <time>2014-02-22T10:40:27Z</time>
      </trkpt>
      <trkpt lat="44.38371" lon="2.45687">
        <ele>542.2</ele>
        <time>2014-02-22T10:40:30Z</time>
      </trkpt>
      <trkpt lat="44.38366" lon="2.45696">
        <ele>543.6</ele>
        <time>2014-02-22T10:40:35Z</time>
      </trkpt>
      <trkpt lat="44.38361" lon="2.45704">
        <ele>544.4</ele>
        <time>2014-02-22T10:40:39Z</time>
      </trkpt>
      <trkpt lat="44.38357" lon="2.45714">
        <ele>545</ele>
        <time>2014-02-22T10:40:43Z</time>
      </trkpt>
      <trkpt lat="44.38358" lon="2.45727">
        <ele>546.2</ele>
        <time>2014-02-22T10:40:48Z</time>
      </trkpt>
      <trkpt lat="44.38358" lon="2.45729">
        <ele>546.4</ele>
        <time>2014-02-22T10:40:49Z</time>
      </trkpt>
      <trkpt lat="44.38359" lon="2.45735">
        <ele>546.6</ele>
        <time>2014-02-22T10:40:51Z</time>
      </trkpt>
      <trkpt lat="44.38359" lon="2.45744">
        <ele>547</ele>
        <time>2014-02-22T10:40:55Z</time>
      </trkpt>
      <trkpt lat="44.38363" lon="2.45752">
        <ele>547.4</ele>
        <time>2014-02-22T10:41:00Z</time>
      </trkpt>
      <trkpt lat="44.38364" lon="2.45753">
        <ele>547.6</ele>
        <time>2014-02-22T10:41:01Z</time>
      </trkpt>
      <trkpt lat="44.38366" lon="2.45755">
        <ele>548</ele>
        <time>2014-02-22T10:41:03Z</time>
      </trkpt>
      <trkpt lat="44.38372" lon="2.45764">
        <ele>548.8</ele>
        <time>2014-02-22T10:41:08Z</time>
      </trkpt>
      <trkpt lat="44.38374" lon="2.45767">
        <ele>549</ele>
        <time>2014-02-22T10:41:09Z</time>
      </trkpt>
      <trkpt lat="44.38377" lon="2.45773">
        <ele>549.4</ele>
        <time>2014-02-22T10:41:13Z</time>
      </trkpt>
      <trkpt lat="44.38377" lon="2.45777">
        <ele>550</ele>
        <time>2014-02-22T10:41:15Z</time>
      </trkpt>
      <trkpt lat="44.38383" lon="2.45793">
        <ele>551.6</ele>
        <time>2014-02-22T10:41:24Z</time>
      </trkpt>
      <trkpt lat="44.38383" lon="2.45795">
        <ele>551.8</ele>
        <time>2014-02-22T10:41:25Z</time>
      </trkpt>
      <trkpt lat="44.38388" lon="2.45802">
        <ele>552.6</ele>
        <time>2014-02-22T10:41:29Z</time>
      </trkpt>
      <trkpt lat="44.38389" lon="2.45803">
        <ele>552.8</ele>
        <time>2014-02-22T10:41:30Z</time>
      </trkpt>
      <trkpt lat="44.38397" lon="2.45815">
        <ele>554.2</ele>
        <time>2014-02-22T10:41:36Z</time>
      </trkpt>
      <trkpt lat="44.38397" lon="2.4582">
        <ele>554.6</ele>
        <time>2014-02-22T10:41:38Z</time>
      </trkpt>
      <trkpt lat="44.38403" lon="2.45831">
        <ele>555.4</ele>
        <time>2014-02-22T10:41:44Z</time>
      </trkpt>
      <trkpt lat="44.38405" lon="2.45837">
        <ele>556.2</ele>
        <time>2014-02-22T10:41:47Z</time>
      </trkpt>
      <trkpt lat="44.38409" lon="2.45848">
        <ele>557</ele>
        <time>2014-02-22T10:41:52Z</time>
      </trkpt>
      <trkpt lat="44.3841" lon="2.4585">
        <ele>557.2</ele>
        <time>2014-02-22T10:41:53Z</time>
      </trkpt>
      <trkpt lat="44.38411" lon="2.45853">
        <ele>557.2</ele>
        <time>2014-02-22T10:41:54Z</time>
      </trkpt>
      <trkpt lat="44.38413" lon="2.45856">
        <ele>557.4</ele>
        <time>2014-02-22T10:41:56Z</time>
      </trkpt>
      <trkpt lat="44.38417" lon="2.45868">
        <ele>557.8</ele>
        <time>2014-02-22T10:42:01Z</time>
      </trkpt>
      <trkpt lat="44.38423" lon="2.45878">
        <ele>558</ele>
        <time>2014-02-22T10:42:06Z</time>
      </trkpt>
      <trkpt lat="44.38423" lon="2.45888">
        <ele>558.4</ele>
        <time>2014-02-22T10:42:10Z</time>
      </trkpt>
      <trkpt lat="44.38416" lon="2.45887">
        <ele>559.2</ele>
        <time>2014-02-22T10:42:14Z</time>
      </trkpt>
      <trkpt lat="44.38413" lon="2.45886">
        <ele>559.2</ele>
        <time>2014-02-22T10:42:15Z</time>
      </trkpt>
      <trkpt lat="44.38412" lon="2.45884">
        <ele>559.4</ele>
        <time>2014-02-22T10:42:16Z</time>
      </trkpt>
      <trkpt lat="44.38406" lon="2.45873">
        <ele>559.8</ele>
        <time>2014-02-22T10:42:22Z</time>
      </trkpt>
      <trkpt lat="44.38401" lon="2.45868">
        <ele>560</ele>
        <time>2014-02-22T10:42:26Z</time>
      </trkpt>
      <trkpt lat="44.38392" lon="2.45859">
        <ele>560.2</ele>
        <time>2014-02-22T10:42:34Z</time>
      </trkpt>
      <trkpt lat="44.38383" lon="2.45852">
        <ele>560.2</ele>
        <time>2014-02-22T10:42:41Z</time>
      </trkpt>
      <trkpt lat="44.38375" lon="2.45845">
        <ele>560.2</ele>
        <time>2014-02-22T10:42:48Z</time>
      </trkpt>
      <trkpt lat="44.38368" lon="2.45839">
        <ele>560.4</ele>
        <time>2014-02-22T10:42:54Z</time>
      </trkpt>
      <trkpt lat="44.3836" lon="2.45834">
        <ele>560.6</ele>
        <time>2014-02-22T10:43:01Z</time>
      </trkpt>
      <trkpt lat="44.38352" lon="2.45827">
        <ele>561.4</ele>
        <time>2014-02-22T10:43:07Z</time>
      </trkpt>
      <trkpt lat="44.38345" lon="2.45822">
        <ele>561.8</ele>
        <time>2014-02-22T10:43:13Z</time>
      </trkpt>
      <trkpt lat="44.38339" lon="2.45817">
        <ele>562</ele>
        <time>2014-02-22T10:43:18Z</time>
      </trkpt>
      <trkpt lat="44.3833" lon="2.45809">
        <ele>562.2</ele>
        <time>2014-02-22T10:43:26Z</time>
      </trkpt>
      <trkpt lat="44.38322" lon="2.45801">
        <ele>562.4</ele>
        <time>2014-02-22T10:43:34Z</time>
      </trkpt>
      <trkpt lat="44.38314" lon="2.4579">
        <ele>562.4</ele>
        <time>2014-02-22T10:43:43Z</time>
      </trkpt>
      <trkpt lat="44.38306" lon="2.4578">
        <ele>563.2</ele>
        <time>2014-02-22T10:43:51Z</time>
      </trkpt>
      <trkpt lat="44.38302" lon="2.45775">
        <ele>563.6</ele>
        <time>2014-02-22T10:43:55Z</time>
      </trkpt>
      <trkpt lat="44.38293" lon="2.45771">
        <ele>564</ele>
        <time>2014-02-22T10:44:02Z</time>
      </trkpt>
      <trkpt lat="44.38292" lon="2.4577">
        <ele>564.2</ele>
        <time>2014-02-22T10:44:03Z</time>
      </trkpt>
      <trkpt lat="44.38287" lon="2.45767">
        <ele>565.4</ele>
        <time>2014-02-22T10:44:09Z</time>
      </trkpt>
      <trkpt lat="44.38286" lon="2.45766">
        <ele>565.4</ele>
        <time>2014-02-22T10:44:10Z</time>
      </trkpt>
      <trkpt lat="44.38287" lon="2.45762">
        <ele>566.2</ele>
        <time>2014-02-22T10:44:20Z</time>
      </trkpt>
      <trkpt lat="44.38288" lon="2.45762">
        <ele>566.4</ele>
        <time>2014-02-22T10:44:27Z</time>
      </trkpt>
      <trkpt lat="44.38287" lon="2.45762">
        <ele>566.4</ele>
        <time>2014-02-22T10:44:33Z</time>
      </trkpt>
      <trkpt lat="44.38286" lon="2.45762">
        <ele>566.6</ele>
        <time>2014-02-22T10:44:36Z</time>
      </trkpt>
      <trkpt lat="44.38287" lon="2.45762">
        <ele>567</ele>
        <time>2014-02-22T10:44:47Z</time>
      </trkpt>
      <trkpt lat="44.38288" lon="2.4576">
        <ele>568</ele>
        <time>2014-02-22T10:44:58Z</time>
      </trkpt>
      <trkpt lat="44.38288" lon="2.4576">
        <ele>568.8</ele>
        <time>2014-02-22T10:45:09Z</time>
      </trkpt>
      <trkpt lat="44.38288" lon="2.4576">
        <ele>569.2</ele>
        <time>2014-02-22T10:45:11Z</time>
      </trkpt>
      <trkpt lat="44.3829" lon="2.4576">
        <ele>569.8</ele>
        <time>2014-02-22T10:45:16Z</time>
      </trkpt>
      <trkpt lat="44.38289" lon="2.4576">
        <ele>570.2</ele>
        <time>2014-02-22T10:45:21Z</time>
      </trkpt>
      <trkpt lat="44.38287" lon="2.45759">
        <ele>572.2</ele>
        <time>2014-02-22T10:45:38Z</time>
      </trkpt>
      <trkpt lat="44.38289" lon="2.45762">
        <ele>573.4</ele>
        <time>2014-02-22T10:45:47Z</time>
      </trkpt>
      <trkpt lat="44.38302" lon="2.45775">
        <ele>574</ele>
        <time>2014-02-22T10:45:52Z</time>
      </trkpt>
      <trkpt lat="44.38317" lon="2.45795">
        <ele>574.2</ele>
        <time>2014-02-22T10:45:56Z</time>
      </trkpt>
      <trkpt lat="44.38331" lon="2.45813">
        <ele>574.4</ele>
        <time>2014-02-22T10:45:59Z</time>
      </trkpt>
      <trkpt lat="44.38337" lon="2.45818">
        <ele>574.4</ele>
        <time>2014-02-22T10:46:00Z</time>
      </trkpt>
      <trkpt lat="44.38357" lon="2.45831">
        <ele>574.6</ele>
        <time>2014-02-22T10:46:03Z</time>
      </trkpt>
      <trkpt lat="44.38375" lon="2.45848">
        <ele>574.6</ele>
        <time>2014-02-22T10:46:06Z</time>
      </trkpt>
      <trkpt lat="44.3839" lon="2.4587">
        <ele>574.6</ele>
        <time>2014-02-22T10:46:09Z</time>
      </trkpt>
      <trkpt lat="44.38394" lon="2.45877">
        <ele>574.6</ele>
        <time>2014-02-22T10:46:10Z</time>
      </trkpt>
      <trkpt lat="44.38396" lon="2.45881">
        <ele>574.6</ele>
        <time>2014-02-22T10:46:11Z</time>
      </trkpt>
      <trkpt lat="44.38406" lon="2.45895">
        <ele>574.2</ele>
        <time>2014-02-22T10:46:14Z</time>
      </trkpt>
      <trkpt lat="44.38409" lon="2.45888">
        <ele>573.8</ele>
        <time>2014-02-22T10:46:17Z</time>
      </trkpt>
      <trkpt lat="44.38406" lon="2.45881">
        <ele>573.6</ele>
        <time>2014-02-22T10:46:19Z</time>
      </trkpt>
      <trkpt lat="44.38394" lon="2.45854">
        <ele>572.4</ele>
        <time>2014-02-22T10:46:24Z</time>
      </trkpt>
      <trkpt lat="44.38385" lon="2.4583">
        <ele>572</ele>
        <time>2014-02-22T10:46:27Z</time>
      </trkpt>
      <trkpt lat="44.38374" lon="2.45804">
        <ele>571.6</ele>
        <time>2014-02-22T10:46:30Z</time>
      </trkpt>
      <trkpt lat="44.38365" lon="2.45781">
        <ele>570.8</ele>
        <time>2014-02-22T10:46:33Z</time>
      </trkpt>
      <trkpt lat="44.38361" lon="2.45767">
        <ele>570.6</ele>
        <time>2014-02-22T10:46:34Z</time>
      </trkpt>
      <trkpt lat="44.38354" lon="2.45743">
        <ele>570</ele>
        <time>2014-02-22T10:46:37Z</time>
      </trkpt>
      <trkpt lat="44.38354" lon="2.45711">
        <ele>569.6</ele>
        <time>2014-02-22T10:46:40Z</time>
      </trkpt>
      <trkpt lat="44.38363" lon="2.45695">
        <ele>569</ele>
        <time>2014-02-22T10:46:42Z</time>
      </trkpt>
      <trkpt lat="44.38382" lon="2.45659">
        <ele>568</ele>
        <time>2014-02-22T10:46:46Z</time>
      </trkpt>
      <trkpt lat="44.38387" lon="2.45651">
        <ele>567.6</ele>
        <time>2014-02-22T10:46:47Z</time>
      </trkpt>
      <trkpt lat="44.38417" lon="2.45631">
        <ele>566.4</ele>
        <time>2014-02-22T10:46:51Z</time>
      </trkpt>
      <trkpt lat="44.38426" lon="2.45629">
        <ele>566.2</ele>
        <time>2014-02-22T10:46:52Z</time>
      </trkpt>
      <trkpt lat="44.38451" lon="2.45624">
        <ele>565</ele>
        <time>2014-02-22T10:46:55Z</time>
      </trkpt>
      <trkpt lat="44.38472" lon="2.45596">
        <ele>563.8</ele>
        <time>2014-02-22T10:47:00Z</time>
      </trkpt>
      <trkpt lat="44.38475" lon="2.45566">
        <ele>562.8</ele>
        <time>2014-02-22T10:47:02Z</time>
      </trkpt>
      <trkpt lat="44.38471" lon="2.4554">
        <ele>561.8</ele>
        <time>2014-02-22T10:47:05Z</time>
      </trkpt>
      <trkpt lat="44.38466" lon="2.45528">
        <ele>561.4</ele>
        <time>2014-02-22T10:47:06Z</time>
      </trkpt>
      <trkpt lat="44.3846" lon="2.45511">
        <ele>560.8</ele>
        <time>2014-02-22T10:47:08Z</time>
      </trkpt>
      <trkpt lat="44.38457" lon="2.4548">
        <ele>559</ele>
        <time>2014-02-22T10:47:12Z</time>
      </trkpt>
      <trkpt lat="44.38463" lon="2.4547">
        <ele>558.2</ele>
        <time>2014-02-22T10:47:14Z</time>
      </trkpt>
      <trkpt lat="44.38463" lon="2.4547">
        <ele>557.6</ele>
        <time>2014-02-22T10:47:15Z</time>
      </trkpt>
      <trkpt lat="44.38463" lon="2.45469">
        <ele>554.4</ele>
        <time>2014-02-22T10:47:23Z</time>
      </trkpt>
      <trkpt lat="44.38463" lon="2.45465">
        <ele>552.8</ele>
        <time>2014-02-22T10:47:29Z</time>
      </trkpt>
      <trkpt lat="44.38465" lon="2.45464">
        <ele>552.2</ele>
        <time>2014-02-22T10:47:34Z</time>
      </trkpt>
      <trkpt lat="44.38463" lon="2.45459">
        <ele>551.2</ele>
        <time>2014-02-22T10:48:11Z</time>
      </trkpt>
      <trkpt lat="44.38462" lon="2.45456">
        <ele>551.4</ele>
        <time>2014-02-22T10:48:23Z</time>
      </trkpt>
      <trkpt lat="44.38464" lon="2.45454">
        <ele>552.6</ele>
        <time>2014-02-22T10:48:34Z</time>
      </trkpt>
      <trkpt lat="44.38465" lon="2.45454">
        <ele>552.8</ele>
        <time>2014-02-22T10:48:37Z</time>
      </trkpt>
      <trkpt lat="44.38466" lon="2.45457">
        <ele>549.6</ele>
        <time>2014-02-22T10:48:56Z</time>
      </trkpt>
      <trkpt lat="44.38467" lon="2.4546">
        <ele>547.8</ele>
        <time>2014-02-22T10:49:06Z</time>
      </trkpt>
      <trkpt lat="44.38467" lon="2.4546">
        <ele>543.4</ele>
        <time>2014-02-22T10:49:26Z</time>
      </trkpt>
      <trkpt lat="44.38468" lon="2.45463">
        <ele>541</ele>
        <time>2014-02-22T10:49:41Z</time>
      </trkpt>
      <trkpt lat="44.38471" lon="2.45472">
        <ele>540.4</ele>
        <time>2014-02-22T10:50:10Z</time>
      </trkpt>
      <trkpt lat="44.38471" lon="2.45473">
        <ele>540.4</ele>
        <time>2014-02-22T10:50:11Z</time>
      </trkpt>
      <trkpt lat="44.38469" lon="2.4548">
        <ele>540.4</ele>
        <time>2014-02-22T10:50:18Z</time>
      </trkpt>
      <trkpt lat="44.38469" lon="2.45481">
        <ele>540.4</ele>
        <time>2014-02-22T10:50:19Z</time>
      </trkpt>
      <trkpt lat="44.38471" lon="2.45485">
        <ele>540</ele>
        <time>2014-02-22T10:50:25Z</time>
      </trkpt>
      <trkpt lat="44.38474" lon="2.45488">
        <ele>539.6</ele>
        <time>2014-02-22T10:50:28Z</time>
      </trkpt>
      <trkpt lat="44.38476" lon="2.45496">
        <ele>539.2</ele>
        <time>2014-02-22T10:50:33Z</time>
      </trkpt>
      <trkpt lat="44.38475" lon="2.45496">
        <ele>539</ele>
        <time>2014-02-22T10:50:35Z</time>
      </trkpt>
      <trkpt lat="44.38471" lon="2.45501">
        <ele>537.6</ele>
        <time>2014-02-22T10:50:46Z</time>
      </trkpt>
      <trkpt lat="44.38476" lon="2.45493">
        <ele>535.8</ele>
        <time>2014-02-22T10:51:19Z</time>
      </trkpt>
      <trkpt lat="44.38478" lon="2.45495">
        <ele>537</ele>
        <time>2014-02-22T10:51:24Z</time>
      </trkpt>
      <trkpt lat="44.38478" lon="2.45497">
        <ele>537.6</ele>
        <time>2014-02-22T10:51:29Z</time>
      </trkpt>
      <trkpt lat="44.38481" lon="2.45503">
        <ele>538.4</ele>
        <time>2014-02-22T10:51:46Z</time>
      </trkpt>
      <trkpt lat="44.38481" lon="2.45503">
        <ele>538.6</ele>
        <time>2014-02-22T10:51:56Z</time>
      </trkpt>
      <trkpt lat="44.3848" lon="2.45505">
        <ele>537.8</ele>
        <time>2014-02-22T10:52:07Z</time>
      </trkpt>
      <trkpt lat="44.38481" lon="2.45506">
        <ele>536.4</ele>
        <time>2014-02-22T10:52:16Z</time>
      </trkpt>
      <trkpt lat="44.38482" lon="2.45507">
        <ele>536.2</ele>
        <time>2014-02-22T10:52:17Z</time>
      </trkpt>
      <trkpt lat="44.38485" lon="2.45518">
        <ele>535.6</ele>
        <time>2014-02-22T10:52:21Z</time>
      </trkpt>
      <trkpt lat="44.38483" lon="2.45521">
        <ele>535.4</ele>
        <time>2014-02-22T10:52:23Z</time>
      </trkpt>
      <trkpt lat="44.38483" lon="2.4552">
        <ele>535.2</ele>
        <time>2014-02-22T10:52:24Z</time>
      </trkpt>
      <trkpt lat="44.38482" lon="2.45516">
        <ele>535.2</ele>
        <time>2014-02-22T10:52:26Z</time>
      </trkpt>
      <trkpt lat="44.38481" lon="2.45512">
        <ele>535</ele>
        <time>2014-02-22T10:52:28Z</time>
      </trkpt>
      <trkpt lat="44.3848" lon="2.4551">
        <ele>535</ele>
        <time>2014-02-22T10:52:30Z</time>
      </trkpt>
      <trkpt lat="44.38478" lon="2.45508">
        <ele>534.8</ele>
        <time>2014-02-22T10:52:34Z</time>
      </trkpt>
      <trkpt lat="44.38478" lon="2.4551">
        <ele>533.4</ele>
        <time>2014-02-22T10:52:48Z</time>
      </trkpt>
      <trkpt lat="44.38479" lon="2.45511">
        <ele>533</ele>
        <time>2014-02-22T10:52:50Z</time>
      </trkpt>
      <trkpt lat="44.38479" lon="2.45512">
        <ele>532.2</ele>
        <time>2014-02-22T10:52:53Z</time>
      </trkpt>
      <trkpt lat="44.3848" lon="2.45513">
        <ele>531.6</ele>
        <time>2014-02-22T10:52:57Z</time>
      </trkpt>
      <trkpt lat="44.3848" lon="2.45513">
        <ele>530</ele>
        <time>2014-02-22T10:53:05Z</time>
      </trkpt>
      <trkpt lat="44.3848" lon="2.45514">
        <ele>529</ele>
        <time>2014-02-22T10:53:15Z</time>
      </trkpt>
      <trkpt lat="44.38483" lon="2.4552">
        <ele>527.8</ele>
        <time>2014-02-22T10:53:20Z</time>
      </trkpt>
      <trkpt lat="44.38483" lon="2.45518">
        <ele>527.6</ele>
        <time>2014-02-22T10:53:21Z</time>
      </trkpt>
      <trkpt lat="44.38482" lon="2.45516">
        <ele>527.4</ele>
        <time>2014-02-22T10:53:24Z</time>
      </trkpt>
      <trkpt lat="44.38482" lon="2.45515">
        <ele>527.2</ele>
        <time>2014-02-22T10:53:26Z</time>
      </trkpt>
      <trkpt lat="44.38481" lon="2.45514">
        <ele>527</ele>
        <time>2014-02-22T10:53:28Z</time>
      </trkpt>
      <trkpt lat="44.3848" lon="2.45511">
        <ele>526.8</ele>
        <time>2014-02-22T10:53:31Z</time>
      </trkpt>
      <trkpt lat="44.38479" lon="2.4551">
        <ele>526.4</ele>
        <time>2014-02-22T10:53:48Z</time>
      </trkpt>
      <trkpt lat="44.38482" lon="2.45508">
        <ele>524.6</ele>
        <time>2014-02-22T10:54:18Z</time>
      </trkpt>
      <trkpt lat="44.38483" lon="2.45509">
        <ele>524.4</ele>
        <time>2014-02-22T10:54:30Z</time>
      </trkpt>
      <trkpt lat="44.38482" lon="2.4551">
        <ele>524.2</ele>
        <time>2014-02-22T10:54:50Z</time>
      </trkpt>
      <trkpt lat="44.3848" lon="2.45515">
        <ele>524.2</ele>
        <time>2014-02-22T10:54:58Z</time>
      </trkpt>
      <trkpt lat="44.38478" lon="2.45516">
        <ele>524.2</ele>
        <time>2014-02-22T10:55:02Z</time>
      </trkpt>
      <trkpt lat="44.38477" lon="2.45509">
        <ele>524.2</ele>
        <time>2014-02-22T10:55:06Z</time>
      </trkpt>
      <trkpt lat="44.38477" lon="2.45505">
        <ele>524.2</ele>
        <time>2014-02-22T10:55:08Z</time>
      </trkpt>
      <trkpt lat="44.38478" lon="2.45504">
        <ele>524.2</ele>
        <time>2014-02-22T10:55:17Z</time>
      </trkpt>
      <trkpt lat="44.38479" lon="2.45505">
        <ele>524.2</ele>
        <time>2014-02-22T10:55:22Z</time>
      </trkpt>
      <trkpt lat="44.38479" lon="2.45505">
        <ele>524.2</ele>
        <time>2014-02-22T10:55:28Z</time>
      </trkpt>
      <trkpt lat="44.38479" lon="2.45505">
        <ele>524.2</ele>
        <time>2014-02-22T10:55:30Z</time>
      </trkpt>
      <trkpt lat="44.38479" lon="2.45506">
        <ele>524.2</ele>
        <time>2014-02-22T10:55:32Z</time>
      </trkpt>
      <trkpt lat="44.38478" lon="2.4551">
        <ele>524.2</ele>
        <time>2014-02-22T10:55:44Z</time>
      </trkpt>
      <trkpt lat="44.38477" lon="2.45513">
        <ele>524.2</ele>
        <time>2014-02-22T10:55:45Z</time>
      </trkpt>
      <trkpt lat="44.38476" lon="2.45515">
        <ele>524.2</ele>
        <time>2014-02-22T10:55:46Z</time>
      </trkpt>
      <trkpt lat="44.38475" lon="2.45514">
        <ele>524.2</ele>
        <time>2014-02-22T10:55:49Z</time>
      </trkpt>
      <trkpt lat="44.38475" lon="2.45512">
        <ele>524.2</ele>
        <time>2014-02-22T10:55:51Z</time>
      </trkpt>
      <trkpt lat="44.38476" lon="2.4551">
        <ele>524.2</ele>
        <time>2014-02-22T10:55:55Z</time>
      </trkpt>
      <trkpt lat="44.38476" lon="2.45508">
        <ele>524.2</ele>
        <time>2014-02-22T10:55:56Z</time>
      </trkpt>
      <trkpt lat="44.38476" lon="2.45504">
        <ele>524.2</ele>
        <time>2014-02-22T10:56:02Z</time>
      </trkpt>
      <trkpt lat="44.38477" lon="2.45495">
        <ele>524.8</ele>
        <time>2014-02-22T10:56:16Z</time>
      </trkpt>
      <trkpt lat="44.38473" lon="2.45491">
        <ele>525.6</ele>
        <time>2014-02-22T10:56:20Z</time>
      </trkpt>
      <trkpt lat="44.3847" lon="2.45484">
        <ele>526.8</ele>
        <time>2014-02-22T10:56:26Z</time>
      </trkpt>
      <trkpt lat="44.38468" lon="2.4548">
        <ele>528.2</ele>
        <time>2014-02-22T10:56:32Z</time>
      </trkpt>
      <trkpt lat="44.38467" lon="2.45473">
        <ele>529.2</ele>
        <time>2014-02-22T10:56:37Z</time>
      </trkpt>
      <trkpt lat="44.38467" lon="2.45467">
        <ele>529.8</ele>
        <time>2014-02-22T10:56:41Z</time>
      </trkpt>
      <trkpt lat="44.38467" lon="2.45466">
        <ele>530.2</ele>
        <time>2014-02-22T10:56:50Z</time>
      </trkpt>
      <trkpt lat="44.38466" lon="2.45464">
        <ele>530.6</ele>
        <time>2014-02-22T10:57:03Z</time>
      </trkpt>
      <trkpt lat="44.38466" lon="2.45463">
        <ele>530.6</ele>
        <time>2014-02-22T10:57:14Z</time>
      </trkpt>
      <trkpt lat="44.38468" lon="2.45463">
        <ele>530.6</ele>
        <time>2014-02-22T10:57:26Z</time>
      </trkpt>
      <trkpt lat="44.38469" lon="2.45465">
        <ele>530.6</ele>
        <time>2014-02-22T10:57:30Z</time>
      </trkpt>
      <trkpt lat="44.38468" lon="2.45466">
        <ele>530.6</ele>
        <time>2014-02-22T10:57:36Z</time>
      </trkpt>
      <trkpt lat="44.38468" lon="2.45465">
        <ele>530.6</ele>
        <time>2014-02-22T10:57:41Z</time>
      </trkpt>
      <trkpt lat="44.38468" lon="2.45464">
        <ele>530.6</ele>
        <time>2014-02-22T10:57:46Z</time>
      </trkpt>
      <trkpt lat="44.38466" lon="2.45469">
        <ele>530.6</ele>
        <time>2014-02-22T10:57:53Z</time>
      </trkpt>
      <trkpt lat="44.38461" lon="2.45484">
        <ele>530.6</ele>
        <time>2014-02-22T10:57:56Z</time>
      </trkpt>
      <trkpt lat="44.38464" lon="2.45509">
        <ele>530.6</ele>
        <time>2014-02-22T10:58:01Z</time>
      </trkpt>
      <trkpt lat="44.3847" lon="2.45528">
        <ele>530.6</ele>
        <time>2014-02-22T10:58:03Z</time>
      </trkpt>
      <trkpt lat="44.38475" lon="2.45547">
        <ele>530.6</ele>
        <time>2014-02-22T10:58:06Z</time>
      </trkpt>
      <trkpt lat="44.38473" lon="2.45582">
        <ele>530.6</ele>
        <time>2014-02-22T10:58:09Z</time>
      </trkpt>
      <trkpt lat="44.3847" lon="2.45592">
        <ele>530.6</ele>
        <time>2014-02-22T10:58:11Z</time>
      </trkpt>
      <trkpt lat="44.38462" lon="2.45607">
        <ele>530.6</ele>
        <time>2014-02-22T10:58:13Z</time>
      </trkpt>
      <trkpt lat="44.38438" lon="2.45621">
        <ele>531.2</ele>
        <time>2014-02-22T10:58:16Z</time>
      </trkpt>
      <trkpt lat="44.3843" lon="2.45622">
        <ele>531.4</ele>
        <time>2014-02-22T10:58:18Z</time>
      </trkpt>
      <trkpt lat="44.38408" lon="2.45628">
        <ele>531.8</ele>
        <time>2014-02-22T10:58:21Z</time>
      </trkpt>
      <trkpt lat="44.38385" lon="2.45646">
        <ele>532</ele>
        <time>2014-02-22T10:58:25Z</time>
      </trkpt>
      <trkpt lat="44.38381" lon="2.45651">
        <ele>532.2</ele>
        <time>2014-02-22T10:58:26Z</time>
      </trkpt>
      <trkpt lat="44.38367" lon="2.45675">
        <ele>532.4</ele>
        <time>2014-02-22T10:58:28Z</time>
      </trkpt>
      <trkpt lat="44.3835" lon="2.45707">
        <ele>533.2</ele>
        <time>2014-02-22T10:58:32Z</time>
      </trkpt>
      <trkpt lat="44.38348" lon="2.45715">
        <ele>533.4</ele>
        <time>2014-02-22T10:58:33Z</time>
      </trkpt>
      <trkpt lat="44.38352" lon="2.45745">
        <ele>533.8</ele>
        <time>2014-02-22T10:58:36Z</time>
      </trkpt>
      <trkpt lat="44.38356" lon="2.45757">
        <ele>533.8</ele>
        <time>2014-02-22T10:58:38Z</time>
      </trkpt>
      <trkpt lat="44.38362" lon="2.45779">
        <ele>534.4</ele>
        <time>2014-02-22T10:58:40Z</time>
      </trkpt>
      <trkpt lat="44.38377" lon="2.45819">
        <ele>535.2</ele>
        <time>2014-02-22T10:58:43Z</time>
      </trkpt>
      <trkpt lat="44.38388" lon="2.45851">
        <ele>535.6</ele>
        <time>2014-02-22T10:58:47Z</time>
      </trkpt>
      <trkpt lat="44.38394" lon="2.45868">
        <ele>536.2</ele>
        <time>2014-02-22T10:58:48Z</time>
      </trkpt>
      <trkpt lat="44.38402" lon="2.4588">
        <ele>536.8</ele>
        <time>2014-02-22T10:58:50Z</time>
      </trkpt>
      <trkpt lat="44.38399" lon="2.45889">
        <ele>537.6</ele>
        <time>2014-02-22T10:58:53Z</time>
      </trkpt>
      <trkpt lat="44.38396" lon="2.45886">
        <ele>537.8</ele>
        <time>2014-02-22T10:58:55Z</time>
      </trkpt>
      <trkpt lat="44.38383" lon="2.45859">
        <ele>539.6</ele>
        <time>2014-02-22T10:59:00Z</time>
      </trkpt>
      <trkpt lat="44.38378" lon="2.45852">
        <ele>540</ele>
        <time>2014-02-22T10:59:01Z</time>
      </trkpt>
      <trkpt lat="44.38362" lon="2.45834">
        <ele>541</ele>
        <time>2014-02-22T10:59:03Z</time>
      </trkpt>
      <trkpt lat="44.38355" lon="2.45829">
        <ele>541.6</ele>
        <time>2014-02-22T10:59:05Z</time>
      </trkpt>
      <trkpt lat="44.38327" lon="2.45808">
        <ele>543.4</ele>
        <time>2014-02-22T10:59:08Z</time>
      </trkpt>
      <trkpt lat="44.38317" lon="2.45796">
        <ele>544</ele>
        <time>2014-02-22T10:59:10Z</time>
      </trkpt>
      <trkpt lat="44.383" lon="2.45773">
        <ele>546.2</ele>
        <time>2014-02-22T10:59:13Z</time>
      </trkpt>
      <trkpt lat="44.38295" lon="2.45769">
        <ele>546.8</ele>
        <time>2014-02-22T10:59:14Z</time>
      </trkpt>
      <trkpt lat="44.3828" lon="2.4577">
        <ele>547.8</ele>
        <time>2014-02-22T10:59:17Z</time>
      </trkpt>
      <trkpt lat="44.38278" lon="2.45773">
        <ele>548.6</ele>
        <time>2014-02-22T10:59:17Z</time>
      </trkpt>
      <trkpt lat="44.38268" lon="2.45791">
        <ele>550.2</ele>
        <time>2014-02-22T10:59:20Z</time>
      </trkpt>
      <trkpt lat="44.38258" lon="2.45795">
        <ele>552.8</ele>
        <time>2014-02-22T10:59:24Z</time>
      </trkpt>
      <trkpt lat="44.38251" lon="2.45785">
        <ele>554</ele>
        <time>2014-02-22T10:59:26Z</time>
      </trkpt>
      <trkpt lat="44.38236" lon="2.45757">
        <ele>555.8</ele>
        <time>2014-02-22T10:59:29Z</time>
      </trkpt>
      <trkpt lat="44.38225" lon="2.45734">
        <ele>556.8</ele>
        <time>2014-02-22T10:59:31Z</time>
      </trkpt>
      <trkpt lat="44.38213" lon="2.45708">
        <ele>558</ele>
        <time>2014-02-22T10:59:33Z</time>
      </trkpt>
      <trkpt lat="44.38198" lon="2.45673">
        <ele>559</ele>
        <time>2014-02-22T10:59:35Z</time>
      </trkpt>
      <trkpt lat="44.38184" lon="2.45638">
        <ele>560.2</ele>
        <time>2014-02-22T10:59:37Z</time>
      </trkpt>
      <trkpt lat="44.3817" lon="2.45607">
        <ele>561.2</ele>
        <time>2014-02-22T10:59:39Z</time>
      </trkpt>
      <trkpt lat="44.38158" lon="2.45574">
        <ele>562.4</ele>
        <time>2014-02-22T10:59:41Z</time>
      </trkpt>
      <trkpt lat="44.38146" lon="2.45541">
        <ele>563.6</ele>
        <time>2014-02-22T10:59:43Z</time>
      </trkpt>
      <trkpt lat="44.38134" lon="2.45509">
        <ele>564.8</ele>
        <time>2014-02-22T10:59:45Z</time>
      </trkpt>
    </trkseg>
  </trk>
</gpx>